<?xml version="1.0" encoding="UTF-8" standalone="no" ?>
<gpx xmlns="http://www.topografix.com/GPX/1/1" xmlns:xsi="http://www.w3.org/2001/XMLSchema-instance" xsi:schemaLocation="http://www.topografix.com/GPX/1/1 http://www.topografix.com/GPX/1/1/gpx.xsd" version="1.1" creator="VisuGPX - https://www.visugpx.com">
  <metadata>
    <name>Hyères pas de griotte </name>
    <desc><![CDATA[Belle balade !!]]></desc>
  </metadata>
  <trk>
    <name><![CDATA[Hyères pas de griotte _1]]></name>
    <trkseg>
      <trkpt lat="43.12282" lon="6.13119">
        <ele>42.6</ele>
        <time>2016-05-16T04:59:04Z</time>
      </trkpt>
      <trkpt lat="43.12282" lon="6.13119">
        <ele>95.2</ele>
        <time>2016-05-16T04:59:06Z</time>
      </trkpt>
      <trkpt lat="43.12271" lon="6.13095">
        <ele>112.6</ele>
        <time>2016-05-16T04:59:48Z</time>
      </trkpt>
      <trkpt lat="43.12253" lon="6.13069">
        <ele>98.5</ele>
        <time>2016-05-16T05:00:15Z</time>
      </trkpt>
      <trkpt lat="43.12233" lon="6.13062">
        <ele>97.5</ele>
        <time>2016-05-16T05:00:22Z</time>
      </trkpt>
      <trkpt lat="43.12233" lon="6.13098">
        <ele>83.8</ele>
        <time>2016-05-16T05:00:33Z</time>
      </trkpt>
      <trkpt lat="43.12227" lon="6.13126">
        <ele>88.6</ele>
        <time>2016-05-16T05:00:41Z</time>
      </trkpt>
      <trkpt lat="43.12211" lon="6.13167">
        <ele>91.2</ele>
        <time>2016-05-16T05:00:47Z</time>
      </trkpt>
      <trkpt lat="43.12184" lon="6.13213">
        <ele>97.5</ele>
        <time>2016-05-16T05:00:52Z</time>
      </trkpt>
      <trkpt lat="43.12163" lon="6.1328">
        <ele>84.9</ele>
        <time>2016-05-16T05:00:59Z</time>
      </trkpt>
      <trkpt lat="43.12147" lon="6.1333">
        <ele>82.8</ele>
        <time>2016-05-16T05:01:05Z</time>
      </trkpt>
      <trkpt lat="43.12126" lon="6.13372">
        <ele>81.3</ele>
        <time>2016-05-16T05:01:10Z</time>
      </trkpt>
      <trkpt lat="43.12098" lon="6.13374">
        <ele>72.6</ele>
        <time>2016-05-16T05:01:17Z</time>
      </trkpt>
      <trkpt lat="43.12095" lon="6.13404">
        <ele>71.1</ele>
        <time>2016-05-16T05:01:22Z</time>
      </trkpt>
      <trkpt lat="43.12107" lon="6.13472">
        <ele>74.1</ele>
        <time>2016-05-16T05:01:31Z</time>
      </trkpt>
      <trkpt lat="43.12115" lon="6.13507">
        <ele>73.3</ele>
        <time>2016-05-16T05:01:36Z</time>
      </trkpt>
      <trkpt lat="43.12119" lon="6.13566">
        <ele>76</ele>
        <time>2016-05-16T05:01:43Z</time>
      </trkpt>
      <trkpt lat="43.12121" lon="6.1361">
        <ele>76.2</ele>
        <time>2016-05-16T05:01:49Z</time>
      </trkpt>
      <trkpt lat="43.12125" lon="6.13647">
        <ele>76.6</ele>
        <time>2016-05-16T05:01:54Z</time>
      </trkpt>
      <trkpt lat="43.12127" lon="6.13697">
        <ele>74.8</ele>
        <time>2016-05-16T05:02:01Z</time>
      </trkpt>
      <trkpt lat="43.1213" lon="6.13741">
        <ele>75.5</ele>
        <time>2016-05-16T05:02:08Z</time>
      </trkpt>
      <trkpt lat="43.12123" lon="6.13771">
        <ele>75.8</ele>
        <time>2016-05-16T05:02:13Z</time>
      </trkpt>
      <trkpt lat="43.12137" lon="6.13803">
        <ele>75.7</ele>
        <time>2016-05-16T05:02:19Z</time>
      </trkpt>
      <trkpt lat="43.12146" lon="6.13851">
        <ele>75.5</ele>
        <time>2016-05-16T05:02:26Z</time>
      </trkpt>
      <trkpt lat="43.1215" lon="6.13887">
        <ele>76.5</ele>
        <time>2016-05-16T05:02:31Z</time>
      </trkpt>
      <trkpt lat="43.12156" lon="6.1393">
        <ele>76.6</ele>
        <time>2016-05-16T05:02:37Z</time>
      </trkpt>
      <trkpt lat="43.12162" lon="6.13966">
        <ele>77.9</ele>
        <time>2016-05-16T05:02:42Z</time>
      </trkpt>
      <trkpt lat="43.12171" lon="6.13999">
        <ele>76.9</ele>
        <time>2016-05-16T05:02:47Z</time>
      </trkpt>
      <trkpt lat="43.12183" lon="6.14031">
        <ele>79.9</ele>
        <time>2016-05-16T05:02:52Z</time>
      </trkpt>
      <trkpt lat="43.12195" lon="6.1407">
        <ele>81</ele>
        <time>2016-05-16T05:02:58Z</time>
      </trkpt>
      <trkpt lat="43.12198" lon="6.141">
        <ele>76.7</ele>
        <time>2016-05-16T05:03:03Z</time>
      </trkpt>
      <trkpt lat="43.12205" lon="6.14129">
        <ele>77</ele>
        <time>2016-05-16T05:03:08Z</time>
      </trkpt>
      <trkpt lat="43.12216" lon="6.14169">
        <ele>76.8</ele>
        <time>2016-05-16T05:03:14Z</time>
      </trkpt>
      <trkpt lat="43.1223" lon="6.14203">
        <ele>78.1</ele>
        <time>2016-05-16T05:03:19Z</time>
      </trkpt>
      <trkpt lat="43.12245" lon="6.14249">
        <ele>80</ele>
        <time>2016-05-16T05:03:26Z</time>
      </trkpt>
      <trkpt lat="43.12257" lon="6.14291">
        <ele>79.7</ele>
        <time>2016-05-16T05:03:32Z</time>
      </trkpt>
      <trkpt lat="43.12274" lon="6.14338">
        <ele>79.8</ele>
        <time>2016-05-16T05:03:39Z</time>
      </trkpt>
      <trkpt lat="43.12283" lon="6.14374">
        <ele>80.6</ele>
        <time>2016-05-16T05:03:44Z</time>
      </trkpt>
      <trkpt lat="43.1229" lon="6.14409">
        <ele>79.2</ele>
        <time>2016-05-16T05:03:49Z</time>
      </trkpt>
      <trkpt lat="43.12303" lon="6.1445">
        <ele>78.1</ele>
        <time>2016-05-16T05:03:55Z</time>
      </trkpt>
      <trkpt lat="43.12318" lon="6.14497">
        <ele>78.3</ele>
        <time>2016-05-16T05:04:01Z</time>
      </trkpt>
      <trkpt lat="43.12333" lon="6.14545">
        <ele>77.5</ele>
        <time>2016-05-16T05:04:07Z</time>
      </trkpt>
      <trkpt lat="43.12353" lon="6.14613">
        <ele>78</ele>
        <time>2016-05-16T05:04:16Z</time>
      </trkpt>
      <trkpt lat="43.12361" lon="6.14656">
        <ele>77.7</ele>
        <time>2016-05-16T05:04:23Z</time>
      </trkpt>
      <trkpt lat="43.12375" lon="6.1469">
        <ele>75.2</ele>
        <time>2016-05-16T05:04:32Z</time>
      </trkpt>
      <trkpt lat="43.12394" lon="6.14742">
        <ele>76</ele>
        <time>2016-05-16T05:04:41Z</time>
      </trkpt>
      <trkpt lat="43.12409" lon="6.14791">
        <ele>75.4</ele>
        <time>2016-05-16T05:04:48Z</time>
      </trkpt>
      <trkpt lat="43.1242" lon="6.14831">
        <ele>72.4</ele>
        <time>2016-05-16T05:04:55Z</time>
      </trkpt>
      <trkpt lat="43.1242" lon="6.14831">
        <ele>72.4</ele>
        <time>2016-05-16T05:05:02Z</time>
      </trkpt>
      <trkpt lat="43.1242" lon="6.14831">
        <ele>21.4</ele>
        <time>2016-05-16T05:05:02Z</time>
      </trkpt>
      <trkpt lat="43.12434" lon="6.14869">
        <ele>70.6</ele>
        <time>2016-05-16T05:05:25Z</time>
      </trkpt>
      <trkpt lat="43.12434" lon="6.14869">
        <ele>20.3</ele>
        <time>2016-05-16T05:05:25Z</time>
      </trkpt>
      <trkpt lat="43.12447" lon="6.14916">
        <ele>70.2</ele>
        <time>2016-05-16T05:05:31Z</time>
      </trkpt>
      <trkpt lat="43.12457" lon="6.14966">
        <ele>70.6</ele>
        <time>2016-05-16T05:05:37Z</time>
      </trkpt>
      <trkpt lat="43.12466" lon="6.15017">
        <ele>70.2</ele>
        <time>2016-05-16T05:05:43Z</time>
      </trkpt>
      <trkpt lat="43.1249" lon="6.15061">
        <ele>70.2</ele>
        <time>2016-05-16T05:05:50Z</time>
      </trkpt>
      <trkpt lat="43.12511" lon="6.15081">
        <ele>69.3</ele>
        <time>2016-05-16T05:05:55Z</time>
      </trkpt>
      <trkpt lat="43.12542" lon="6.15099">
        <ele>69.2</ele>
        <time>2016-05-16T05:06:01Z</time>
      </trkpt>
      <trkpt lat="43.12572" lon="6.15114">
        <ele>69.2</ele>
        <time>2016-05-16T05:06:06Z</time>
      </trkpt>
      <trkpt lat="43.12599" lon="6.15133">
        <ele>68.7</ele>
        <time>2016-05-16T05:06:11Z</time>
      </trkpt>
      <trkpt lat="43.12623" lon="6.1517">
        <ele>65.7</ele>
        <time>2016-05-16T05:06:17Z</time>
      </trkpt>
      <trkpt lat="43.12642" lon="6.15202">
        <ele>64.2</ele>
        <time>2016-05-16T05:06:22Z</time>
      </trkpt>
      <trkpt lat="43.12672" lon="6.15249">
        <ele>64.4</ele>
        <time>2016-05-16T05:06:29Z</time>
      </trkpt>
      <trkpt lat="43.12697" lon="6.15287">
        <ele>65.4</ele>
        <time>2016-05-16T05:06:35Z</time>
      </trkpt>
      <trkpt lat="43.12713" lon="6.15298">
        <ele>66.2</ele>
        <time>2016-05-16T05:06:38Z</time>
      </trkpt>
      <trkpt lat="43.12743" lon="6.15313">
        <ele>67.2</ele>
        <time>2016-05-16T05:06:44Z</time>
      </trkpt>
      <trkpt lat="43.12774" lon="6.15325">
        <ele>67</ele>
        <time>2016-05-16T05:06:49Z</time>
      </trkpt>
      <trkpt lat="43.12803" lon="6.15357">
        <ele>67.1</ele>
        <time>2016-05-16T05:06:55Z</time>
      </trkpt>
      <trkpt lat="43.12831" lon="6.15395">
        <ele>65.9</ele>
        <time>2016-05-16T05:07:01Z</time>
      </trkpt>
      <trkpt lat="43.12852" lon="6.1543">
        <ele>65.6</ele>
        <time>2016-05-16T05:07:06Z</time>
      </trkpt>
      <trkpt lat="43.12874" lon="6.1548">
        <ele>64.2</ele>
        <time>2016-05-16T05:07:12Z</time>
      </trkpt>
      <trkpt lat="43.12878" lon="6.15513">
        <ele>59.1</ele>
        <time>2016-05-16T05:07:17Z</time>
      </trkpt>
      <trkpt lat="43.1288" lon="6.15564">
        <ele>58.5</ele>
        <time>2016-05-16T05:07:24Z</time>
      </trkpt>
      <trkpt lat="43.12901" lon="6.15604">
        <ele>60.2</ele>
        <time>2016-05-16T05:07:30Z</time>
      </trkpt>
      <trkpt lat="43.12912" lon="6.15657">
        <ele>58.7</ele>
        <time>2016-05-16T05:07:37Z</time>
      </trkpt>
      <trkpt lat="43.12911" lon="6.15695">
        <ele>55.4</ele>
        <time>2016-05-16T05:07:42Z</time>
      </trkpt>
      <trkpt lat="43.12907" lon="6.15749">
        <ele>56.9</ele>
        <time>2016-05-16T05:07:49Z</time>
      </trkpt>
      <trkpt lat="43.12902" lon="6.15804">
        <ele>58.9</ele>
        <time>2016-05-16T05:07:56Z</time>
      </trkpt>
      <trkpt lat="43.12898" lon="6.15848">
        <ele>58.6</ele>
        <time>2016-05-16T05:08:02Z</time>
      </trkpt>
      <trkpt lat="43.12899" lon="6.15883">
        <ele>58.7</ele>
        <time>2016-05-16T05:08:07Z</time>
      </trkpt>
      <trkpt lat="43.12901" lon="6.15918">
        <ele>57.1</ele>
        <time>2016-05-16T05:08:12Z</time>
      </trkpt>
      <trkpt lat="43.12907" lon="6.15954">
        <ele>57.6</ele>
        <time>2016-05-16T05:08:17Z</time>
      </trkpt>
      <trkpt lat="43.12917" lon="6.15997">
        <ele>57.3</ele>
        <time>2016-05-16T05:08:23Z</time>
      </trkpt>
      <trkpt lat="43.12926" lon="6.16037">
        <ele>56.2</ele>
        <time>2016-05-16T05:08:29Z</time>
      </trkpt>
      <trkpt lat="43.12937" lon="6.1609">
        <ele>54.7</ele>
        <time>2016-05-16T05:08:37Z</time>
      </trkpt>
      <trkpt lat="43.12945" lon="6.16125">
        <ele>55.4</ele>
        <time>2016-05-16T05:08:42Z</time>
      </trkpt>
      <trkpt lat="43.12955" lon="6.16165">
        <ele>55.1</ele>
        <time>2016-05-16T05:08:48Z</time>
      </trkpt>
      <trkpt lat="43.12963" lon="6.16197">
        <ele>54.6</ele>
        <time>2016-05-16T05:08:53Z</time>
      </trkpt>
      <trkpt lat="43.12972" lon="6.16238">
        <ele>55.7</ele>
        <time>2016-05-16T05:08:59Z</time>
      </trkpt>
      <trkpt lat="43.1298" lon="6.16272">
        <ele>54.7</ele>
        <time>2016-05-16T05:09:04Z</time>
      </trkpt>
      <trkpt lat="43.12988" lon="6.16319">
        <ele>54.2</ele>
        <time>2016-05-16T05:09:11Z</time>
      </trkpt>
      <trkpt lat="43.12995" lon="6.1636">
        <ele>53.7</ele>
        <time>2016-05-16T05:09:17Z</time>
      </trkpt>
      <trkpt lat="43.13005" lon="6.16394">
        <ele>53</ele>
        <time>2016-05-16T05:09:22Z</time>
      </trkpt>
      <trkpt lat="43.13023" lon="6.16444">
        <ele>53.4</ele>
        <time>2016-05-16T05:09:29Z</time>
      </trkpt>
      <trkpt lat="43.13034" lon="6.16476">
        <ele>53.8</ele>
        <time>2016-05-16T05:09:34Z</time>
      </trkpt>
      <trkpt lat="43.13041" lon="6.16515">
        <ele>54.5</ele>
        <time>2016-05-16T05:09:41Z</time>
      </trkpt>
      <trkpt lat="43.1305" lon="6.16544">
        <ele>55.4</ele>
        <time>2016-05-16T05:09:46Z</time>
      </trkpt>
      <trkpt lat="43.13058" lon="6.16577">
        <ele>59.4</ele>
        <time>2016-05-16T05:09:52Z</time>
      </trkpt>
      <trkpt lat="43.13067" lon="6.16614">
        <ele>62.4</ele>
        <time>2016-05-16T05:09:59Z</time>
      </trkpt>
      <trkpt lat="43.13069" lon="6.16647">
        <ele>62</ele>
        <time>2016-05-16T05:10:04Z</time>
      </trkpt>
      <trkpt lat="43.13059" lon="6.16695">
        <ele>60.3</ele>
        <time>2016-05-16T05:10:10Z</time>
      </trkpt>
      <trkpt lat="43.1305" lon="6.16718">
        <ele>59.1</ele>
        <time>2016-05-16T05:10:13Z</time>
      </trkpt>
      <trkpt lat="43.13036" lon="6.16759">
        <ele>57.2</ele>
        <time>2016-05-16T05:10:18Z</time>
      </trkpt>
      <trkpt lat="43.13024" lon="6.16813">
        <ele>56.4</ele>
        <time>2016-05-16T05:10:24Z</time>
      </trkpt>
      <trkpt lat="43.13026" lon="6.16859">
        <ele>56.5</ele>
        <time>2016-05-16T05:10:29Z</time>
      </trkpt>
      <trkpt lat="43.13044" lon="6.16915">
        <ele>55.2</ele>
        <time>2016-05-16T05:10:36Z</time>
      </trkpt>
      <trkpt lat="43.13064" lon="6.16945">
        <ele>53.4</ele>
        <time>2016-05-16T05:10:41Z</time>
      </trkpt>
      <trkpt lat="43.13085" lon="6.16982">
        <ele>51.7</ele>
        <time>2016-05-16T05:10:47Z</time>
      </trkpt>
      <trkpt lat="43.13107" lon="6.17008">
        <ele>48.2</ele>
        <time>2016-05-16T05:10:52Z</time>
      </trkpt>
      <trkpt lat="43.13133" lon="6.17039">
        <ele>47.8</ele>
        <time>2016-05-16T05:10:58Z</time>
      </trkpt>
      <trkpt lat="43.13155" lon="6.17062">
        <ele>49.8</ele>
        <time>2016-05-16T05:11:03Z</time>
      </trkpt>
      <trkpt lat="43.13182" lon="6.1709">
        <ele>47.2</ele>
        <time>2016-05-16T05:11:09Z</time>
      </trkpt>
      <trkpt lat="43.13202" lon="6.17148">
        <ele>53.9</ele>
        <time>2016-05-16T05:11:17Z</time>
      </trkpt>
      <trkpt lat="43.13191" lon="6.17182">
        <ele>55.7</ele>
        <time>2016-05-16T05:11:22Z</time>
      </trkpt>
      <trkpt lat="43.13181" lon="6.1722">
        <ele>56.4</ele>
        <time>2016-05-16T05:11:28Z</time>
      </trkpt>
      <trkpt lat="43.13172" lon="6.17252">
        <ele>57.2</ele>
        <time>2016-05-16T05:11:33Z</time>
      </trkpt>
      <trkpt lat="43.13161" lon="6.17291">
        <ele>58.5</ele>
        <time>2016-05-16T05:11:39Z</time>
      </trkpt>
      <trkpt lat="43.1315" lon="6.17321">
        <ele>57</ele>
        <time>2016-05-16T05:11:44Z</time>
      </trkpt>
      <trkpt lat="43.1314" lon="6.17353">
        <ele>60</ele>
        <time>2016-05-16T05:11:49Z</time>
      </trkpt>
      <trkpt lat="43.13123" lon="6.17411">
        <ele>60.4</ele>
        <time>2016-05-16T05:11:58Z</time>
      </trkpt>
      <trkpt lat="43.13111" lon="6.17451">
        <ele>59.8</ele>
        <time>2016-05-16T05:12:04Z</time>
      </trkpt>
      <trkpt lat="43.13102" lon="6.17476">
        <ele>59.3</ele>
        <time>2016-05-16T05:12:08Z</time>
      </trkpt>
      <trkpt lat="43.13092" lon="6.17509">
        <ele>60</ele>
        <time>2016-05-16T05:12:13Z</time>
      </trkpt>
      <trkpt lat="43.13077" lon="6.17548">
        <ele>61.9</ele>
        <time>2016-05-16T05:12:20Z</time>
      </trkpt>
      <trkpt lat="43.13065" lon="6.17589">
        <ele>62.3</ele>
        <time>2016-05-16T05:12:26Z</time>
      </trkpt>
      <trkpt lat="43.13053" lon="6.17621">
        <ele>62</ele>
        <time>2016-05-16T05:12:31Z</time>
      </trkpt>
      <trkpt lat="43.13024" lon="6.17692">
        <ele>61</ele>
        <time>2016-05-16T05:12:41Z</time>
      </trkpt>
      <trkpt lat="43.12999" lon="6.17751">
        <ele>60</ele>
        <time>2016-05-16T05:12:49Z</time>
      </trkpt>
      <trkpt lat="43.12983" lon="6.17788">
        <ele>59.8</ele>
        <time>2016-05-16T05:12:54Z</time>
      </trkpt>
      <trkpt lat="43.1297" lon="6.17827">
        <ele>60.3</ele>
        <time>2016-05-16T05:12:59Z</time>
      </trkpt>
      <trkpt lat="43.12958" lon="6.17877">
        <ele>60.7</ele>
        <time>2016-05-16T05:13:05Z</time>
      </trkpt>
      <trkpt lat="43.12949" lon="6.17917">
        <ele>60.9</ele>
        <time>2016-05-16T05:13:10Z</time>
      </trkpt>
      <trkpt lat="43.12932" lon="6.17984">
        <ele>59.5</ele>
        <time>2016-05-16T05:13:19Z</time>
      </trkpt>
      <trkpt lat="43.12922" lon="6.1804">
        <ele>61.1</ele>
        <time>2016-05-16T05:13:26Z</time>
      </trkpt>
      <trkpt lat="43.12918" lon="6.18081">
        <ele>59.4</ele>
        <time>2016-05-16T05:13:31Z</time>
      </trkpt>
      <trkpt lat="43.12905" lon="6.18152">
        <ele>57.8</ele>
        <time>2016-05-16T05:13:40Z</time>
      </trkpt>
      <trkpt lat="43.12895" lon="6.18202">
        <ele>58.7</ele>
        <time>2016-05-16T05:13:46Z</time>
      </trkpt>
      <trkpt lat="43.12888" lon="6.1824">
        <ele>59.4</ele>
        <time>2016-05-16T05:13:51Z</time>
      </trkpt>
      <trkpt lat="43.1288" lon="6.18299">
        <ele>59.7</ele>
        <time>2016-05-16T05:13:59Z</time>
      </trkpt>
      <trkpt lat="43.12873" lon="6.18338">
        <ele>60.7</ele>
        <time>2016-05-16T05:14:04Z</time>
      </trkpt>
      <trkpt lat="43.12864" lon="6.18389">
        <ele>61.4</ele>
        <time>2016-05-16T05:14:11Z</time>
      </trkpt>
      <trkpt lat="43.12849" lon="6.18455">
        <ele>59.8</ele>
        <time>2016-05-16T05:14:20Z</time>
      </trkpt>
      <trkpt lat="43.12837" lon="6.18491">
        <ele>59.7</ele>
        <time>2016-05-16T05:14:25Z</time>
      </trkpt>
      <trkpt lat="43.1282" lon="6.18533">
        <ele>59.9</ele>
        <time>2016-05-16T05:14:31Z</time>
      </trkpt>
      <trkpt lat="43.12807" lon="6.18567">
        <ele>59.5</ele>
        <time>2016-05-16T05:14:36Z</time>
      </trkpt>
      <trkpt lat="43.12788" lon="6.18622">
        <ele>57.2</ele>
        <time>2016-05-16T05:14:43Z</time>
      </trkpt>
      <trkpt lat="43.12776" lon="6.18662">
        <ele>57</ele>
        <time>2016-05-16T05:14:48Z</time>
      </trkpt>
      <trkpt lat="43.12764" lon="6.1872">
        <ele>55.3</ele>
        <time>2016-05-16T05:14:55Z</time>
      </trkpt>
      <trkpt lat="43.12754" lon="6.18776">
        <ele>55.8</ele>
        <time>2016-05-16T05:15:02Z</time>
      </trkpt>
      <trkpt lat="43.12745" lon="6.18835">
        <ele>56</ele>
        <time>2016-05-16T05:15:09Z</time>
      </trkpt>
      <trkpt lat="43.12733" lon="6.18893">
        <ele>55.8</ele>
        <time>2016-05-16T05:15:16Z</time>
      </trkpt>
      <trkpt lat="43.12726" lon="6.18946">
        <ele>55.6</ele>
        <time>2016-05-16T05:15:22Z</time>
      </trkpt>
      <trkpt lat="43.12711" lon="6.19011">
        <ele>56.7</ele>
        <time>2016-05-16T05:15:30Z</time>
      </trkpt>
      <trkpt lat="43.1268" lon="6.19019">
        <ele>57</ele>
        <time>2016-05-16T05:15:36Z</time>
      </trkpt>
      <trkpt lat="43.12644" lon="6.18996">
        <ele>57.3</ele>
        <time>2016-05-16T05:15:43Z</time>
      </trkpt>
      <trkpt lat="43.12621" lon="6.18975">
        <ele>57.3</ele>
        <time>2016-05-16T05:15:49Z</time>
      </trkpt>
      <trkpt lat="43.12579" lon="6.18963">
        <ele>58.5</ele>
        <time>2016-05-16T05:15:57Z</time>
      </trkpt>
      <trkpt lat="43.12553" lon="6.18954">
        <ele>57.7</ele>
        <time>2016-05-16T05:16:02Z</time>
      </trkpt>
      <trkpt lat="43.12525" lon="6.18945">
        <ele>55.9</ele>
        <time>2016-05-16T05:16:07Z</time>
      </trkpt>
      <trkpt lat="43.12479" lon="6.1891">
        <ele>50.1</ele>
        <time>2016-05-16T05:16:15Z</time>
      </trkpt>
      <trkpt lat="43.12462" lon="6.18884">
        <ele>49.2</ele>
        <time>2016-05-16T05:16:20Z</time>
      </trkpt>
      <trkpt lat="43.1244" lon="6.18882">
        <ele>46</ele>
        <time>2016-05-16T05:16:29Z</time>
      </trkpt>
      <trkpt lat="43.12452" lon="6.18932">
        <ele>47.5</ele>
        <time>2016-05-16T05:16:38Z</time>
      </trkpt>
      <trkpt lat="43.12473" lon="6.18961">
        <ele>50.4</ele>
        <time>2016-05-16T05:16:43Z</time>
      </trkpt>
      <trkpt lat="43.12496" lon="6.18988">
        <ele>49.6</ele>
        <time>2016-05-16T05:16:49Z</time>
      </trkpt>
      <trkpt lat="43.12509" lon="6.19021">
        <ele>51.9</ele>
        <time>2016-05-16T05:16:54Z</time>
      </trkpt>
      <trkpt lat="43.12533" lon="6.1905">
        <ele>53.6</ele>
        <time>2016-05-16T05:17:01Z</time>
      </trkpt>
      <trkpt lat="43.12534" lon="6.19084">
        <ele>55.6</ele>
        <time>2016-05-16T05:17:06Z</time>
      </trkpt>
      <trkpt lat="43.12533" lon="6.19126">
        <ele>57.2</ele>
        <time>2016-05-16T05:17:12Z</time>
      </trkpt>
      <trkpt lat="43.1253" lon="6.19176">
        <ele>55.8</ele>
        <time>2016-05-16T05:17:19Z</time>
      </trkpt>
      <trkpt lat="43.12526" lon="6.19244">
        <ele>56.5</ele>
        <time>2016-05-16T05:17:28Z</time>
      </trkpt>
      <trkpt lat="43.12524" lon="6.19282">
        <ele>57.1</ele>
        <time>2016-05-16T05:17:33Z</time>
      </trkpt>
      <trkpt lat="43.12524" lon="6.19326">
        <ele>58.1</ele>
        <time>2016-05-16T05:17:39Z</time>
      </trkpt>
      <trkpt lat="43.12523" lon="6.19383">
        <ele>58</ele>
        <time>2016-05-16T05:17:46Z</time>
      </trkpt>
      <trkpt lat="43.12525" lon="6.19429">
        <ele>59.8</ele>
        <time>2016-05-16T05:17:52Z</time>
      </trkpt>
      <trkpt lat="43.12524" lon="6.19474">
        <ele>61.3</ele>
        <time>2016-05-16T05:17:58Z</time>
      </trkpt>
      <trkpt lat="43.12524" lon="6.19512">
        <ele>61.7</ele>
        <time>2016-05-16T05:18:03Z</time>
      </trkpt>
      <trkpt lat="43.12531" lon="6.19566">
        <ele>59.4</ele>
        <time>2016-05-16T05:18:10Z</time>
      </trkpt>
      <trkpt lat="43.12536" lon="6.19628">
        <ele>59.9</ele>
        <time>2016-05-16T05:18:18Z</time>
      </trkpt>
      <trkpt lat="43.1254" lon="6.19664">
        <ele>59.3</ele>
        <time>2016-05-16T05:18:23Z</time>
      </trkpt>
      <trkpt lat="43.12549" lon="6.19729">
        <ele>60.6</ele>
        <time>2016-05-16T05:18:32Z</time>
      </trkpt>
      <trkpt lat="43.12555" lon="6.19772">
        <ele>58.2</ele>
        <time>2016-05-16T05:18:38Z</time>
      </trkpt>
      <trkpt lat="43.12558" lon="6.19809">
        <ele>59.8</ele>
        <time>2016-05-16T05:18:43Z</time>
      </trkpt>
      <trkpt lat="43.12561" lon="6.19851">
        <ele>60.8</ele>
        <time>2016-05-16T05:18:49Z</time>
      </trkpt>
      <trkpt lat="43.12573" lon="6.19882">
        <ele>60.2</ele>
        <time>2016-05-16T05:18:54Z</time>
      </trkpt>
      <trkpt lat="43.1256" lon="6.19923">
        <ele>57.9</ele>
        <time>2016-05-16T05:19:01Z</time>
      </trkpt>
      <trkpt lat="43.12564" lon="6.19973">
        <ele>58.3</ele>
        <time>2016-05-16T05:19:08Z</time>
      </trkpt>
      <trkpt lat="43.12579" lon="6.20009">
        <ele>58.4</ele>
        <time>2016-05-16T05:19:14Z</time>
      </trkpt>
      <trkpt lat="43.12588" lon="6.20038">
        <ele>59.3</ele>
        <time>2016-05-16T05:19:19Z</time>
      </trkpt>
      <trkpt lat="43.12602" lon="6.20068">
        <ele>58.8</ele>
        <time>2016-05-16T05:19:24Z</time>
      </trkpt>
      <trkpt lat="43.12618" lon="6.20098">
        <ele>58.5</ele>
        <time>2016-05-16T05:19:29Z</time>
      </trkpt>
      <trkpt lat="43.12626" lon="6.20134">
        <ele>58.2</ele>
        <time>2016-05-16T05:19:35Z</time>
      </trkpt>
      <trkpt lat="43.12634" lon="6.20168">
        <ele>57</ele>
        <time>2016-05-16T05:19:40Z</time>
      </trkpt>
      <trkpt lat="43.12641" lon="6.20205">
        <ele>58.1</ele>
        <time>2016-05-16T05:19:45Z</time>
      </trkpt>
      <trkpt lat="43.12652" lon="6.20254">
        <ele>59</ele>
        <time>2016-05-16T05:19:52Z</time>
      </trkpt>
      <trkpt lat="43.12661" lon="6.20301">
        <ele>59.4</ele>
        <time>2016-05-16T05:19:59Z</time>
      </trkpt>
      <trkpt lat="43.12661" lon="6.20336">
        <ele>58.8</ele>
        <time>2016-05-16T05:20:04Z</time>
      </trkpt>
      <trkpt lat="43.12667" lon="6.20378">
        <ele>58.7</ele>
        <time>2016-05-16T05:20:10Z</time>
      </trkpt>
      <trkpt lat="43.12675" lon="6.20409">
        <ele>58.8</ele>
        <time>2016-05-16T05:20:15Z</time>
      </trkpt>
      <trkpt lat="43.12685" lon="6.20446">
        <ele>59.5</ele>
        <time>2016-05-16T05:20:21Z</time>
      </trkpt>
      <trkpt lat="43.12696" lon="6.20489">
        <ele>60</ele>
        <time>2016-05-16T05:20:28Z</time>
      </trkpt>
      <trkpt lat="43.12703" lon="6.20519">
        <ele>62.1</ele>
        <time>2016-05-16T05:20:33Z</time>
      </trkpt>
      <trkpt lat="43.12717" lon="6.2056">
        <ele>64</ele>
        <time>2016-05-16T05:20:40Z</time>
      </trkpt>
      <trkpt lat="43.12712" lon="6.20612">
        <ele>62.3</ele>
        <time>2016-05-16T05:20:47Z</time>
      </trkpt>
      <trkpt lat="43.12718" lon="6.20649">
        <ele>62.3</ele>
        <time>2016-05-16T05:20:52Z</time>
      </trkpt>
      <trkpt lat="43.12728" lon="6.20709">
        <ele>63.3</ele>
        <time>2016-05-16T05:21:00Z</time>
      </trkpt>
      <trkpt lat="43.12737" lon="6.20743">
        <ele>63.2</ele>
        <time>2016-05-16T05:21:05Z</time>
      </trkpt>
      <trkpt lat="43.12746" lon="6.20785">
        <ele>64.3</ele>
        <time>2016-05-16T05:21:11Z</time>
      </trkpt>
      <trkpt lat="43.12751" lon="6.20822">
        <ele>62.5</ele>
        <time>2016-05-16T05:21:16Z</time>
      </trkpt>
      <trkpt lat="43.1276" lon="6.20874">
        <ele>61.7</ele>
        <time>2016-05-16T05:21:23Z</time>
      </trkpt>
      <trkpt lat="43.12768" lon="6.20911">
        <ele>61.9</ele>
        <time>2016-05-16T05:21:28Z</time>
      </trkpt>
      <trkpt lat="43.12782" lon="6.20936">
        <ele>63.7</ele>
        <time>2016-05-16T05:21:33Z</time>
      </trkpt>
      <trkpt lat="43.12792" lon="6.20968">
        <ele>62.2</ele>
        <time>2016-05-16T05:21:39Z</time>
      </trkpt>
      <trkpt lat="43.12798" lon="6.21014">
        <ele>62.4</ele>
        <time>2016-05-16T05:21:46Z</time>
      </trkpt>
      <trkpt lat="43.12811" lon="6.21074">
        <ele>63.3</ele>
        <time>2016-05-16T05:21:55Z</time>
      </trkpt>
      <trkpt lat="43.12819" lon="6.21107">
        <ele>63.5</ele>
        <time>2016-05-16T05:22:00Z</time>
      </trkpt>
      <trkpt lat="43.12825" lon="6.2114">
        <ele>63.3</ele>
        <time>2016-05-16T05:22:05Z</time>
      </trkpt>
      <trkpt lat="43.12831" lon="6.2118">
        <ele>63.6</ele>
        <time>2016-05-16T05:22:11Z</time>
      </trkpt>
      <trkpt lat="43.12835" lon="6.21212">
        <ele>62.2</ele>
        <time>2016-05-16T05:22:16Z</time>
      </trkpt>
      <trkpt lat="43.12844" lon="6.21245">
        <ele>62.8</ele>
        <time>2016-05-16T05:22:21Z</time>
      </trkpt>
      <trkpt lat="43.12849" lon="6.21286">
        <ele>64</ele>
        <time>2016-05-16T05:22:27Z</time>
      </trkpt>
      <trkpt lat="43.12857" lon="6.21319">
        <ele>64.4</ele>
        <time>2016-05-16T05:22:32Z</time>
      </trkpt>
      <trkpt lat="43.12866" lon="6.21368">
        <ele>65.4</ele>
        <time>2016-05-16T05:22:39Z</time>
      </trkpt>
      <trkpt lat="43.12873" lon="6.21408">
        <ele>65.6</ele>
        <time>2016-05-16T05:22:45Z</time>
      </trkpt>
      <trkpt lat="43.12881" lon="6.21454">
        <ele>64.7</ele>
        <time>2016-05-16T05:22:52Z</time>
      </trkpt>
      <trkpt lat="43.12889" lon="6.21486">
        <ele>64.7</ele>
        <time>2016-05-16T05:22:57Z</time>
      </trkpt>
      <trkpt lat="43.12885" lon="6.21513">
        <ele>62</ele>
        <time>2016-05-16T05:23:02Z</time>
      </trkpt>
      <trkpt lat="43.12889" lon="6.21552">
        <ele>62.6</ele>
        <time>2016-05-16T05:23:09Z</time>
      </trkpt>
      <trkpt lat="43.12896" lon="6.21593">
        <ele>62.3</ele>
        <time>2016-05-16T05:23:16Z</time>
      </trkpt>
      <trkpt lat="43.12906" lon="6.21632">
        <ele>61.3</ele>
        <time>2016-05-16T05:23:23Z</time>
      </trkpt>
      <trkpt lat="43.12919" lon="6.21666">
        <ele>59.9</ele>
        <time>2016-05-16T05:23:29Z</time>
      </trkpt>
      <trkpt lat="43.12927" lon="6.21696">
        <ele>60.5</ele>
        <time>2016-05-16T05:23:34Z</time>
      </trkpt>
      <trkpt lat="43.1294" lon="6.21726">
        <ele>61.8</ele>
        <time>2016-05-16T05:23:40Z</time>
      </trkpt>
      <trkpt lat="43.12952" lon="6.21733">
        <ele>59.2</ele>
        <time>2016-05-16T05:23:45Z</time>
      </trkpt>
      <trkpt lat="43.12976" lon="6.21761">
        <ele>60.6</ele>
        <time>2016-05-16T05:23:52Z</time>
      </trkpt>
      <trkpt lat="43.12991" lon="6.21795">
        <ele>61.6</ele>
        <time>2016-05-16T05:23:59Z</time>
      </trkpt>
      <trkpt lat="43.13014" lon="6.21836">
        <ele>68.1</ele>
        <time>2016-05-16T05:24:08Z</time>
      </trkpt>
      <trkpt lat="43.13027" lon="6.2186">
        <ele>71.5</ele>
        <time>2016-05-16T05:24:14Z</time>
      </trkpt>
      <trkpt lat="43.13041" lon="6.21884">
        <ele>72.7</ele>
        <time>2016-05-16T05:24:20Z</time>
      </trkpt>
      <trkpt lat="43.13049" lon="6.21897">
        <ele>72.5</ele>
        <time>2016-05-16T05:24:23Z</time>
      </trkpt>
      <trkpt lat="43.13065" lon="6.21924">
        <ele>72</ele>
        <time>2016-05-16T05:24:29Z</time>
      </trkpt>
      <trkpt lat="43.13081" lon="6.2195">
        <ele>72.2</ele>
        <time>2016-05-16T05:24:35Z</time>
      </trkpt>
      <trkpt lat="43.13093" lon="6.2197">
        <ele>70.8</ele>
        <time>2016-05-16T05:24:40Z</time>
      </trkpt>
      <trkpt lat="43.13106" lon="6.2199">
        <ele>70.8</ele>
        <time>2016-05-16T05:24:45Z</time>
      </trkpt>
      <trkpt lat="43.13123" lon="6.22012">
        <ele>72.4</ele>
        <time>2016-05-16T05:24:51Z</time>
      </trkpt>
      <trkpt lat="43.13135" lon="6.22031">
        <ele>72.3</ele>
        <time>2016-05-16T05:24:56Z</time>
      </trkpt>
      <trkpt lat="43.13143" lon="6.22048">
        <ele>72.6</ele>
        <time>2016-05-16T05:25:01Z</time>
      </trkpt>
      <trkpt lat="43.13158" lon="6.22074">
        <ele>74.2</ele>
        <time>2016-05-16T05:25:08Z</time>
      </trkpt>
      <trkpt lat="43.13179" lon="6.22108">
        <ele>74.9</ele>
        <time>2016-05-16T05:25:16Z</time>
      </trkpt>
      <trkpt lat="43.13194" lon="6.22133">
        <ele>77.4</ele>
        <time>2016-05-16T05:25:21Z</time>
      </trkpt>
      <trkpt lat="43.13211" lon="6.22166">
        <ele>75.4</ele>
        <time>2016-05-16T05:25:28Z</time>
      </trkpt>
      <trkpt lat="43.13226" lon="6.2219">
        <ele>75.2</ele>
        <time>2016-05-16T05:25:34Z</time>
      </trkpt>
      <trkpt lat="43.1324" lon="6.22203">
        <ele>75.9</ele>
        <time>2016-05-16T05:25:39Z</time>
      </trkpt>
      <trkpt lat="43.13248" lon="6.22227">
        <ele>75.1</ele>
        <time>2016-05-16T05:25:45Z</time>
      </trkpt>
      <trkpt lat="43.13254" lon="6.22257">
        <ele>74</ele>
        <time>2016-05-16T05:25:52Z</time>
      </trkpt>
      <trkpt lat="43.13268" lon="6.22286">
        <ele>73.8</ele>
        <time>2016-05-16T05:25:58Z</time>
      </trkpt>
      <trkpt lat="43.13287" lon="6.22317">
        <ele>74</ele>
        <time>2016-05-16T05:26:04Z</time>
      </trkpt>
      <trkpt lat="43.13304" lon="6.22344">
        <ele>74.8</ele>
        <time>2016-05-16T05:26:09Z</time>
      </trkpt>
      <trkpt lat="43.13321" lon="6.22371">
        <ele>75.1</ele>
        <time>2016-05-16T05:26:14Z</time>
      </trkpt>
      <trkpt lat="43.13342" lon="6.22403">
        <ele>74.3</ele>
        <time>2016-05-16T05:26:20Z</time>
      </trkpt>
      <trkpt lat="43.13362" lon="6.2244">
        <ele>74.5</ele>
        <time>2016-05-16T05:26:27Z</time>
      </trkpt>
      <trkpt lat="43.13378" lon="6.22471">
        <ele>73.4</ele>
        <time>2016-05-16T05:26:33Z</time>
      </trkpt>
      <trkpt lat="43.13396" lon="6.22494">
        <ele>74.6</ele>
        <time>2016-05-16T05:26:39Z</time>
      </trkpt>
      <trkpt lat="43.1342" lon="6.2252">
        <ele>75.3</ele>
        <time>2016-05-16T05:26:46Z</time>
      </trkpt>
      <trkpt lat="43.13434" lon="6.2257">
        <ele>72.5</ele>
        <time>2016-05-16T05:26:55Z</time>
      </trkpt>
      <trkpt lat="43.13445" lon="6.22602">
        <ele>74.3</ele>
        <time>2016-05-16T05:27:01Z</time>
      </trkpt>
      <trkpt lat="43.13466" lon="6.22643">
        <ele>74.8</ele>
        <time>2016-05-16T05:27:09Z</time>
      </trkpt>
      <trkpt lat="43.13481" lon="6.22674">
        <ele>76.9</ele>
        <time>2016-05-16T05:27:15Z</time>
      </trkpt>
      <trkpt lat="43.13505" lon="6.22712">
        <ele>76</ele>
        <time>2016-05-16T05:27:22Z</time>
      </trkpt>
      <trkpt lat="43.1353" lon="6.22751">
        <ele>75.5</ele>
        <time>2016-05-16T05:27:29Z</time>
      </trkpt>
      <trkpt lat="43.13553" lon="6.22789">
        <ele>75.4</ele>
        <time>2016-05-16T05:27:36Z</time>
      </trkpt>
      <trkpt lat="43.13572" lon="6.22828">
        <ele>75.1</ele>
        <time>2016-05-16T05:27:43Z</time>
      </trkpt>
      <trkpt lat="43.1359" lon="6.22856">
        <ele>74.8</ele>
        <time>2016-05-16T05:27:48Z</time>
      </trkpt>
      <trkpt lat="43.13613" lon="6.22906">
        <ele>72.8</ele>
        <time>2016-05-16T05:27:56Z</time>
      </trkpt>
      <trkpt lat="43.13623" lon="6.22937">
        <ele>71.3</ele>
        <time>2016-05-16T05:28:03Z</time>
      </trkpt>
      <trkpt lat="43.13623" lon="6.22937">
        <ele>71.3</ele>
        <time>2016-05-16T05:28:08Z</time>
      </trkpt>
      <trkpt lat="43.13623" lon="6.22937">
        <ele>18.1</ele>
        <time>2016-05-16T05:28:08Z</time>
      </trkpt>
      <trkpt lat="43.13623" lon="6.22937">
        <ele>18.1</ele>
        <time>2016-05-16T05:28:28Z</time>
      </trkpt>
      <trkpt lat="43.13629" lon="6.22962">
        <ele>66.7</ele>
        <time>2016-05-16T05:28:28Z</time>
      </trkpt>
      <trkpt lat="43.13637" lon="6.23">
        <ele>68.2</ele>
        <time>2016-05-16T05:28:36Z</time>
      </trkpt>
      <trkpt lat="43.13647" lon="6.23035">
        <ele>68.4</ele>
        <time>2016-05-16T05:28:42Z</time>
      </trkpt>
      <trkpt lat="43.13666" lon="6.23076">
        <ele>72.4</ele>
        <time>2016-05-16T05:28:49Z</time>
      </trkpt>
      <trkpt lat="43.13682" lon="6.23117">
        <ele>71.7</ele>
        <time>2016-05-16T05:28:56Z</time>
      </trkpt>
      <trkpt lat="43.13691" lon="6.23146">
        <ele>70.3</ele>
        <time>2016-05-16T05:29:01Z</time>
      </trkpt>
      <trkpt lat="43.13704" lon="6.23179">
        <ele>71.5</ele>
        <time>2016-05-16T05:29:07Z</time>
      </trkpt>
      <trkpt lat="43.13706" lon="6.23198">
        <ele>68.6</ele>
        <time>2016-05-16T05:29:14Z</time>
      </trkpt>
      <trkpt lat="43.13716" lon="6.23254">
        <ele>69.8</ele>
        <time>2016-05-16T05:29:23Z</time>
      </trkpt>
      <trkpt lat="43.13724" lon="6.23282">
        <ele>71</ele>
        <time>2016-05-16T05:29:28Z</time>
      </trkpt>
      <trkpt lat="43.13733" lon="6.23308">
        <ele>71.5</ele>
        <time>2016-05-16T05:29:33Z</time>
      </trkpt>
      <trkpt lat="43.13746" lon="6.23346">
        <ele>67.3</ele>
        <time>2016-05-16T05:29:39Z</time>
      </trkpt>
      <trkpt lat="43.13766" lon="6.23394">
        <ele>68.2</ele>
        <time>2016-05-16T05:29:46Z</time>
      </trkpt>
      <trkpt lat="43.13775" lon="6.23431">
        <ele>66.8</ele>
        <time>2016-05-16T05:29:52Z</time>
      </trkpt>
      <trkpt lat="43.13794" lon="6.2348">
        <ele>66.6</ele>
        <time>2016-05-16T05:30:00Z</time>
      </trkpt>
      <trkpt lat="43.13801" lon="6.23509">
        <ele>68.2</ele>
        <time>2016-05-16T05:30:05Z</time>
      </trkpt>
      <trkpt lat="43.13812" lon="6.23544">
        <ele>70.6</ele>
        <time>2016-05-16T05:30:11Z</time>
      </trkpt>
      <trkpt lat="43.1383" lon="6.23596">
        <ele>71.4</ele>
        <time>2016-05-16T05:30:20Z</time>
      </trkpt>
      <trkpt lat="43.1384" lon="6.23627">
        <ele>70.9</ele>
        <time>2016-05-16T05:30:25Z</time>
      </trkpt>
      <trkpt lat="43.1385" lon="6.23657">
        <ele>71.3</ele>
        <time>2016-05-16T05:30:30Z</time>
      </trkpt>
      <trkpt lat="43.13868" lon="6.23697">
        <ele>74.2</ele>
        <time>2016-05-16T05:30:37Z</time>
      </trkpt>
      <trkpt lat="43.13877" lon="6.23731">
        <ele>76.6</ele>
        <time>2016-05-16T05:30:43Z</time>
      </trkpt>
      <trkpt lat="43.13884" lon="6.23766">
        <ele>75.8</ele>
        <time>2016-05-16T05:30:51Z</time>
      </trkpt>
      <trkpt lat="43.1389" lon="6.23795">
        <ele>74.6</ele>
        <time>2016-05-16T05:30:57Z</time>
      </trkpt>
      <trkpt lat="43.13904" lon="6.23836">
        <ele>79.5</ele>
        <time>2016-05-16T05:31:04Z</time>
      </trkpt>
      <trkpt lat="43.1392" lon="6.23862">
        <ele>78.1</ele>
        <time>2016-05-16T05:31:10Z</time>
      </trkpt>
      <trkpt lat="43.13939" lon="6.23888">
        <ele>78.8</ele>
        <time>2016-05-16T05:31:16Z</time>
      </trkpt>
      <trkpt lat="43.13959" lon="6.23918">
        <ele>81</ele>
        <time>2016-05-16T05:31:24Z</time>
      </trkpt>
      <trkpt lat="43.13973" lon="6.23934">
        <ele>78.9</ele>
        <time>2016-05-16T05:31:29Z</time>
      </trkpt>
      <trkpt lat="43.13994" lon="6.23948">
        <ele>78.7</ele>
        <time>2016-05-16T05:31:34Z</time>
      </trkpt>
      <trkpt lat="43.1402" lon="6.23966">
        <ele>78.5</ele>
        <time>2016-05-16T05:31:40Z</time>
      </trkpt>
      <trkpt lat="43.14042" lon="6.24003">
        <ele>78.5</ele>
        <time>2016-05-16T05:31:47Z</time>
      </trkpt>
      <trkpt lat="43.14053" lon="6.24047">
        <ele>81.5</ele>
        <time>2016-05-16T05:31:54Z</time>
      </trkpt>
      <trkpt lat="43.14065" lon="6.24081">
        <ele>82.2</ele>
        <time>2016-05-16T05:31:59Z</time>
      </trkpt>
      <trkpt lat="43.14078" lon="6.24127">
        <ele>82.1</ele>
        <time>2016-05-16T05:32:06Z</time>
      </trkpt>
      <trkpt lat="43.14091" lon="6.24171">
        <ele>82.4</ele>
        <time>2016-05-16T05:32:13Z</time>
      </trkpt>
      <trkpt lat="43.14105" lon="6.2421">
        <ele>80.5</ele>
        <time>2016-05-16T05:32:19Z</time>
      </trkpt>
      <trkpt lat="43.14112" lon="6.24241">
        <ele>81.1</ele>
        <time>2016-05-16T05:32:24Z</time>
      </trkpt>
      <trkpt lat="43.14122" lon="6.24279">
        <ele>83.8</ele>
        <time>2016-05-16T05:32:30Z</time>
      </trkpt>
      <trkpt lat="43.14131" lon="6.24311">
        <ele>84</ele>
        <time>2016-05-16T05:32:35Z</time>
      </trkpt>
      <trkpt lat="43.14139" lon="6.24342">
        <ele>85.2</ele>
        <time>2016-05-16T05:32:40Z</time>
      </trkpt>
      <trkpt lat="43.14155" lon="6.24393">
        <ele>84.9</ele>
        <time>2016-05-16T05:32:48Z</time>
      </trkpt>
      <trkpt lat="43.14163" lon="6.24432">
        <ele>85.3</ele>
        <time>2016-05-16T05:32:54Z</time>
      </trkpt>
      <trkpt lat="43.14183" lon="6.24477">
        <ele>84.2</ele>
        <time>2016-05-16T05:33:01Z</time>
      </trkpt>
      <trkpt lat="43.14195" lon="6.24515">
        <ele>80.8</ele>
        <time>2016-05-16T05:33:07Z</time>
      </trkpt>
      <trkpt lat="43.14205" lon="6.24557">
        <ele>79.8</ele>
        <time>2016-05-16T05:33:14Z</time>
      </trkpt>
      <trkpt lat="43.14218" lon="6.24605">
        <ele>79.9</ele>
        <time>2016-05-16T05:33:21Z</time>
      </trkpt>
      <trkpt lat="43.14231" lon="6.24642">
        <ele>79.7</ele>
        <time>2016-05-16T05:33:27Z</time>
      </trkpt>
      <trkpt lat="43.14235" lon="6.24661">
        <ele>80.2</ele>
        <time>2016-05-16T05:33:30Z</time>
      </trkpt>
      <trkpt lat="43.14254" lon="6.24708">
        <ele>81.1</ele>
        <time>2016-05-16T05:33:38Z</time>
      </trkpt>
      <trkpt lat="43.14272" lon="6.24747">
        <ele>80.2</ele>
        <time>2016-05-16T05:33:44Z</time>
      </trkpt>
      <trkpt lat="43.14296" lon="6.24786">
        <ele>79.6</ele>
        <time>2016-05-16T05:33:51Z</time>
      </trkpt>
      <trkpt lat="43.14326" lon="6.24821">
        <ele>77.7</ele>
        <time>2016-05-16T05:33:57Z</time>
      </trkpt>
      <trkpt lat="43.14346" lon="6.2486">
        <ele>78.7</ele>
        <time>2016-05-16T05:34:04Z</time>
      </trkpt>
      <trkpt lat="43.14365" lon="6.24894">
        <ele>78.5</ele>
        <time>2016-05-16T05:34:09Z</time>
      </trkpt>
      <trkpt lat="43.14381" lon="6.24941">
        <ele>79</ele>
        <time>2016-05-16T05:34:15Z</time>
      </trkpt>
      <trkpt lat="43.14393" lon="6.24991">
        <ele>81.2</ele>
        <time>2016-05-16T05:34:23Z</time>
      </trkpt>
      <trkpt lat="43.1439" lon="6.2503">
        <ele>79</ele>
        <time>2016-05-16T05:34:29Z</time>
      </trkpt>
      <trkpt lat="43.14387" lon="6.25068">
        <ele>78.4</ele>
        <time>2016-05-16T05:34:34Z</time>
      </trkpt>
      <trkpt lat="43.14383" lon="6.25115">
        <ele>76.5</ele>
        <time>2016-05-16T05:34:40Z</time>
      </trkpt>
      <trkpt lat="43.14386" lon="6.25164">
        <ele>74.9</ele>
        <time>2016-05-16T05:34:47Z</time>
      </trkpt>
      <trkpt lat="43.14391" lon="6.25199">
        <ele>75.4</ele>
        <time>2016-05-16T05:34:52Z</time>
      </trkpt>
      <trkpt lat="43.14398" lon="6.25233">
        <ele>75.3</ele>
        <time>2016-05-16T05:34:57Z</time>
      </trkpt>
      <trkpt lat="43.14409" lon="6.25267">
        <ele>76.7</ele>
        <time>2016-05-16T05:35:03Z</time>
      </trkpt>
      <trkpt lat="43.14427" lon="6.25314">
        <ele>77.3</ele>
        <time>2016-05-16T05:35:11Z</time>
      </trkpt>
      <trkpt lat="43.14439" lon="6.25349">
        <ele>76.9</ele>
        <time>2016-05-16T05:35:18Z</time>
      </trkpt>
      <trkpt lat="43.14454" lon="6.2539">
        <ele>77.2</ele>
        <time>2016-05-16T05:35:26Z</time>
      </trkpt>
      <trkpt lat="43.14474" lon="6.25437">
        <ele>79.2</ele>
        <time>2016-05-16T05:35:35Z</time>
      </trkpt>
      <trkpt lat="43.14487" lon="6.25468">
        <ele>79.2</ele>
        <time>2016-05-16T05:35:41Z</time>
      </trkpt>
      <trkpt lat="43.145" lon="6.25517">
        <ele>79.2</ele>
        <time>2016-05-16T05:35:50Z</time>
      </trkpt>
      <trkpt lat="43.1451" lon="6.25549">
        <ele>79.3</ele>
        <time>2016-05-16T05:35:56Z</time>
      </trkpt>
      <trkpt lat="43.14524" lon="6.25581">
        <ele>79.9</ele>
        <time>2016-05-16T05:36:02Z</time>
      </trkpt>
      <trkpt lat="43.14537" lon="6.25621">
        <ele>79.8</ele>
        <time>2016-05-16T05:36:10Z</time>
      </trkpt>
      <trkpt lat="43.14522" lon="6.25623">
        <ele>75.6</ele>
        <time>2016-05-16T05:36:17Z</time>
      </trkpt>
      <trkpt lat="43.14511" lon="6.2563">
        <ele>75.7</ele>
        <time>2016-05-16T05:36:22Z</time>
      </trkpt>
      <trkpt lat="43.14501" lon="6.25639">
        <ele>76.4</ele>
        <time>2016-05-16T05:36:27Z</time>
      </trkpt>
      <trkpt lat="43.14491" lon="6.25648">
        <ele>78.4</ele>
        <time>2016-05-16T05:36:32Z</time>
      </trkpt>
      <trkpt lat="43.14477" lon="6.25655">
        <ele>79.5</ele>
        <time>2016-05-16T05:36:38Z</time>
      </trkpt>
      <trkpt lat="43.14458" lon="6.25664">
        <ele>80.9</ele>
        <time>2016-05-16T05:36:45Z</time>
      </trkpt>
      <trkpt lat="43.14433" lon="6.25667">
        <ele>80.7</ele>
        <time>2016-05-16T05:36:52Z</time>
      </trkpt>
      <trkpt lat="43.14409" lon="6.25672">
        <ele>81.8</ele>
        <time>2016-05-16T05:36:59Z</time>
      </trkpt>
      <trkpt lat="43.14395" lon="6.25685">
        <ele>81.4</ele>
        <time>2016-05-16T05:37:05Z</time>
      </trkpt>
      <trkpt lat="43.14385" lon="6.257">
        <ele>82.7</ele>
        <time>2016-05-16T05:37:10Z</time>
      </trkpt>
      <trkpt lat="43.14375" lon="6.25716">
        <ele>84.5</ele>
        <time>2016-05-16T05:37:15Z</time>
      </trkpt>
      <trkpt lat="43.14363" lon="6.25742">
        <ele>83.7</ele>
        <time>2016-05-16T05:37:24Z</time>
      </trkpt>
      <trkpt lat="43.14359" lon="6.25762">
        <ele>85.9</ele>
        <time>2016-05-16T05:37:34Z</time>
      </trkpt>
      <trkpt lat="43.14359" lon="6.25762">
        <ele>41.1</ele>
        <time>2016-05-16T05:37:41Z</time>
      </trkpt>
      <trkpt lat="43.14359" lon="6.25762">
        <ele>41.1</ele>
        <time>2016-05-16T05:38:12Z</time>
      </trkpt>
      <trkpt lat="43.14355" lon="6.25791">
        <ele>92.3</ele>
        <time>2016-05-16T05:38:12Z</time>
      </trkpt>
      <trkpt lat="43.14355" lon="6.25808">
        <ele>90.4</ele>
        <time>2016-05-16T05:38:17Z</time>
      </trkpt>
      <trkpt lat="43.14357" lon="6.25842">
        <ele>92.5</ele>
        <time>2016-05-16T05:38:26Z</time>
      </trkpt>
      <trkpt lat="43.14365" lon="6.25871">
        <ele>94.4</ele>
        <time>2016-05-16T05:38:33Z</time>
      </trkpt>
      <trkpt lat="43.14366" lon="6.25896">
        <ele>95.1</ele>
        <time>2016-05-16T05:38:39Z</time>
      </trkpt>
      <trkpt lat="43.14367" lon="6.25911">
        <ele>94</ele>
        <time>2016-05-16T05:38:43Z</time>
      </trkpt>
      <trkpt lat="43.14374" lon="6.25934">
        <ele>95.7</ele>
        <time>2016-05-16T05:38:49Z</time>
      </trkpt>
      <trkpt lat="43.14376" lon="6.25963">
        <ele>91.3</ele>
        <time>2016-05-16T05:38:57Z</time>
      </trkpt>
      <trkpt lat="43.14378" lon="6.25986">
        <ele>94.3</ele>
        <time>2016-05-16T05:39:03Z</time>
      </trkpt>
      <trkpt lat="43.14387" lon="6.26024">
        <ele>92.8</ele>
        <time>2016-05-16T05:39:13Z</time>
      </trkpt>
      <trkpt lat="43.14392" lon="6.26043">
        <ele>91.4</ele>
        <time>2016-05-16T05:39:18Z</time>
      </trkpt>
      <trkpt lat="43.14402" lon="6.26075">
        <ele>93.2</ele>
        <time>2016-05-16T05:39:27Z</time>
      </trkpt>
      <trkpt lat="43.144" lon="6.26106">
        <ele>94.2</ele>
        <time>2016-05-16T05:39:35Z</time>
      </trkpt>
      <trkpt lat="43.14385" lon="6.26119">
        <ele>96.8</ele>
        <time>2016-05-16T05:39:41Z</time>
      </trkpt>
      <trkpt lat="43.14356" lon="6.26134">
        <ele>95.5</ele>
        <time>2016-05-16T05:39:49Z</time>
      </trkpt>
      <trkpt lat="43.14333" lon="6.26142">
        <ele>95.3</ele>
        <time>2016-05-16T05:39:56Z</time>
      </trkpt>
      <trkpt lat="43.14315" lon="6.26146">
        <ele>92.8</ele>
        <time>2016-05-16T05:40:01Z</time>
      </trkpt>
      <trkpt lat="43.14292" lon="6.26156">
        <ele>91.8</ele>
        <time>2016-05-16T05:40:07Z</time>
      </trkpt>
      <trkpt lat="43.14265" lon="6.26163">
        <ele>92.2</ele>
        <time>2016-05-16T05:40:13Z</time>
      </trkpt>
      <trkpt lat="43.14235" lon="6.26174">
        <ele>95.4</ele>
        <time>2016-05-16T05:40:19Z</time>
      </trkpt>
      <trkpt lat="43.1421" lon="6.26182">
        <ele>95.4</ele>
        <time>2016-05-16T05:40:24Z</time>
      </trkpt>
      <trkpt lat="43.14187" lon="6.26188">
        <ele>96.7</ele>
        <time>2016-05-16T05:40:29Z</time>
      </trkpt>
      <trkpt lat="43.14161" lon="6.26193">
        <ele>99.2</ele>
        <time>2016-05-16T05:40:35Z</time>
      </trkpt>
      <trkpt lat="43.1414" lon="6.26198">
        <ele>98.6</ele>
        <time>2016-05-16T05:40:40Z</time>
      </trkpt>
      <trkpt lat="43.14119" lon="6.26201">
        <ele>100.1</ele>
        <time>2016-05-16T05:40:46Z</time>
      </trkpt>
      <trkpt lat="43.14141" lon="6.26202">
        <ele>100.5</ele>
        <time>2016-05-16T05:41:03Z</time>
      </trkpt>
      <trkpt lat="43.14145" lon="6.26201">
        <ele>100.3</ele>
        <time>2016-05-16T05:41:07Z</time>
      </trkpt>
      <trkpt lat="43.14145" lon="6.26201">
        <ele>57.2</ele>
        <time>2016-05-16T05:41:12Z</time>
      </trkpt>
      <trkpt lat="43.14145" lon="6.26201">
        <ele>57.2</ele>
        <time>2016-05-16T05:41:37Z</time>
      </trkpt>
      <trkpt lat="43.14107" lon="6.26207">
        <ele>102.7</ele>
        <time>2016-05-16T05:42:53Z</time>
      </trkpt>
      <trkpt lat="43.14086" lon="6.26218">
        <ele>103</ele>
        <time>2016-05-16T05:43:02Z</time>
      </trkpt>
      <trkpt lat="43.14068" lon="6.2623">
        <ele>102.6</ele>
        <time>2016-05-16T05:43:07Z</time>
      </trkpt>
      <trkpt lat="43.14034" lon="6.26256">
        <ele>101.2</ele>
        <time>2016-05-16T05:43:14Z</time>
      </trkpt>
      <trkpt lat="43.14007" lon="6.26274">
        <ele>98.5</ele>
        <time>2016-05-16T05:43:20Z</time>
      </trkpt>
      <trkpt lat="43.13983" lon="6.26288">
        <ele>98.3</ele>
        <time>2016-05-16T05:43:25Z</time>
      </trkpt>
      <trkpt lat="43.13956" lon="6.26314">
        <ele>102.8</ele>
        <time>2016-05-16T05:43:31Z</time>
      </trkpt>
      <trkpt lat="43.13944" lon="6.26342">
        <ele>101.9</ele>
        <time>2016-05-16T05:43:36Z</time>
      </trkpt>
      <trkpt lat="43.13938" lon="6.26383">
        <ele>101.1</ele>
        <time>2016-05-16T05:43:42Z</time>
      </trkpt>
      <trkpt lat="43.13941" lon="6.26405">
        <ele>100.9</ele>
        <time>2016-05-16T05:43:45Z</time>
      </trkpt>
      <trkpt lat="43.13947" lon="6.26445">
        <ele>102.1</ele>
        <time>2016-05-16T05:43:51Z</time>
      </trkpt>
      <trkpt lat="43.13956" lon="6.26485">
        <ele>104.2</ele>
        <time>2016-05-16T05:43:59Z</time>
      </trkpt>
      <trkpt lat="43.13963" lon="6.26525">
        <ele>108.5</ele>
        <time>2016-05-16T05:44:06Z</time>
      </trkpt>
      <trkpt lat="43.13968" lon="6.26562">
        <ele>107.8</ele>
        <time>2016-05-16T05:44:12Z</time>
      </trkpt>
      <trkpt lat="43.13974" lon="6.26591">
        <ele>106.2</ele>
        <time>2016-05-16T05:44:17Z</time>
      </trkpt>
      <trkpt lat="43.13979" lon="6.26622">
        <ele>110.6</ele>
        <time>2016-05-16T05:44:22Z</time>
      </trkpt>
      <trkpt lat="43.13991" lon="6.26647">
        <ele>111.4</ele>
        <time>2016-05-16T05:44:28Z</time>
      </trkpt>
      <trkpt lat="43.14002" lon="6.2668">
        <ele>111.1</ele>
        <time>2016-05-16T05:44:34Z</time>
      </trkpt>
      <trkpt lat="43.14008" lon="6.26725">
        <ele>110.2</ele>
        <time>2016-05-16T05:44:39Z</time>
      </trkpt>
      <trkpt lat="43.14005" lon="6.26774">
        <ele>108.7</ele>
        <time>2016-05-16T05:44:44Z</time>
      </trkpt>
      <trkpt lat="43.13973" lon="6.26822">
        <ele>104.8</ele>
        <time>2016-05-16T05:44:50Z</time>
      </trkpt>
      <trkpt lat="43.1392" lon="6.26846">
        <ele>102.3</ele>
        <time>2016-05-16T05:44:56Z</time>
      </trkpt>
      <trkpt lat="43.13866" lon="6.26874">
        <ele>104.7</ele>
        <time>2016-05-16T05:45:02Z</time>
      </trkpt>
      <trkpt lat="43.13821" lon="6.26901">
        <ele>102.2</ele>
        <time>2016-05-16T05:45:08Z</time>
      </trkpt>
      <trkpt lat="43.13776" lon="6.26928">
        <ele>101.2</ele>
        <time>2016-05-16T05:45:14Z</time>
      </trkpt>
      <trkpt lat="43.13744" lon="6.26955">
        <ele>100</ele>
        <time>2016-05-16T05:45:19Z</time>
      </trkpt>
      <trkpt lat="43.13713" lon="6.26982">
        <ele>100.1</ele>
        <time>2016-05-16T05:45:24Z</time>
      </trkpt>
      <trkpt lat="43.1367" lon="6.27005">
        <ele>97.9</ele>
        <time>2016-05-16T05:45:30Z</time>
      </trkpt>
      <trkpt lat="43.13628" lon="6.2704">
        <ele>93.9</ele>
        <time>2016-05-16T05:45:37Z</time>
      </trkpt>
      <trkpt lat="43.13592" lon="6.27082">
        <ele>90.6</ele>
        <time>2016-05-16T05:45:43Z</time>
      </trkpt>
      <trkpt lat="43.13546" lon="6.27121">
        <ele>88.6</ele>
        <time>2016-05-16T05:45:49Z</time>
      </trkpt>
      <trkpt lat="43.13501" lon="6.27151">
        <ele>85.8</ele>
        <time>2016-05-16T05:45:55Z</time>
      </trkpt>
      <trkpt lat="43.13458" lon="6.27156">
        <ele>84.2</ele>
        <time>2016-05-16T05:46:00Z</time>
      </trkpt>
      <trkpt lat="43.1341" lon="6.27158">
        <ele>78</ele>
        <time>2016-05-16T05:46:06Z</time>
      </trkpt>
      <trkpt lat="43.13368" lon="6.27176">
        <ele>75.4</ele>
        <time>2016-05-16T05:46:12Z</time>
      </trkpt>
      <trkpt lat="43.13352" lon="6.27223">
        <ele>74.6</ele>
        <time>2016-05-16T05:46:17Z</time>
      </trkpt>
      <trkpt lat="43.13315" lon="6.27258">
        <ele>73</ele>
        <time>2016-05-16T05:46:23Z</time>
      </trkpt>
      <trkpt lat="43.13281" lon="6.27261">
        <ele>70.9</ele>
        <time>2016-05-16T05:46:28Z</time>
      </trkpt>
      <trkpt lat="43.13246" lon="6.2726">
        <ele>78.5</ele>
        <time>2016-05-16T05:46:34Z</time>
      </trkpt>
      <trkpt lat="43.13214" lon="6.27265">
        <ele>68.5</ele>
        <time>2016-05-16T05:46:39Z</time>
      </trkpt>
      <trkpt lat="43.13159" lon="6.27265">
        <ele>65.9</ele>
        <time>2016-05-16T05:46:48Z</time>
      </trkpt>
      <trkpt lat="43.13112" lon="6.27261">
        <ele>64.3</ele>
        <time>2016-05-16T05:46:55Z</time>
      </trkpt>
      <trkpt lat="43.13083" lon="6.27258">
        <ele>65.5</ele>
        <time>2016-05-16T05:47:00Z</time>
      </trkpt>
      <trkpt lat="43.13044" lon="6.2726">
        <ele>66.8</ele>
        <time>2016-05-16T05:47:06Z</time>
      </trkpt>
      <trkpt lat="43.13014" lon="6.27263">
        <ele>65.3</ele>
        <time>2016-05-16T05:47:11Z</time>
      </trkpt>
      <trkpt lat="43.13003" lon="6.27259">
        <ele>65.1</ele>
        <time>2016-05-16T05:47:17Z</time>
      </trkpt>
      <trkpt lat="43.13003" lon="6.27259">
        <ele>65.1</ele>
        <time>2016-05-16T05:47:24Z</time>
      </trkpt>
      <trkpt lat="43.13003" lon="6.27259">
        <ele>20</ele>
        <time>2016-05-16T05:47:24Z</time>
      </trkpt>
      <trkpt lat="43.13003" lon="6.27259">
        <ele>20</ele>
        <time>2016-05-16T05:48:01Z</time>
      </trkpt>
      <trkpt lat="43.12975" lon="6.27284">
        <ele>64.6</ele>
        <time>2016-05-16T05:48:01Z</time>
      </trkpt>
      <trkpt lat="43.12937" lon="6.27295">
        <ele>64.2</ele>
        <time>2016-05-16T05:48:07Z</time>
      </trkpt>
      <trkpt lat="43.1289" lon="6.27305">
        <ele>63.2</ele>
        <time>2016-05-16T05:48:13Z</time>
      </trkpt>
      <trkpt lat="43.1284" lon="6.27374">
        <ele>65</ele>
        <time>2016-05-16T05:48:21Z</time>
      </trkpt>
      <trkpt lat="43.12813" lon="6.27426">
        <ele>64.3</ele>
        <time>2016-05-16T05:48:26Z</time>
      </trkpt>
      <trkpt lat="43.12784" lon="6.27468">
        <ele>65.8</ele>
        <time>2016-05-16T05:48:31Z</time>
      </trkpt>
      <trkpt lat="43.12761" lon="6.27514">
        <ele>65.5</ele>
        <time>2016-05-16T05:48:36Z</time>
      </trkpt>
      <trkpt lat="43.12736" lon="6.27569">
        <ele>63.9</ele>
        <time>2016-05-16T05:48:42Z</time>
      </trkpt>
      <trkpt lat="43.12717" lon="6.27627">
        <ele>65.1</ele>
        <time>2016-05-16T05:48:49Z</time>
      </trkpt>
      <trkpt lat="43.12699" lon="6.27676">
        <ele>63.8</ele>
        <time>2016-05-16T05:48:56Z</time>
      </trkpt>
      <trkpt lat="43.12686" lon="6.27705">
        <ele>66.6</ele>
        <time>2016-05-16T05:49:01Z</time>
      </trkpt>
      <trkpt lat="43.12674" lon="6.27742">
        <ele>66.9</ele>
        <time>2016-05-16T05:49:07Z</time>
      </trkpt>
      <trkpt lat="43.12656" lon="6.27787">
        <ele>66.6</ele>
        <time>2016-05-16T05:49:14Z</time>
      </trkpt>
      <trkpt lat="43.12641" lon="6.27829">
        <ele>64.7</ele>
        <time>2016-05-16T05:49:21Z</time>
      </trkpt>
      <trkpt lat="43.12626" lon="6.27879">
        <ele>63</ele>
        <time>2016-05-16T05:49:30Z</time>
      </trkpt>
      <trkpt lat="43.12616" lon="6.27906">
        <ele>62.4</ele>
        <time>2016-05-16T05:49:35Z</time>
      </trkpt>
      <trkpt lat="43.12608" lon="6.27931">
        <ele>64.5</ele>
        <time>2016-05-16T05:49:40Z</time>
      </trkpt>
      <trkpt lat="43.12597" lon="6.27966">
        <ele>65.5</ele>
        <time>2016-05-16T05:49:47Z</time>
      </trkpt>
      <trkpt lat="43.12583" lon="6.28003">
        <ele>66.2</ele>
        <time>2016-05-16T05:49:56Z</time>
      </trkpt>
      <trkpt lat="43.12575" lon="6.28028">
        <ele>68.2</ele>
        <time>2016-05-16T05:50:02Z</time>
      </trkpt>
      <trkpt lat="43.12558" lon="6.28074">
        <ele>69</ele>
        <time>2016-05-16T05:50:09Z</time>
      </trkpt>
      <trkpt lat="43.12554" lon="6.28112">
        <ele>69</ele>
        <time>2016-05-16T05:50:14Z</time>
      </trkpt>
      <trkpt lat="43.12547" lon="6.28177">
        <ele>68.2</ele>
        <time>2016-05-16T05:50:23Z</time>
      </trkpt>
      <trkpt lat="43.12536" lon="6.28216">
        <ele>68.7</ele>
        <time>2016-05-16T05:50:28Z</time>
      </trkpt>
      <trkpt lat="43.12526" lon="6.28257">
        <ele>70.2</ele>
        <time>2016-05-16T05:50:34Z</time>
      </trkpt>
      <trkpt lat="43.12528" lon="6.283">
        <ele>69.9</ele>
        <time>2016-05-16T05:50:40Z</time>
      </trkpt>
      <trkpt lat="43.12519" lon="6.28346">
        <ele>70</ele>
        <time>2016-05-16T05:50:46Z</time>
      </trkpt>
      <trkpt lat="43.12511" lon="6.28415">
        <ele>67.7</ele>
        <time>2016-05-16T05:50:55Z</time>
      </trkpt>
      <trkpt lat="43.125" lon="6.2846">
        <ele>69</ele>
        <time>2016-05-16T05:51:01Z</time>
      </trkpt>
      <trkpt lat="43.12489" lon="6.28502">
        <ele>71.9</ele>
        <time>2016-05-16T05:51:07Z</time>
      </trkpt>
      <trkpt lat="43.12477" lon="6.28555">
        <ele>72.6</ele>
        <time>2016-05-16T05:51:15Z</time>
      </trkpt>
      <trkpt lat="43.12469" lon="6.28586">
        <ele>71</ele>
        <time>2016-05-16T05:51:20Z</time>
      </trkpt>
      <trkpt lat="43.12466" lon="6.28627">
        <ele>71.6</ele>
        <time>2016-05-16T05:51:26Z</time>
      </trkpt>
      <trkpt lat="43.1246" lon="6.2866">
        <ele>71.8</ele>
        <time>2016-05-16T05:51:31Z</time>
      </trkpt>
      <trkpt lat="43.12456" lon="6.28706">
        <ele>72.1</ele>
        <time>2016-05-16T05:51:38Z</time>
      </trkpt>
      <trkpt lat="43.12453" lon="6.2874">
        <ele>72.8</ele>
        <time>2016-05-16T05:51:43Z</time>
      </trkpt>
      <trkpt lat="43.12451" lon="6.28772">
        <ele>72.3</ele>
        <time>2016-05-16T05:51:48Z</time>
      </trkpt>
      <trkpt lat="43.1245" lon="6.28826">
        <ele>70.6</ele>
        <time>2016-05-16T05:51:56Z</time>
      </trkpt>
      <trkpt lat="43.12437" lon="6.2887">
        <ele>69.8</ele>
        <time>2016-05-16T05:52:03Z</time>
      </trkpt>
      <trkpt lat="43.12422" lon="6.28896">
        <ele>69.8</ele>
        <time>2016-05-16T05:52:08Z</time>
      </trkpt>
      <trkpt lat="43.12401" lon="6.28932">
        <ele>70.1</ele>
        <time>2016-05-16T05:52:15Z</time>
      </trkpt>
      <trkpt lat="43.12382" lon="6.28958">
        <ele>70.7</ele>
        <time>2016-05-16T05:52:20Z</time>
      </trkpt>
      <trkpt lat="43.12361" lon="6.28991">
        <ele>70.5</ele>
        <time>2016-05-16T05:52:26Z</time>
      </trkpt>
      <trkpt lat="43.1234" lon="6.29018">
        <ele>70.8</ele>
        <time>2016-05-16T05:52:31Z</time>
      </trkpt>
      <trkpt lat="43.12321" lon="6.29066">
        <ele>73.7</ele>
        <time>2016-05-16T05:52:38Z</time>
      </trkpt>
      <trkpt lat="43.12305" lon="6.29103">
        <ele>72.9</ele>
        <time>2016-05-16T05:52:44Z</time>
      </trkpt>
      <trkpt lat="43.12292" lon="6.29147">
        <ele>73.5</ele>
        <time>2016-05-16T05:52:51Z</time>
      </trkpt>
      <trkpt lat="43.12287" lon="6.29194">
        <ele>71.9</ele>
        <time>2016-05-16T05:52:57Z</time>
      </trkpt>
      <trkpt lat="43.12288" lon="6.29254">
        <ele>70.8</ele>
        <time>2016-05-16T05:53:03Z</time>
      </trkpt>
      <trkpt lat="43.12274" lon="6.29318">
        <ele>70.5</ele>
        <time>2016-05-16T05:53:09Z</time>
      </trkpt>
      <trkpt lat="43.1223" lon="6.29371">
        <ele>68</ele>
        <time>2016-05-16T05:53:16Z</time>
      </trkpt>
      <trkpt lat="43.12171" lon="6.29432">
        <ele>65.9</ele>
        <time>2016-05-16T05:53:24Z</time>
      </trkpt>
      <trkpt lat="43.1213" lon="6.29481">
        <ele>65.1</ele>
        <time>2016-05-16T05:53:31Z</time>
      </trkpt>
      <trkpt lat="43.12101" lon="6.29522">
        <ele>65.2</ele>
        <time>2016-05-16T05:53:37Z</time>
      </trkpt>
      <trkpt lat="43.12081" lon="6.2958">
        <ele>65.4</ele>
        <time>2016-05-16T05:53:46Z</time>
      </trkpt>
      <trkpt lat="43.12066" lon="6.29608">
        <ele>66.3</ele>
        <time>2016-05-16T05:53:51Z</time>
      </trkpt>
      <trkpt lat="43.12051" lon="6.29645">
        <ele>69.3</ele>
        <time>2016-05-16T05:53:58Z</time>
      </trkpt>
      <trkpt lat="43.12032" lon="6.29675">
        <ele>69.7</ele>
        <time>2016-05-16T05:54:03Z</time>
      </trkpt>
      <trkpt lat="43.11992" lon="6.29702">
        <ele>66.9</ele>
        <time>2016-05-16T05:54:10Z</time>
      </trkpt>
      <trkpt lat="43.11959" lon="6.29716">
        <ele>66.2</ele>
        <time>2016-05-16T05:54:16Z</time>
      </trkpt>
      <trkpt lat="43.11933" lon="6.2973">
        <ele>66.7</ele>
        <time>2016-05-16T05:54:21Z</time>
      </trkpt>
      <trkpt lat="43.11905" lon="6.29742">
        <ele>67</ele>
        <time>2016-05-16T05:54:26Z</time>
      </trkpt>
      <trkpt lat="43.11863" lon="6.29766">
        <ele>68.9</ele>
        <time>2016-05-16T05:54:34Z</time>
      </trkpt>
      <trkpt lat="43.11846" lon="6.29796">
        <ele>68.5</ele>
        <time>2016-05-16T05:54:39Z</time>
      </trkpt>
      <trkpt lat="43.11829" lon="6.29836">
        <ele>68.8</ele>
        <time>2016-05-16T05:54:45Z</time>
      </trkpt>
      <trkpt lat="43.11822" lon="6.29857">
        <ele>68.8</ele>
        <time>2016-05-16T05:54:48Z</time>
      </trkpt>
      <trkpt lat="43.11804" lon="6.29908">
        <ele>67.5</ele>
        <time>2016-05-16T05:54:55Z</time>
      </trkpt>
      <trkpt lat="43.11787" lon="6.29957">
        <ele>67.7</ele>
        <time>2016-05-16T05:55:02Z</time>
      </trkpt>
      <trkpt lat="43.11777" lon="6.29991">
        <ele>68.2</ele>
        <time>2016-05-16T05:55:07Z</time>
      </trkpt>
      <trkpt lat="43.11766" lon="6.30029">
        <ele>68.7</ele>
        <time>2016-05-16T05:55:13Z</time>
      </trkpt>
      <trkpt lat="43.11756" lon="6.30059">
        <ele>71</ele>
        <time>2016-05-16T05:55:18Z</time>
      </trkpt>
      <trkpt lat="43.11744" lon="6.30096">
        <ele>72.2</ele>
        <time>2016-05-16T05:55:24Z</time>
      </trkpt>
      <trkpt lat="43.11733" lon="6.30128">
        <ele>72.5</ele>
        <time>2016-05-16T05:55:29Z</time>
      </trkpt>
      <trkpt lat="43.11718" lon="6.30187">
        <ele>72.6</ele>
        <time>2016-05-16T05:55:36Z</time>
      </trkpt>
      <trkpt lat="43.11698" lon="6.30249">
        <ele>72.8</ele>
        <time>2016-05-16T05:55:43Z</time>
      </trkpt>
      <trkpt lat="43.11683" lon="6.30287">
        <ele>71.8</ele>
        <time>2016-05-16T05:55:48Z</time>
      </trkpt>
      <trkpt lat="43.11671" lon="6.30327">
        <ele>71.8</ele>
        <time>2016-05-16T05:55:53Z</time>
      </trkpt>
      <trkpt lat="43.1165" lon="6.30386">
        <ele>71.6</ele>
        <time>2016-05-16T05:56:01Z</time>
      </trkpt>
      <trkpt lat="43.11632" lon="6.30436">
        <ele>72.1</ele>
        <time>2016-05-16T05:56:08Z</time>
      </trkpt>
      <trkpt lat="43.11622" lon="6.30469">
        <ele>73.2</ele>
        <time>2016-05-16T05:56:13Z</time>
      </trkpt>
      <trkpt lat="43.11613" lon="6.30502">
        <ele>74.1</ele>
        <time>2016-05-16T05:56:18Z</time>
      </trkpt>
      <trkpt lat="43.116" lon="6.30542">
        <ele>75.9</ele>
        <time>2016-05-16T05:56:24Z</time>
      </trkpt>
      <trkpt lat="43.11583" lon="6.30587">
        <ele>76.2</ele>
        <time>2016-05-16T05:56:31Z</time>
      </trkpt>
      <trkpt lat="43.11572" lon="6.30622">
        <ele>76.4</ele>
        <time>2016-05-16T05:56:36Z</time>
      </trkpt>
      <trkpt lat="43.11558" lon="6.30662">
        <ele>77.1</ele>
        <time>2016-05-16T05:56:42Z</time>
      </trkpt>
      <trkpt lat="43.11544" lon="6.30712">
        <ele>76.3</ele>
        <time>2016-05-16T05:56:49Z</time>
      </trkpt>
      <trkpt lat="43.11527" lon="6.30763">
        <ele>76.7</ele>
        <time>2016-05-16T05:56:56Z</time>
      </trkpt>
      <trkpt lat="43.11514" lon="6.30802">
        <ele>75.9</ele>
        <time>2016-05-16T05:57:01Z</time>
      </trkpt>
      <trkpt lat="43.11498" lon="6.30847">
        <ele>75.4</ele>
        <time>2016-05-16T05:57:07Z</time>
      </trkpt>
      <trkpt lat="43.11487" lon="6.30895">
        <ele>76.5</ele>
        <time>2016-05-16T05:57:14Z</time>
      </trkpt>
      <trkpt lat="43.1149" lon="6.3093">
        <ele>78.4</ele>
        <time>2016-05-16T05:57:21Z</time>
      </trkpt>
      <trkpt lat="43.11514" lon="6.30954">
        <ele>77.6</ele>
        <time>2016-05-16T05:57:28Z</time>
      </trkpt>
      <trkpt lat="43.11526" lon="6.30975">
        <ele>77.5</ele>
        <time>2016-05-16T05:57:33Z</time>
      </trkpt>
      <trkpt lat="43.11538" lon="6.31017">
        <ele>80.6</ele>
        <time>2016-05-16T05:57:42Z</time>
      </trkpt>
      <trkpt lat="43.11499" lon="6.3109">
        <ele>77.2</ele>
        <time>2016-05-16T05:57:53Z</time>
      </trkpt>
      <trkpt lat="43.11463" lon="6.31124">
        <ele>77.7</ele>
        <time>2016-05-16T05:57:58Z</time>
      </trkpt>
      <trkpt lat="43.11408" lon="6.31227">
        <ele>77</ele>
        <time>2016-05-16T05:58:07Z</time>
      </trkpt>
      <trkpt lat="43.11373" lon="6.31297">
        <ele>72.4</ele>
        <time>2016-05-16T05:58:12Z</time>
      </trkpt>
      <trkpt lat="43.11334" lon="6.31372">
        <ele>69.3</ele>
        <time>2016-05-16T05:58:18Z</time>
      </trkpt>
      <trkpt lat="43.11311" lon="6.31423">
        <ele>66.8</ele>
        <time>2016-05-16T05:58:23Z</time>
      </trkpt>
      <trkpt lat="43.11287" lon="6.3147">
        <ele>66.8</ele>
        <time>2016-05-16T05:58:29Z</time>
      </trkpt>
      <trkpt lat="43.11269" lon="6.31503">
        <ele>66.8</ele>
        <time>2016-05-16T05:58:34Z</time>
      </trkpt>
      <trkpt lat="43.11245" lon="6.3155">
        <ele>66.7</ele>
        <time>2016-05-16T05:58:41Z</time>
      </trkpt>
      <trkpt lat="43.11228" lon="6.31586">
        <ele>66.4</ele>
        <time>2016-05-16T05:58:46Z</time>
      </trkpt>
      <trkpt lat="43.11206" lon="6.31638">
        <ele>69.9</ele>
        <time>2016-05-16T05:58:53Z</time>
      </trkpt>
      <trkpt lat="43.11207" lon="6.31676">
        <ele>64.8</ele>
        <time>2016-05-16T05:58:58Z</time>
      </trkpt>
      <trkpt lat="43.11222" lon="6.317">
        <ele>64.3</ele>
        <time>2016-05-16T05:59:03Z</time>
      </trkpt>
      <trkpt lat="43.11246" lon="6.31711">
        <ele>63.8</ele>
        <time>2016-05-16T05:59:09Z</time>
      </trkpt>
      <trkpt lat="43.11265" lon="6.31713">
        <ele>64.3</ele>
        <time>2016-05-16T05:59:14Z</time>
      </trkpt>
      <trkpt lat="43.11292" lon="6.31713">
        <ele>65.2</ele>
        <time>2016-05-16T05:59:21Z</time>
      </trkpt>
      <trkpt lat="43.1131" lon="6.3171">
        <ele>66.5</ele>
        <time>2016-05-16T05:59:26Z</time>
      </trkpt>
      <trkpt lat="43.11335" lon="6.31706">
        <ele>68.2</ele>
        <time>2016-05-16T05:59:33Z</time>
      </trkpt>
      <trkpt lat="43.11362" lon="6.31724">
        <ele>69.7</ele>
        <time>2016-05-16T05:59:42Z</time>
      </trkpt>
      <trkpt lat="43.11377" lon="6.31754">
        <ele>69.3</ele>
        <time>2016-05-16T05:59:49Z</time>
      </trkpt>
      <trkpt lat="43.11389" lon="6.31782">
        <ele>69.7</ele>
        <time>2016-05-16T05:59:55Z</time>
      </trkpt>
      <trkpt lat="43.11397" lon="6.31811">
        <ele>70.7</ele>
        <time>2016-05-16T06:00:01Z</time>
      </trkpt>
      <trkpt lat="43.11399" lon="6.3183">
        <ele>71.4</ele>
        <time>2016-05-16T06:00:05Z</time>
      </trkpt>
      <trkpt lat="43.1141" lon="6.31862">
        <ele>72.6</ele>
        <time>2016-05-16T06:00:12Z</time>
      </trkpt>
      <trkpt lat="43.11422" lon="6.31886">
        <ele>73.8</ele>
        <time>2016-05-16T06:00:18Z</time>
      </trkpt>
      <trkpt lat="43.11438" lon="6.31919">
        <ele>72.2</ele>
        <time>2016-05-16T06:00:26Z</time>
      </trkpt>
      <trkpt lat="43.11448" lon="6.3194">
        <ele>74.1</ele>
        <time>2016-05-16T06:00:31Z</time>
      </trkpt>
      <trkpt lat="43.11471" lon="6.31967">
        <ele>75.6</ele>
        <time>2016-05-16T06:00:39Z</time>
      </trkpt>
      <trkpt lat="43.11488" lon="6.31984">
        <ele>75.9</ele>
        <time>2016-05-16T06:00:44Z</time>
      </trkpt>
      <trkpt lat="43.11511" lon="6.31997">
        <ele>76</ele>
        <time>2016-05-16T06:00:50Z</time>
      </trkpt>
      <trkpt lat="43.11532" lon="6.32015">
        <ele>77.1</ele>
        <time>2016-05-16T06:00:56Z</time>
      </trkpt>
      <trkpt lat="43.11554" lon="6.32032">
        <ele>83.1</ele>
        <time>2016-05-16T06:01:03Z</time>
      </trkpt>
      <trkpt lat="43.11572" lon="6.3205">
        <ele>83.3</ele>
        <time>2016-05-16T06:01:09Z</time>
      </trkpt>
      <trkpt lat="43.11584" lon="6.32069">
        <ele>82.7</ele>
        <time>2016-05-16T06:01:14Z</time>
      </trkpt>
      <trkpt lat="43.11605" lon="6.32093">
        <ele>84.6</ele>
        <time>2016-05-16T06:01:22Z</time>
      </trkpt>
      <trkpt lat="43.11624" lon="6.32107">
        <ele>85.1</ele>
        <time>2016-05-16T06:01:29Z</time>
      </trkpt>
      <trkpt lat="43.11636" lon="6.32117">
        <ele>86.9</ele>
        <time>2016-05-16T06:01:34Z</time>
      </trkpt>
      <trkpt lat="43.11655" lon="6.32133">
        <ele>88.1</ele>
        <time>2016-05-16T06:01:42Z</time>
      </trkpt>
      <trkpt lat="43.11675" lon="6.32149">
        <ele>87.7</ele>
        <time>2016-05-16T06:01:51Z</time>
      </trkpt>
      <trkpt lat="43.11698" lon="6.32163">
        <ele>86.6</ele>
        <time>2016-05-16T06:02:02Z</time>
      </trkpt>
      <trkpt lat="43.11711" lon="6.3218">
        <ele>88.5</ele>
        <time>2016-05-16T06:02:09Z</time>
      </trkpt>
      <trkpt lat="43.11725" lon="6.32202">
        <ele>91.2</ele>
        <time>2016-05-16T06:02:18Z</time>
      </trkpt>
      <trkpt lat="43.11738" lon="6.32214">
        <ele>94.8</ele>
        <time>2016-05-16T06:02:25Z</time>
      </trkpt>
      <trkpt lat="43.11762" lon="6.32233">
        <ele>93.1</ele>
        <time>2016-05-16T06:02:36Z</time>
      </trkpt>
      <trkpt lat="43.11776" lon="6.32244">
        <ele>89.8</ele>
        <time>2016-05-16T06:02:41Z</time>
      </trkpt>
      <trkpt lat="43.11795" lon="6.32257">
        <ele>91.7</ele>
        <time>2016-05-16T06:02:48Z</time>
      </trkpt>
      <trkpt lat="43.11815" lon="6.3227">
        <ele>98.9</ele>
        <time>2016-05-16T06:02:56Z</time>
      </trkpt>
      <trkpt lat="43.11828" lon="6.32281">
        <ele>101.2</ele>
        <time>2016-05-16T06:03:01Z</time>
      </trkpt>
      <trkpt lat="43.11844" lon="6.32294">
        <ele>107.9</ele>
        <time>2016-05-16T06:03:08Z</time>
      </trkpt>
      <trkpt lat="43.11862" lon="6.32304">
        <ele>111.8</ele>
        <time>2016-05-16T06:03:16Z</time>
      </trkpt>
      <trkpt lat="43.11882" lon="6.32314">
        <ele>116.6</ele>
        <time>2016-05-16T06:03:23Z</time>
      </trkpt>
      <trkpt lat="43.11907" lon="6.32333">
        <ele>113.4</ele>
        <time>2016-05-16T06:03:33Z</time>
      </trkpt>
      <trkpt lat="43.1192" lon="6.32343">
        <ele>114.6</ele>
        <time>2016-05-16T06:03:38Z</time>
      </trkpt>
      <trkpt lat="43.11938" lon="6.32355">
        <ele>116.7</ele>
        <time>2016-05-16T06:03:45Z</time>
      </trkpt>
      <trkpt lat="43.11958" lon="6.32371">
        <ele>119.9</ele>
        <time>2016-05-16T06:03:54Z</time>
      </trkpt>
      <trkpt lat="43.1197" lon="6.32384">
        <ele>121.5</ele>
        <time>2016-05-16T06:04:00Z</time>
      </trkpt>
      <trkpt lat="43.11983" lon="6.32399">
        <ele>122.8</ele>
        <time>2016-05-16T06:04:07Z</time>
      </trkpt>
      <trkpt lat="43.11996" lon="6.32413">
        <ele>125.2</ele>
        <time>2016-05-16T06:04:14Z</time>
      </trkpt>
      <trkpt lat="43.12009" lon="6.32429">
        <ele>126.7</ele>
        <time>2016-05-16T06:04:21Z</time>
      </trkpt>
      <trkpt lat="43.12022" lon="6.3245">
        <ele>125.8</ele>
        <time>2016-05-16T06:04:28Z</time>
      </trkpt>
      <trkpt lat="43.12036" lon="6.32484">
        <ele>125.2</ele>
        <time>2016-05-16T06:04:37Z</time>
      </trkpt>
      <trkpt lat="43.12045" lon="6.32515">
        <ele>125.5</ele>
        <time>2016-05-16T06:04:46Z</time>
      </trkpt>
      <trkpt lat="43.12056" lon="6.32536">
        <ele>124.5</ele>
        <time>2016-05-16T06:04:53Z</time>
      </trkpt>
      <trkpt lat="43.12069" lon="6.32551">
        <ele>129.8</ele>
        <time>2016-05-16T06:05:00Z</time>
      </trkpt>
      <trkpt lat="43.1209" lon="6.32576">
        <ele>128.4</ele>
        <time>2016-05-16T06:05:11Z</time>
      </trkpt>
      <trkpt lat="43.12098" lon="6.32591">
        <ele>128.5</ele>
        <time>2016-05-16T06:05:16Z</time>
      </trkpt>
      <trkpt lat="43.12111" lon="6.32612">
        <ele>125.4</ele>
        <time>2016-05-16T06:05:23Z</time>
      </trkpt>
      <trkpt lat="43.12126" lon="6.32632">
        <ele>123.7</ele>
        <time>2016-05-16T06:05:31Z</time>
      </trkpt>
      <trkpt lat="43.12142" lon="6.32649">
        <ele>125.6</ele>
        <time>2016-05-16T06:05:38Z</time>
      </trkpt>
      <trkpt lat="43.12158" lon="6.32667">
        <ele>109.1</ele>
        <time>2016-05-16T06:05:44Z</time>
      </trkpt>
      <trkpt lat="43.1218" lon="6.327">
        <ele>125.5</ele>
        <time>2016-05-16T06:05:53Z</time>
      </trkpt>
      <trkpt lat="43.12209" lon="6.32748">
        <ele>125.8</ele>
        <time>2016-05-16T06:06:00Z</time>
      </trkpt>
      <trkpt lat="43.12196" lon="6.32821">
        <ele>120.1</ele>
        <time>2016-05-16T06:06:06Z</time>
      </trkpt>
      <trkpt lat="43.12188" lon="6.32896">
        <ele>117.3</ele>
        <time>2016-05-16T06:06:12Z</time>
      </trkpt>
      <trkpt lat="43.1221" lon="6.32966">
        <ele>111.2</ele>
        <time>2016-05-16T06:06:17Z</time>
      </trkpt>
      <trkpt lat="43.12246" lon="6.33044">
        <ele>109</ele>
        <time>2016-05-16T06:06:23Z</time>
      </trkpt>
      <trkpt lat="43.12295" lon="6.33089">
        <ele>103.2</ele>
        <time>2016-05-16T06:06:28Z</time>
      </trkpt>
      <trkpt lat="43.12348" lon="6.33137">
        <ele>100.1</ele>
        <time>2016-05-16T06:06:34Z</time>
      </trkpt>
      <trkpt lat="43.12409" lon="6.33179">
        <ele>96</ele>
        <time>2016-05-16T06:06:41Z</time>
      </trkpt>
      <trkpt lat="43.12452" lon="6.33184">
        <ele>98.2</ele>
        <time>2016-05-16T06:06:46Z</time>
      </trkpt>
      <trkpt lat="43.12518" lon="6.33222">
        <ele>93.3</ele>
        <time>2016-05-16T06:06:54Z</time>
      </trkpt>
      <trkpt lat="43.12567" lon="6.33251">
        <ele>92.1</ele>
        <time>2016-05-16T06:07:00Z</time>
      </trkpt>
      <trkpt lat="43.12593" lon="6.33266">
        <ele>93.2</ele>
        <time>2016-05-16T06:07:03Z</time>
      </trkpt>
      <trkpt lat="43.12644" lon="6.33288">
        <ele>94.8</ele>
        <time>2016-05-16T06:07:09Z</time>
      </trkpt>
      <trkpt lat="43.12687" lon="6.33314">
        <ele>94.7</ele>
        <time>2016-05-16T06:07:14Z</time>
      </trkpt>
      <trkpt lat="43.12735" lon="6.3335">
        <ele>91.3</ele>
        <time>2016-05-16T06:07:20Z</time>
      </trkpt>
      <trkpt lat="43.1277" lon="6.3339">
        <ele>90.8</ele>
        <time>2016-05-16T06:07:26Z</time>
      </trkpt>
      <trkpt lat="43.12791" lon="6.33424">
        <ele>90.4</ele>
        <time>2016-05-16T06:07:31Z</time>
      </trkpt>
      <trkpt lat="43.12815" lon="6.33471">
        <ele>88.4</ele>
        <time>2016-05-16T06:07:37Z</time>
      </trkpt>
      <trkpt lat="43.12851" lon="6.33504">
        <ele>87.7</ele>
        <time>2016-05-16T06:07:43Z</time>
      </trkpt>
      <trkpt lat="43.12896" lon="6.3352">
        <ele>88.4</ele>
        <time>2016-05-16T06:07:49Z</time>
      </trkpt>
      <trkpt lat="43.12934" lon="6.33534">
        <ele>91</ele>
        <time>2016-05-16T06:07:54Z</time>
      </trkpt>
      <trkpt lat="43.12972" lon="6.33555">
        <ele>90.6</ele>
        <time>2016-05-16T06:07:59Z</time>
      </trkpt>
      <trkpt lat="43.13019" lon="6.33591">
        <ele>88.9</ele>
        <time>2016-05-16T06:08:06Z</time>
      </trkpt>
      <trkpt lat="43.13054" lon="6.33628">
        <ele>87.5</ele>
        <time>2016-05-16T06:08:12Z</time>
      </trkpt>
      <trkpt lat="43.1309" lon="6.33649">
        <ele>84.9</ele>
        <time>2016-05-16T06:08:17Z</time>
      </trkpt>
      <trkpt lat="43.13138" lon="6.33656">
        <ele>82.1</ele>
        <time>2016-05-16T06:08:23Z</time>
      </trkpt>
      <trkpt lat="43.13182" lon="6.33667">
        <ele>81.2</ele>
        <time>2016-05-16T06:08:28Z</time>
      </trkpt>
      <trkpt lat="43.13226" lon="6.33702">
        <ele>77.9</ele>
        <time>2016-05-16T06:08:33Z</time>
      </trkpt>
      <trkpt lat="43.13277" lon="6.33742">
        <ele>76.3</ele>
        <time>2016-05-16T06:08:39Z</time>
      </trkpt>
      <trkpt lat="43.13314" lon="6.33772">
        <ele>75.1</ele>
        <time>2016-05-16T06:08:44Z</time>
      </trkpt>
      <trkpt lat="43.13356" lon="6.33805">
        <ele>72.8</ele>
        <time>2016-05-16T06:08:50Z</time>
      </trkpt>
      <trkpt lat="43.13398" lon="6.33837">
        <ele>69.4</ele>
        <time>2016-05-16T06:08:56Z</time>
      </trkpt>
      <trkpt lat="43.13446" lon="6.33866">
        <ele>68.7</ele>
        <time>2016-05-16T06:09:03Z</time>
      </trkpt>
      <trkpt lat="43.13487" lon="6.33879">
        <ele>69.4</ele>
        <time>2016-05-16T06:09:09Z</time>
      </trkpt>
      <trkpt lat="43.13519" lon="6.33884">
        <ele>70.5</ele>
        <time>2016-05-16T06:09:14Z</time>
      </trkpt>
      <trkpt lat="43.13551" lon="6.33888">
        <ele>71.1</ele>
        <time>2016-05-16T06:09:19Z</time>
      </trkpt>
      <trkpt lat="43.13589" lon="6.33891">
        <ele>72.4</ele>
        <time>2016-05-16T06:09:25Z</time>
      </trkpt>
      <trkpt lat="43.13617" lon="6.3389">
        <ele>73.5</ele>
        <time>2016-05-16T06:09:30Z</time>
      </trkpt>
      <trkpt lat="43.1365" lon="6.33891">
        <ele>74.5</ele>
        <time>2016-05-16T06:09:36Z</time>
      </trkpt>
      <trkpt lat="43.13677" lon="6.33894">
        <ele>74</ele>
        <time>2016-05-16T06:09:41Z</time>
      </trkpt>
      <trkpt lat="43.13708" lon="6.33897">
        <ele>75.4</ele>
        <time>2016-05-16T06:09:47Z</time>
      </trkpt>
      <trkpt lat="43.13724" lon="6.33899">
        <ele>76.7</ele>
        <time>2016-05-16T06:09:50Z</time>
      </trkpt>
      <trkpt lat="43.1376" lon="6.33906">
        <ele>75.8</ele>
        <time>2016-05-16T06:09:57Z</time>
      </trkpt>
      <trkpt lat="43.13796" lon="6.33908">
        <ele>75.1</ele>
        <time>2016-05-16T06:10:04Z</time>
      </trkpt>
      <trkpt lat="43.13827" lon="6.33907">
        <ele>74.4</ele>
        <time>2016-05-16T06:10:10Z</time>
      </trkpt>
      <trkpt lat="43.13855" lon="6.33902">
        <ele>75.4</ele>
        <time>2016-05-16T06:10:16Z</time>
      </trkpt>
      <trkpt lat="43.13874" lon="6.33896">
        <ele>75.8</ele>
        <time>2016-05-16T06:10:20Z</time>
      </trkpt>
      <trkpt lat="43.13904" lon="6.33894">
        <ele>79</ele>
        <time>2016-05-16T06:10:26Z</time>
      </trkpt>
      <trkpt lat="43.13928" lon="6.33896">
        <ele>77.1</ele>
        <time>2016-05-16T06:10:31Z</time>
      </trkpt>
      <trkpt lat="43.13963" lon="6.33899">
        <ele>75.3</ele>
        <time>2016-05-16T06:10:38Z</time>
      </trkpt>
      <trkpt lat="43.13987" lon="6.33902">
        <ele>78.3</ele>
        <time>2016-05-16T06:10:43Z</time>
      </trkpt>
      <trkpt lat="43.14014" lon="6.33907">
        <ele>79</ele>
        <time>2016-05-16T06:10:49Z</time>
      </trkpt>
      <trkpt lat="43.14037" lon="6.33911">
        <ele>78.3</ele>
        <time>2016-05-16T06:10:54Z</time>
      </trkpt>
      <trkpt lat="43.14064" lon="6.3392">
        <ele>77.9</ele>
        <time>2016-05-16T06:11:00Z</time>
      </trkpt>
      <trkpt lat="43.14089" lon="6.33931">
        <ele>77.4</ele>
        <time>2016-05-16T06:11:06Z</time>
      </trkpt>
      <trkpt lat="43.14108" lon="6.33938">
        <ele>78.4</ele>
        <time>2016-05-16T06:11:11Z</time>
      </trkpt>
      <trkpt lat="43.14129" lon="6.33947">
        <ele>80.7</ele>
        <time>2016-05-16T06:11:17Z</time>
      </trkpt>
      <trkpt lat="43.14147" lon="6.33959">
        <ele>79.9</ele>
        <time>2016-05-16T06:11:23Z</time>
      </trkpt>
      <trkpt lat="43.14167" lon="6.33973">
        <ele>83.3</ele>
        <time>2016-05-16T06:11:29Z</time>
      </trkpt>
      <trkpt lat="43.14184" lon="6.33982">
        <ele>83.1</ele>
        <time>2016-05-16T06:11:34Z</time>
      </trkpt>
      <trkpt lat="43.14207" lon="6.33999">
        <ele>82</ele>
        <time>2016-05-16T06:11:43Z</time>
      </trkpt>
      <trkpt lat="43.14212" lon="6.34034">
        <ele>80.7</ele>
        <time>2016-05-16T06:11:49Z</time>
      </trkpt>
      <trkpt lat="43.14212" lon="6.34034">
        <ele>26.4</ele>
        <time>2016-05-16T06:11:54Z</time>
      </trkpt>
      <trkpt lat="43.14212" lon="6.34034">
        <ele>26.4</ele>
        <time>2016-05-16T06:12:01Z</time>
      </trkpt>
      <trkpt lat="43.14212" lon="6.33979">
        <ele>79.7</ele>
        <time>2016-05-16T06:12:01Z</time>
      </trkpt>
      <trkpt lat="43.14209" lon="6.33948">
        <ele>81.9</ele>
        <time>2016-05-16T06:12:07Z</time>
      </trkpt>
      <trkpt lat="43.14207" lon="6.33916">
        <ele>82.3</ele>
        <time>2016-05-16T06:12:13Z</time>
      </trkpt>
      <trkpt lat="43.14204" lon="6.3389">
        <ele>83.4</ele>
        <time>2016-05-16T06:12:18Z</time>
      </trkpt>
      <trkpt lat="43.14203" lon="6.33859">
        <ele>85</ele>
        <time>2016-05-16T06:12:24Z</time>
      </trkpt>
      <trkpt lat="43.14206" lon="6.3383">
        <ele>86.2</ele>
        <time>2016-05-16T06:12:29Z</time>
      </trkpt>
      <trkpt lat="43.14216" lon="6.33797">
        <ele>86.4</ele>
        <time>2016-05-16T06:12:35Z</time>
      </trkpt>
      <trkpt lat="43.1423" lon="6.33765">
        <ele>86.2</ele>
        <time>2016-05-16T06:12:40Z</time>
      </trkpt>
      <trkpt lat="43.14251" lon="6.33716">
        <ele>86.7</ele>
        <time>2016-05-16T06:12:47Z</time>
      </trkpt>
      <trkpt lat="43.14287" lon="6.33706">
        <ele>87.5</ele>
        <time>2016-05-16T06:12:55Z</time>
      </trkpt>
      <trkpt lat="43.14302" lon="6.33679">
        <ele>89.1</ele>
        <time>2016-05-16T06:13:01Z</time>
      </trkpt>
      <trkpt lat="43.14296" lon="6.33644">
        <ele>88.8</ele>
        <time>2016-05-16T06:13:06Z</time>
      </trkpt>
      <trkpt lat="43.14298" lon="6.33606">
        <ele>91.1</ele>
        <time>2016-05-16T06:13:12Z</time>
      </trkpt>
      <trkpt lat="43.14299" lon="6.33569">
        <ele>88.8</ele>
        <time>2016-05-16T06:13:18Z</time>
      </trkpt>
      <trkpt lat="43.14295" lon="6.33532">
        <ele>87.5</ele>
        <time>2016-05-16T06:13:23Z</time>
      </trkpt>
      <trkpt lat="43.14288" lon="6.3349">
        <ele>87.2</ele>
        <time>2016-05-16T06:13:29Z</time>
      </trkpt>
      <trkpt lat="43.14275" lon="6.33452">
        <ele>89.5</ele>
        <time>2016-05-16T06:13:35Z</time>
      </trkpt>
      <trkpt lat="43.14258" lon="6.33405">
        <ele>89.4</ele>
        <time>2016-05-16T06:13:43Z</time>
      </trkpt>
      <trkpt lat="43.14247" lon="6.33377">
        <ele>89.9</ele>
        <time>2016-05-16T06:13:48Z</time>
      </trkpt>
      <trkpt lat="43.14237" lon="6.33337">
        <ele>90.5</ele>
        <time>2016-05-16T06:13:55Z</time>
      </trkpt>
      <trkpt lat="43.14231" lon="6.33286">
        <ele>88.2</ele>
        <time>2016-05-16T06:14:03Z</time>
      </trkpt>
      <trkpt lat="43.14235" lon="6.33249">
        <ele>86.6</ele>
        <time>2016-05-16T06:14:09Z</time>
      </trkpt>
      <trkpt lat="43.14241" lon="6.33215">
        <ele>88.7</ele>
        <time>2016-05-16T06:14:15Z</time>
      </trkpt>
      <trkpt lat="43.14252" lon="6.33191">
        <ele>89</ele>
        <time>2016-05-16T06:14:20Z</time>
      </trkpt>
      <trkpt lat="43.14268" lon="6.33159">
        <ele>89.2</ele>
        <time>2016-05-16T06:14:27Z</time>
      </trkpt>
      <trkpt lat="43.14283" lon="6.3314">
        <ele>91.9</ele>
        <time>2016-05-16T06:14:32Z</time>
      </trkpt>
      <trkpt lat="43.14299" lon="6.33122">
        <ele>93.6</ele>
        <time>2016-05-16T06:14:37Z</time>
      </trkpt>
      <trkpt lat="43.14321" lon="6.33107">
        <ele>94</ele>
        <time>2016-05-16T06:14:43Z</time>
      </trkpt>
      <trkpt lat="43.14345" lon="6.33098">
        <ele>92</ele>
        <time>2016-05-16T06:14:49Z</time>
      </trkpt>
      <trkpt lat="43.14367" lon="6.33089">
        <ele>97.2</ele>
        <time>2016-05-16T06:14:55Z</time>
      </trkpt>
      <trkpt lat="43.14393" lon="6.33069">
        <ele>96.2</ele>
        <time>2016-05-16T06:15:02Z</time>
      </trkpt>
      <trkpt lat="43.14416" lon="6.33052">
        <ele>98.2</ele>
        <time>2016-05-16T06:15:08Z</time>
      </trkpt>
      <trkpt lat="43.14433" lon="6.3303">
        <ele>96.6</ele>
        <time>2016-05-16T06:15:13Z</time>
      </trkpt>
      <trkpt lat="43.14447" lon="6.32999">
        <ele>98</ele>
        <time>2016-05-16T06:15:19Z</time>
      </trkpt>
      <trkpt lat="43.14458" lon="6.32966">
        <ele>97.1</ele>
        <time>2016-05-16T06:15:25Z</time>
      </trkpt>
      <trkpt lat="43.14466" lon="6.32922">
        <ele>97.8</ele>
        <time>2016-05-16T06:15:32Z</time>
      </trkpt>
      <trkpt lat="43.14474" lon="6.32882">
        <ele>98</ele>
        <time>2016-05-16T06:15:38Z</time>
      </trkpt>
      <trkpt lat="43.14484" lon="6.32848">
        <ele>95.4</ele>
        <time>2016-05-16T06:15:43Z</time>
      </trkpt>
      <trkpt lat="43.14492" lon="6.32808">
        <ele>94.7</ele>
        <time>2016-05-16T06:15:48Z</time>
      </trkpt>
      <trkpt lat="43.145" lon="6.32761">
        <ele>94.4</ele>
        <time>2016-05-16T06:15:54Z</time>
      </trkpt>
      <trkpt lat="43.14521" lon="6.32709">
        <ele>94.3</ele>
        <time>2016-05-16T06:16:01Z</time>
      </trkpt>
      <trkpt lat="43.14543" lon="6.32664">
        <ele>92.1</ele>
        <time>2016-05-16T06:16:07Z</time>
      </trkpt>
      <trkpt lat="43.14564" lon="6.32622">
        <ele>92.7</ele>
        <time>2016-05-16T06:16:13Z</time>
      </trkpt>
      <trkpt lat="43.14585" lon="6.32581">
        <ele>95.6</ele>
        <time>2016-05-16T06:16:19Z</time>
      </trkpt>
      <trkpt lat="43.14602" lon="6.32552">
        <ele>93.4</ele>
        <time>2016-05-16T06:16:23Z</time>
      </trkpt>
      <trkpt lat="43.14624" lon="6.32497">
        <ele>94.2</ele>
        <time>2016-05-16T06:16:30Z</time>
      </trkpt>
      <trkpt lat="43.14636" lon="6.32458">
        <ele>94</ele>
        <time>2016-05-16T06:16:35Z</time>
      </trkpt>
      <trkpt lat="43.14647" lon="6.32401">
        <ele>94.9</ele>
        <time>2016-05-16T06:16:42Z</time>
      </trkpt>
      <trkpt lat="43.14656" lon="6.32349">
        <ele>95.3</ele>
        <time>2016-05-16T06:16:49Z</time>
      </trkpt>
      <trkpt lat="43.14666" lon="6.32305">
        <ele>95</ele>
        <time>2016-05-16T06:16:55Z</time>
      </trkpt>
      <trkpt lat="43.14673" lon="6.3227">
        <ele>94.5</ele>
        <time>2016-05-16T06:17:00Z</time>
      </trkpt>
      <trkpt lat="43.14681" lon="6.32227">
        <ele>94.5</ele>
        <time>2016-05-16T06:17:06Z</time>
      </trkpt>
      <trkpt lat="43.14692" lon="6.32172">
        <ele>95.5</ele>
        <time>2016-05-16T06:17:13Z</time>
      </trkpt>
      <trkpt lat="43.14701" lon="6.32127">
        <ele>92.3</ele>
        <time>2016-05-16T06:17:19Z</time>
      </trkpt>
      <trkpt lat="43.14702" lon="6.32065">
        <ele>91.2</ele>
        <time>2016-05-16T06:17:27Z</time>
      </trkpt>
      <trkpt lat="43.14699" lon="6.32023">
        <ele>90.4</ele>
        <time>2016-05-16T06:17:33Z</time>
      </trkpt>
      <trkpt lat="43.14695" lon="6.31977">
        <ele>88.1</ele>
        <time>2016-05-16T06:17:39Z</time>
      </trkpt>
      <trkpt lat="43.14689" lon="6.31925">
        <ele>89.1</ele>
        <time>2016-05-16T06:17:46Z</time>
      </trkpt>
      <trkpt lat="43.14687" lon="6.31888">
        <ele>88.6</ele>
        <time>2016-05-16T06:17:51Z</time>
      </trkpt>
      <trkpt lat="43.14686" lon="6.3185">
        <ele>86.4</ele>
        <time>2016-05-16T06:17:58Z</time>
      </trkpt>
      <trkpt lat="43.14694" lon="6.31808">
        <ele>89</ele>
        <time>2016-05-16T06:18:05Z</time>
      </trkpt>
      <trkpt lat="43.14706" lon="6.31775">
        <ele>89.3</ele>
        <time>2016-05-16T06:18:11Z</time>
      </trkpt>
      <trkpt lat="43.14718" lon="6.3175">
        <ele>90.4</ele>
        <time>2016-05-16T06:18:16Z</time>
      </trkpt>
      <trkpt lat="43.1473" lon="6.31723">
        <ele>91.1</ele>
        <time>2016-05-16T06:18:21Z</time>
      </trkpt>
      <trkpt lat="43.14743" lon="6.31693">
        <ele>94.7</ele>
        <time>2016-05-16T06:18:27Z</time>
      </trkpt>
      <trkpt lat="43.14758" lon="6.31667">
        <ele>96.4</ele>
        <time>2016-05-16T06:18:33Z</time>
      </trkpt>
      <trkpt lat="43.14775" lon="6.31644">
        <ele>96.1</ele>
        <time>2016-05-16T06:18:39Z</time>
      </trkpt>
      <trkpt lat="43.14793" lon="6.31621">
        <ele>95.2</ele>
        <time>2016-05-16T06:18:45Z</time>
      </trkpt>
      <trkpt lat="43.14826" lon="6.31595">
        <ele>98.3</ele>
        <time>2016-05-16T06:18:54Z</time>
      </trkpt>
      <trkpt lat="43.14855" lon="6.31564">
        <ele>98.6</ele>
        <time>2016-05-16T06:19:03Z</time>
      </trkpt>
      <trkpt lat="43.1487" lon="6.31547">
        <ele>99.3</ele>
        <time>2016-05-16T06:19:08Z</time>
      </trkpt>
      <trkpt lat="43.14887" lon="6.3153">
        <ele>100.6</ele>
        <time>2016-05-16T06:19:13Z</time>
      </trkpt>
      <trkpt lat="43.14904" lon="6.31515">
        <ele>103.4</ele>
        <time>2016-05-16T06:19:18Z</time>
      </trkpt>
      <trkpt lat="43.14925" lon="6.31499">
        <ele>105.8</ele>
        <time>2016-05-16T06:19:24Z</time>
      </trkpt>
      <trkpt lat="43.14941" lon="6.31486">
        <ele>107.1</ele>
        <time>2016-05-16T06:19:29Z</time>
      </trkpt>
      <trkpt lat="43.14965" lon="6.31467">
        <ele>106.8</ele>
        <time>2016-05-16T06:19:36Z</time>
      </trkpt>
      <trkpt lat="43.14984" lon="6.31448">
        <ele>107.9</ele>
        <time>2016-05-16T06:19:42Z</time>
      </trkpt>
      <trkpt lat="43.14998" lon="6.3143">
        <ele>106.1</ele>
        <time>2016-05-16T06:19:47Z</time>
      </trkpt>
      <trkpt lat="43.1501" lon="6.31398">
        <ele>105.8</ele>
        <time>2016-05-16T06:19:54Z</time>
      </trkpt>
      <trkpt lat="43.15022" lon="6.31367">
        <ele>107.4</ele>
        <time>2016-05-16T06:20:01Z</time>
      </trkpt>
      <trkpt lat="43.15029" lon="6.31333">
        <ele>106.5</ele>
        <time>2016-05-16T06:20:08Z</time>
      </trkpt>
      <trkpt lat="43.15028" lon="6.3129">
        <ele>112.3</ele>
        <time>2016-05-16T06:20:17Z</time>
      </trkpt>
      <trkpt lat="43.15022" lon="6.31259">
        <ele>114.9</ele>
        <time>2016-05-16T06:20:24Z</time>
      </trkpt>
      <trkpt lat="43.15016" lon="6.31213">
        <ele>118.1</ele>
        <time>2016-05-16T06:20:33Z</time>
      </trkpt>
      <trkpt lat="43.15014" lon="6.31176">
        <ele>117.1</ele>
        <time>2016-05-16T06:20:40Z</time>
      </trkpt>
      <trkpt lat="43.15013" lon="6.31144">
        <ele>117.7</ele>
        <time>2016-05-16T06:20:46Z</time>
      </trkpt>
      <trkpt lat="43.15019" lon="6.31099">
        <ele>114</ele>
        <time>2016-05-16T06:20:54Z</time>
      </trkpt>
      <trkpt lat="43.15023" lon="6.31067">
        <ele>112.9</ele>
        <time>2016-05-16T06:21:00Z</time>
      </trkpt>
      <trkpt lat="43.15024" lon="6.31034">
        <ele>119.2</ele>
        <time>2016-05-16T06:21:07Z</time>
      </trkpt>
      <trkpt lat="43.15025" lon="6.31017">
        <ele>121.7</ele>
        <time>2016-05-16T06:21:12Z</time>
      </trkpt>
      <trkpt lat="43.15032" lon="6.30975">
        <ele>117.8</ele>
        <time>2016-05-16T06:21:19Z</time>
      </trkpt>
      <trkpt lat="43.15038" lon="6.30939">
        <ele>115</ele>
        <time>2016-05-16T06:21:25Z</time>
      </trkpt>
      <trkpt lat="43.15044" lon="6.3091">
        <ele>115.4</ele>
        <time>2016-05-16T06:21:30Z</time>
      </trkpt>
      <trkpt lat="43.15047" lon="6.30881">
        <ele>113.6</ele>
        <time>2016-05-16T06:21:36Z</time>
      </trkpt>
      <trkpt lat="43.1505" lon="6.30849">
        <ele>113.1</ele>
        <time>2016-05-16T06:21:41Z</time>
      </trkpt>
      <trkpt lat="43.15043" lon="6.30817">
        <ele>117</ele>
        <time>2016-05-16T06:21:48Z</time>
      </trkpt>
      <trkpt lat="43.15035" lon="6.30799">
        <ele>121.6</ele>
        <time>2016-05-16T06:21:53Z</time>
      </trkpt>
      <trkpt lat="43.15028" lon="6.30772">
        <ele>125.7</ele>
        <time>2016-05-16T06:21:59Z</time>
      </trkpt>
      <trkpt lat="43.15016" lon="6.30745">
        <ele>130.5</ele>
        <time>2016-05-16T06:22:06Z</time>
      </trkpt>
      <trkpt lat="43.15008" lon="6.30706">
        <ele>124.5</ele>
        <time>2016-05-16T06:22:13Z</time>
      </trkpt>
      <trkpt lat="43.15" lon="6.30675">
        <ele>124.6</ele>
        <time>2016-05-16T06:22:18Z</time>
      </trkpt>
      <trkpt lat="43.1498" lon="6.30635">
        <ele>130.8</ele>
        <time>2016-05-16T06:22:27Z</time>
      </trkpt>
      <trkpt lat="43.14954" lon="6.30607">
        <ele>135.3</ele>
        <time>2016-05-16T06:22:36Z</time>
      </trkpt>
      <trkpt lat="43.14935" lon="6.30579">
        <ele>130.8</ele>
        <time>2016-05-16T06:22:43Z</time>
      </trkpt>
      <trkpt lat="43.14917" lon="6.30555">
        <ele>131.6</ele>
        <time>2016-05-16T06:22:49Z</time>
      </trkpt>
      <trkpt lat="43.149" lon="6.30536">
        <ele>130</ele>
        <time>2016-05-16T06:22:54Z</time>
      </trkpt>
      <trkpt lat="43.14888" lon="6.30511">
        <ele>126.3</ele>
        <time>2016-05-16T06:22:59Z</time>
      </trkpt>
      <trkpt lat="43.14877" lon="6.30474">
        <ele>125</ele>
        <time>2016-05-16T06:23:06Z</time>
      </trkpt>
      <trkpt lat="43.1487" lon="6.30435">
        <ele>125.6</ele>
        <time>2016-05-16T06:23:13Z</time>
      </trkpt>
      <trkpt lat="43.14864" lon="6.30408">
        <ele>130.2</ele>
        <time>2016-05-16T06:23:18Z</time>
      </trkpt>
      <trkpt lat="43.14858" lon="6.30373">
        <ele>129.2</ele>
        <time>2016-05-16T06:23:24Z</time>
      </trkpt>
      <trkpt lat="43.14852" lon="6.30302">
        <ele>115.4</ele>
        <time>2016-05-16T06:23:31Z</time>
      </trkpt>
      <trkpt lat="43.14853" lon="6.30248">
        <ele>124.2</ele>
        <time>2016-05-16T06:23:36Z</time>
      </trkpt>
      <trkpt lat="43.14861" lon="6.30178">
        <ele>125.6</ele>
        <time>2016-05-16T06:23:43Z</time>
      </trkpt>
      <trkpt lat="43.14867" lon="6.30109">
        <ele>126</ele>
        <time>2016-05-16T06:23:50Z</time>
      </trkpt>
      <trkpt lat="43.14875" lon="6.30048">
        <ele>125.8</ele>
        <time>2016-05-16T06:23:56Z</time>
      </trkpt>
      <trkpt lat="43.14884" lon="6.30002">
        <ele>124.8</ele>
        <time>2016-05-16T06:24:01Z</time>
      </trkpt>
      <trkpt lat="43.14899" lon="6.29944">
        <ele>124.6</ele>
        <time>2016-05-16T06:24:07Z</time>
      </trkpt>
      <trkpt lat="43.14913" lon="6.29891">
        <ele>123.8</ele>
        <time>2016-05-16T06:24:13Z</time>
      </trkpt>
      <trkpt lat="43.14931" lon="6.29844">
        <ele>123.2</ele>
        <time>2016-05-16T06:24:19Z</time>
      </trkpt>
      <trkpt lat="43.14948" lon="6.29784">
        <ele>121.7</ele>
        <time>2016-05-16T06:24:26Z</time>
      </trkpt>
      <trkpt lat="43.1496" lon="6.29737">
        <ele>119.8</ele>
        <time>2016-05-16T06:24:31Z</time>
      </trkpt>
      <trkpt lat="43.14975" lon="6.29687">
        <ele>118.1</ele>
        <time>2016-05-16T06:24:37Z</time>
      </trkpt>
      <trkpt lat="43.14985" lon="6.29631">
        <ele>115.2</ele>
        <time>2016-05-16T06:24:44Z</time>
      </trkpt>
      <trkpt lat="43.14985" lon="6.29592">
        <ele>117.7</ele>
        <time>2016-05-16T06:24:49Z</time>
      </trkpt>
      <trkpt lat="43.14983" lon="6.29558">
        <ele>117.6</ele>
        <time>2016-05-16T06:24:54Z</time>
      </trkpt>
      <trkpt lat="43.14978" lon="6.2952">
        <ele>118.7</ele>
        <time>2016-05-16T06:25:00Z</time>
      </trkpt>
      <trkpt lat="43.14974" lon="6.2949">
        <ele>118.4</ele>
        <time>2016-05-16T06:25:05Z</time>
      </trkpt>
      <trkpt lat="43.1497" lon="6.29454">
        <ele>121.2</ele>
        <time>2016-05-16T06:25:11Z</time>
      </trkpt>
      <trkpt lat="43.14965" lon="6.29426">
        <ele>122.9</ele>
        <time>2016-05-16T06:25:16Z</time>
      </trkpt>
      <trkpt lat="43.14959" lon="6.29395">
        <ele>121.6</ele>
        <time>2016-05-16T06:25:21Z</time>
      </trkpt>
      <trkpt lat="43.14953" lon="6.29355">
        <ele>122.9</ele>
        <time>2016-05-16T06:25:28Z</time>
      </trkpt>
      <trkpt lat="43.14949" lon="6.29325">
        <ele>124.8</ele>
        <time>2016-05-16T06:25:33Z</time>
      </trkpt>
      <trkpt lat="43.14944" lon="6.29282">
        <ele>126.4</ele>
        <time>2016-05-16T06:25:40Z</time>
      </trkpt>
      <trkpt lat="43.14941" lon="6.29247">
        <ele>124.8</ele>
        <time>2016-05-16T06:25:46Z</time>
      </trkpt>
      <trkpt lat="43.14946" lon="6.29205">
        <ele>124.3</ele>
        <time>2016-05-16T06:25:53Z</time>
      </trkpt>
      <trkpt lat="43.14963" lon="6.29162">
        <ele>127</ele>
        <time>2016-05-16T06:26:00Z</time>
      </trkpt>
      <trkpt lat="43.14973" lon="6.29132">
        <ele>125.8</ele>
        <time>2016-05-16T06:26:05Z</time>
      </trkpt>
      <trkpt lat="43.14983" lon="6.29081">
        <ele>123.5</ele>
        <time>2016-05-16T06:26:13Z</time>
      </trkpt>
      <trkpt lat="43.14992" lon="6.29052">
        <ele>123.2</ele>
        <time>2016-05-16T06:26:18Z</time>
      </trkpt>
      <trkpt lat="43.15001" lon="6.29014">
        <ele>123</ele>
        <time>2016-05-16T06:26:25Z</time>
      </trkpt>
      <trkpt lat="43.1501" lon="6.28978">
        <ele>123.4</ele>
        <time>2016-05-16T06:26:32Z</time>
      </trkpt>
      <trkpt lat="43.15018" lon="6.28955">
        <ele>124.6</ele>
        <time>2016-05-16T06:26:37Z</time>
      </trkpt>
      <trkpt lat="43.15025" lon="6.28922">
        <ele>124.7</ele>
        <time>2016-05-16T06:26:44Z</time>
      </trkpt>
      <trkpt lat="43.15036" lon="6.28885">
        <ele>125.6</ele>
        <time>2016-05-16T06:26:52Z</time>
      </trkpt>
      <trkpt lat="43.15041" lon="6.28862">
        <ele>127.3</ele>
        <time>2016-05-16T06:26:57Z</time>
      </trkpt>
      <trkpt lat="43.15046" lon="6.2884">
        <ele>127.3</ele>
        <time>2016-05-16T06:27:02Z</time>
      </trkpt>
      <trkpt lat="43.15053" lon="6.28801">
        <ele>127.2</ele>
        <time>2016-05-16T06:27:10Z</time>
      </trkpt>
      <trkpt lat="43.15056" lon="6.28776">
        <ele>127.1</ele>
        <time>2016-05-16T06:27:15Z</time>
      </trkpt>
      <trkpt lat="43.1506" lon="6.2874">
        <ele>126.8</ele>
        <time>2016-05-16T06:27:22Z</time>
      </trkpt>
      <trkpt lat="43.15062" lon="6.28703">
        <ele>125.7</ele>
        <time>2016-05-16T06:27:29Z</time>
      </trkpt>
      <trkpt lat="43.15064" lon="6.28675">
        <ele>125.3</ele>
        <time>2016-05-16T06:27:34Z</time>
      </trkpt>
      <trkpt lat="43.15063" lon="6.28642">
        <ele>126.8</ele>
        <time>2016-05-16T06:27:40Z</time>
      </trkpt>
      <trkpt lat="43.15062" lon="6.28611">
        <ele>126.2</ele>
        <time>2016-05-16T06:27:45Z</time>
      </trkpt>
      <trkpt lat="43.15057" lon="6.28577">
        <ele>130.3</ele>
        <time>2016-05-16T06:27:51Z</time>
      </trkpt>
      <trkpt lat="43.15054" lon="6.28541">
        <ele>130.4</ele>
        <time>2016-05-16T06:27:56Z</time>
      </trkpt>
      <trkpt lat="43.1505" lon="6.28504">
        <ele>132</ele>
        <time>2016-05-16T06:28:01Z</time>
      </trkpt>
      <trkpt lat="43.15041" lon="6.28462">
        <ele>132.6</ele>
        <time>2016-05-16T06:28:07Z</time>
      </trkpt>
      <trkpt lat="43.15032" lon="6.28423">
        <ele>131</ele>
        <time>2016-05-16T06:28:12Z</time>
      </trkpt>
      <trkpt lat="43.15021" lon="6.28379">
        <ele>130.3</ele>
        <time>2016-05-16T06:28:17Z</time>
      </trkpt>
      <trkpt lat="43.15002" lon="6.28315">
        <ele>129.9</ele>
        <time>2016-05-16T06:28:24Z</time>
      </trkpt>
      <trkpt lat="43.14987" lon="6.28268">
        <ele>129.7</ele>
        <time>2016-05-16T06:28:29Z</time>
      </trkpt>
      <trkpt lat="43.14974" lon="6.28215">
        <ele>129.4</ele>
        <time>2016-05-16T06:28:34Z</time>
      </trkpt>
      <trkpt lat="43.14957" lon="6.28149">
        <ele>129.5</ele>
        <time>2016-05-16T06:28:40Z</time>
      </trkpt>
      <trkpt lat="43.14938" lon="6.28066">
        <ele>127</ele>
        <time>2016-05-16T06:28:47Z</time>
      </trkpt>
      <trkpt lat="43.14924" lon="6.28012">
        <ele>126.5</ele>
        <time>2016-05-16T06:28:52Z</time>
      </trkpt>
      <trkpt lat="43.14908" lon="6.27941">
        <ele>122.7</ele>
        <time>2016-05-16T06:28:58Z</time>
      </trkpt>
      <trkpt lat="43.14891" lon="6.2787">
        <ele>121.6</ele>
        <time>2016-05-16T06:29:04Z</time>
      </trkpt>
      <trkpt lat="43.14881" lon="6.27799">
        <ele>120.4</ele>
        <time>2016-05-16T06:29:10Z</time>
      </trkpt>
      <trkpt lat="43.14874" lon="6.27746">
        <ele>118.5</ele>
        <time>2016-05-16T06:29:15Z</time>
      </trkpt>
      <trkpt lat="43.1486" lon="6.27691">
        <ele>123</ele>
        <time>2016-05-16T06:29:21Z</time>
      </trkpt>
      <trkpt lat="43.14853" lon="6.27636">
        <ele>122.7</ele>
        <time>2016-05-16T06:29:26Z</time>
      </trkpt>
      <trkpt lat="43.14848" lon="6.27584">
        <ele>121.7</ele>
        <time>2016-05-16T06:29:31Z</time>
      </trkpt>
      <trkpt lat="43.14844" lon="6.27525">
        <ele>119</ele>
        <time>2016-05-16T06:29:37Z</time>
      </trkpt>
      <trkpt lat="43.14842" lon="6.27472">
        <ele>115.7</ele>
        <time>2016-05-16T06:29:43Z</time>
      </trkpt>
      <trkpt lat="43.14843" lon="6.27416">
        <ele>113.6</ele>
        <time>2016-05-16T06:29:49Z</time>
      </trkpt>
      <trkpt lat="43.14836" lon="6.27358">
        <ele>115.3</ele>
        <time>2016-05-16T06:29:56Z</time>
      </trkpt>
      <trkpt lat="43.1483" lon="6.27309">
        <ele>115</ele>
        <time>2016-05-16T06:30:02Z</time>
      </trkpt>
      <trkpt lat="43.14825" lon="6.2727">
        <ele>114</ele>
        <time>2016-05-16T06:30:07Z</time>
      </trkpt>
      <trkpt lat="43.14819" lon="6.27215">
        <ele>113.2</ele>
        <time>2016-05-16T06:30:13Z</time>
      </trkpt>
      <trkpt lat="43.1481" lon="6.27159">
        <ele>111.9</ele>
        <time>2016-05-16T06:30:18Z</time>
      </trkpt>
      <trkpt lat="43.14806" lon="6.2709">
        <ele>108.4</ele>
        <time>2016-05-16T06:30:23Z</time>
      </trkpt>
      <trkpt lat="43.14802" lon="6.26992">
        <ele>106.2</ele>
        <time>2016-05-16T06:30:30Z</time>
      </trkpt>
      <trkpt lat="43.14799" lon="6.2692">
        <ele>103.6</ele>
        <time>2016-05-16T06:30:36Z</time>
      </trkpt>
      <trkpt lat="43.14798" lon="6.26863">
        <ele>102.5</ele>
        <time>2016-05-16T06:30:41Z</time>
      </trkpt>
      <trkpt lat="43.14791" lon="6.26808">
        <ele>101.2</ele>
        <time>2016-05-16T06:30:46Z</time>
      </trkpt>
      <trkpt lat="43.14783" lon="6.26734">
        <ele>99.6</ele>
        <time>2016-05-16T06:30:53Z</time>
      </trkpt>
      <trkpt lat="43.14775" lon="6.26678">
        <ele>100.9</ele>
        <time>2016-05-16T06:30:59Z</time>
      </trkpt>
      <trkpt lat="43.1477" lon="6.26624">
        <ele>99.7</ele>
        <time>2016-05-16T06:31:04Z</time>
      </trkpt>
      <trkpt lat="43.14766" lon="6.26553">
        <ele>98.2</ele>
        <time>2016-05-16T06:31:11Z</time>
      </trkpt>
      <trkpt lat="43.14754" lon="6.26465">
        <ele>96.4</ele>
        <time>2016-05-16T06:31:20Z</time>
      </trkpt>
      <trkpt lat="43.14744" lon="6.26397">
        <ele>96.1</ele>
        <time>2016-05-16T06:31:27Z</time>
      </trkpt>
      <trkpt lat="43.14737" lon="6.26342">
        <ele>94.9</ele>
        <time>2016-05-16T06:31:33Z</time>
      </trkpt>
      <trkpt lat="43.14729" lon="6.2629">
        <ele>94.3</ele>
        <time>2016-05-16T06:31:38Z</time>
      </trkpt>
      <trkpt lat="43.14717" lon="6.26222">
        <ele>96.7</ele>
        <time>2016-05-16T06:31:45Z</time>
      </trkpt>
      <trkpt lat="43.14704" lon="6.2615">
        <ele>98.3</ele>
        <time>2016-05-16T06:31:52Z</time>
      </trkpt>
      <trkpt lat="43.14695" lon="6.26092">
        <ele>95.4</ele>
        <time>2016-05-16T06:31:57Z</time>
      </trkpt>
      <trkpt lat="43.14683" lon="6.26017">
        <ele>92</ele>
        <time>2016-05-16T06:32:05Z</time>
      </trkpt>
      <trkpt lat="43.14672" lon="6.2595">
        <ele>93.9</ele>
        <time>2016-05-16T06:32:10Z</time>
      </trkpt>
      <trkpt lat="43.14653" lon="6.25905">
        <ele>92.8</ele>
        <time>2016-05-16T06:32:15Z</time>
      </trkpt>
      <trkpt lat="43.14635" lon="6.25868">
        <ele>94.6</ele>
        <time>2016-05-16T06:32:20Z</time>
      </trkpt>
      <trkpt lat="43.14608" lon="6.25802">
        <ele>89.4</ele>
        <time>2016-05-16T06:32:27Z</time>
      </trkpt>
      <trkpt lat="43.1459" lon="6.25745">
        <ele>87.8</ele>
        <time>2016-05-16T06:32:33Z</time>
      </trkpt>
      <trkpt lat="43.14573" lon="6.25701">
        <ele>88.1</ele>
        <time>2016-05-16T06:32:38Z</time>
      </trkpt>
      <trkpt lat="43.1456" lon="6.25661">
        <ele>87.3</ele>
        <time>2016-05-16T06:32:43Z</time>
      </trkpt>
      <trkpt lat="43.14538" lon="6.25606">
        <ele>85.8</ele>
        <time>2016-05-16T06:32:50Z</time>
      </trkpt>
      <trkpt lat="43.1452" lon="6.25557">
        <ele>86.5</ele>
        <time>2016-05-16T06:32:56Z</time>
      </trkpt>
      <trkpt lat="43.14501" lon="6.25519">
        <ele>88.8</ele>
        <time>2016-05-16T06:33:01Z</time>
      </trkpt>
      <trkpt lat="43.14478" lon="6.2546">
        <ele>86.9</ele>
        <time>2016-05-16T06:33:08Z</time>
      </trkpt>
      <trkpt lat="43.14459" lon="6.2541">
        <ele>89.6</ele>
        <time>2016-05-16T06:33:14Z</time>
      </trkpt>
      <trkpt lat="43.14443" lon="6.25372">
        <ele>90.9</ele>
        <time>2016-05-16T06:33:19Z</time>
      </trkpt>
      <trkpt lat="43.14422" lon="6.25311">
        <ele>87.8</ele>
        <time>2016-05-16T06:33:25Z</time>
      </trkpt>
      <trkpt lat="43.14402" lon="6.25256">
        <ele>89.6</ele>
        <time>2016-05-16T06:33:31Z</time>
      </trkpt>
      <trkpt lat="43.14385" lon="6.25192">
        <ele>88.1</ele>
        <time>2016-05-16T06:33:37Z</time>
      </trkpt>
      <trkpt lat="43.14384" lon="6.25134">
        <ele>84.1</ele>
        <time>2016-05-16T06:33:42Z</time>
      </trkpt>
      <trkpt lat="43.14389" lon="6.25061">
        <ele>82.3</ele>
        <time>2016-05-16T06:33:49Z</time>
      </trkpt>
      <trkpt lat="43.144" lon="6.25002">
        <ele>81.6</ele>
        <time>2016-05-16T06:33:56Z</time>
      </trkpt>
      <trkpt lat="43.14395" lon="6.24979">
        <ele>81.4</ele>
        <time>2016-05-16T06:34:01Z</time>
      </trkpt>
      <trkpt lat="43.14388" lon="6.24939">
        <ele>83.1</ele>
        <time>2016-05-16T06:34:07Z</time>
      </trkpt>
      <trkpt lat="43.14369" lon="6.24905">
        <ele>94.2</ele>
        <time>2016-05-16T06:34:14Z</time>
      </trkpt>
      <trkpt lat="43.14354" lon="6.24875">
        <ele>93.5</ele>
        <time>2016-05-16T06:34:19Z</time>
      </trkpt>
      <trkpt lat="43.14332" lon="6.24844">
        <ele>94.6</ele>
        <time>2016-05-16T06:34:25Z</time>
      </trkpt>
      <trkpt lat="43.14313" lon="6.24812">
        <ele>89.2</ele>
        <time>2016-05-16T06:34:30Z</time>
      </trkpt>
      <trkpt lat="43.14295" lon="6.24786">
        <ele>90.2</ele>
        <time>2016-05-16T06:34:35Z</time>
      </trkpt>
      <trkpt lat="43.14267" lon="6.24741">
        <ele>90.6</ele>
        <time>2016-05-16T06:34:43Z</time>
      </trkpt>
      <trkpt lat="43.14254" lon="6.24709">
        <ele>85.9</ele>
        <time>2016-05-16T06:34:48Z</time>
      </trkpt>
      <trkpt lat="43.14231" lon="6.24649">
        <ele>87.6</ele>
        <time>2016-05-16T06:34:57Z</time>
      </trkpt>
      <trkpt lat="43.14217" lon="6.24613">
        <ele>88.8</ele>
        <time>2016-05-16T06:35:02Z</time>
      </trkpt>
      <trkpt lat="43.14206" lon="6.24575">
        <ele>88.4</ele>
        <time>2016-05-16T06:35:07Z</time>
      </trkpt>
      <trkpt lat="43.14192" lon="6.2453">
        <ele>88.6</ele>
        <time>2016-05-16T06:35:13Z</time>
      </trkpt>
      <trkpt lat="43.14178" lon="6.24478">
        <ele>86.3</ele>
        <time>2016-05-16T06:35:19Z</time>
      </trkpt>
      <trkpt lat="43.14167" lon="6.24423">
        <ele>82.4</ele>
        <time>2016-05-16T06:35:25Z</time>
      </trkpt>
      <trkpt lat="43.14154" lon="6.24373">
        <ele>82.3</ele>
        <time>2016-05-16T06:35:31Z</time>
      </trkpt>
      <trkpt lat="43.14147" lon="6.2435">
        <ele>81.4</ele>
        <time>2016-05-16T06:35:34Z</time>
      </trkpt>
      <trkpt lat="43.1413" lon="6.24286">
        <ele>80.9</ele>
        <time>2016-05-16T06:35:41Z</time>
      </trkpt>
      <trkpt lat="43.14114" lon="6.24236">
        <ele>78.7</ele>
        <time>2016-05-16T06:35:47Z</time>
      </trkpt>
      <trkpt lat="43.14104" lon="6.24194">
        <ele>78.3</ele>
        <time>2016-05-16T06:35:52Z</time>
      </trkpt>
      <trkpt lat="43.14089" lon="6.24147">
        <ele>78.5</ele>
        <time>2016-05-16T06:35:58Z</time>
      </trkpt>
      <trkpt lat="43.14078" lon="6.24105">
        <ele>78.4</ele>
        <time>2016-05-16T06:36:03Z</time>
      </trkpt>
      <trkpt lat="43.14065" lon="6.24065">
        <ele>77</ele>
        <time>2016-05-16T06:36:08Z</time>
      </trkpt>
      <trkpt lat="43.14049" lon="6.24017">
        <ele>78.1</ele>
        <time>2016-05-16T06:36:15Z</time>
      </trkpt>
      <trkpt lat="43.14038" lon="6.23975">
        <ele>77.9</ele>
        <time>2016-05-16T06:36:20Z</time>
      </trkpt>
      <trkpt lat="43.14008" lon="6.23958">
        <ele>80.6</ele>
        <time>2016-05-16T06:36:26Z</time>
      </trkpt>
      <trkpt lat="43.13977" lon="6.2393">
        <ele>81.9</ele>
        <time>2016-05-16T06:36:32Z</time>
      </trkpt>
      <trkpt lat="43.13955" lon="6.23911">
        <ele>82.8</ele>
        <time>2016-05-16T06:36:36Z</time>
      </trkpt>
      <trkpt lat="43.13928" lon="6.23892">
        <ele>88.3</ele>
        <time>2016-05-16T06:36:42Z</time>
      </trkpt>
      <trkpt lat="43.13906" lon="6.2385">
        <ele>88.1</ele>
        <time>2016-05-16T06:36:49Z</time>
      </trkpt>
      <trkpt lat="43.13891" lon="6.23803">
        <ele>89.3</ele>
        <time>2016-05-16T06:36:55Z</time>
      </trkpt>
      <trkpt lat="43.13883" lon="6.23765">
        <ele>76.9</ele>
        <time>2016-05-16T06:37:01Z</time>
      </trkpt>
      <trkpt lat="43.13883" lon="6.23765">
        <ele>76.9</ele>
        <time>2016-05-16T06:37:07Z</time>
      </trkpt>
      <trkpt lat="43.13883" lon="6.23765">
        <ele>21.9</ele>
        <time>2016-05-16T06:37:07Z</time>
      </trkpt>
      <trkpt lat="43.13883" lon="6.23765">
        <ele>21.9</ele>
        <time>2016-05-16T06:37:37Z</time>
      </trkpt>
      <trkpt lat="43.13881" lon="6.23732">
        <ele>74.1</ele>
        <time>2016-05-16T06:37:58Z</time>
      </trkpt>
      <trkpt lat="43.13828" lon="6.23572">
        <ele>74.1</ele>
        <time>2016-05-16T06:38:21Z</time>
      </trkpt>
      <trkpt lat="43.13814" lon="6.2353">
        <ele>73.2</ele>
        <time>2016-05-16T06:38:26Z</time>
      </trkpt>
      <trkpt lat="43.13798" lon="6.23482">
        <ele>76.5</ele>
        <time>2016-05-16T06:38:34Z</time>
      </trkpt>
      <trkpt lat="43.13795" lon="6.23477">
        <ele>78.4</ele>
        <time>2016-05-16T06:38:37Z</time>
      </trkpt>
      <trkpt lat="43.13795" lon="6.23477">
        <ele>19.7</ele>
        <time>2016-05-16T06:38:43Z</time>
      </trkpt>
      <trkpt lat="43.13795" lon="6.23477">
        <ele>19.7</ele>
        <time>2016-05-16T06:39:15Z</time>
      </trkpt>
      <trkpt lat="43.13807" lon="6.23427">
        <ele>78.3</ele>
        <time>2016-05-16T06:39:15Z</time>
      </trkpt>
      <trkpt lat="43.13838" lon="6.23399">
        <ele>80.3</ele>
        <time>2016-05-16T06:39:22Z</time>
      </trkpt>
      <trkpt lat="43.1386" lon="6.23381">
        <ele>81.8</ele>
        <time>2016-05-16T06:39:27Z</time>
      </trkpt>
      <trkpt lat="43.13884" lon="6.23362">
        <ele>79.7</ele>
        <time>2016-05-16T06:39:33Z</time>
      </trkpt>
      <trkpt lat="43.13905" lon="6.23345">
        <ele>80.5</ele>
        <time>2016-05-16T06:39:38Z</time>
      </trkpt>
      <trkpt lat="43.1394" lon="6.23313">
        <ele>77.8</ele>
        <time>2016-05-16T06:39:47Z</time>
      </trkpt>
      <trkpt lat="43.1396" lon="6.23298">
        <ele>78</ele>
        <time>2016-05-16T06:39:52Z</time>
      </trkpt>
      <trkpt lat="43.13986" lon="6.23278">
        <ele>79</ele>
        <time>2016-05-16T06:39:59Z</time>
      </trkpt>
      <trkpt lat="43.14009" lon="6.23253">
        <ele>78.8</ele>
        <time>2016-05-16T06:40:06Z</time>
      </trkpt>
      <trkpt lat="43.14031" lon="6.23233">
        <ele>79.6</ele>
        <time>2016-05-16T06:40:12Z</time>
      </trkpt>
      <trkpt lat="43.14049" lon="6.23214">
        <ele>79.9</ele>
        <time>2016-05-16T06:40:17Z</time>
      </trkpt>
      <trkpt lat="43.1407" lon="6.23173">
        <ele>75.1</ele>
        <time>2016-05-16T06:40:23Z</time>
      </trkpt>
      <trkpt lat="43.14111" lon="6.23161">
        <ele>74.8</ele>
        <time>2016-05-16T06:40:29Z</time>
      </trkpt>
      <trkpt lat="43.1415" lon="6.23156">
        <ele>73.9</ele>
        <time>2016-05-16T06:40:35Z</time>
      </trkpt>
      <trkpt lat="43.14178" lon="6.23142">
        <ele>73.8</ele>
        <time>2016-05-16T06:40:40Z</time>
      </trkpt>
      <trkpt lat="43.14213" lon="6.23123">
        <ele>73</ele>
        <time>2016-05-16T06:40:47Z</time>
      </trkpt>
      <trkpt lat="43.1424" lon="6.23102">
        <ele>74.7</ele>
        <time>2016-05-16T06:40:53Z</time>
      </trkpt>
      <trkpt lat="43.14272" lon="6.2308">
        <ele>71.6</ele>
        <time>2016-05-16T06:41:00Z</time>
      </trkpt>
      <trkpt lat="43.14293" lon="6.23061">
        <ele>72.1</ele>
        <time>2016-05-16T06:41:05Z</time>
      </trkpt>
      <trkpt lat="43.14322" lon="6.23036">
        <ele>72.6</ele>
        <time>2016-05-16T06:41:12Z</time>
      </trkpt>
      <trkpt lat="43.14349" lon="6.23026">
        <ele>73.1</ele>
        <time>2016-05-16T06:41:19Z</time>
      </trkpt>
      <trkpt lat="43.14373" lon="6.23002">
        <ele>73.6</ele>
        <time>2016-05-16T06:41:26Z</time>
      </trkpt>
      <trkpt lat="43.14399" lon="6.2299">
        <ele>74.4</ele>
        <time>2016-05-16T06:41:32Z</time>
      </trkpt>
      <trkpt lat="43.14419" lon="6.22978">
        <ele>73.7</ele>
        <time>2016-05-16T06:41:37Z</time>
      </trkpt>
      <trkpt lat="43.1444" lon="6.2297">
        <ele>73.5</ele>
        <time>2016-05-16T06:41:42Z</time>
      </trkpt>
      <trkpt lat="43.14466" lon="6.22959">
        <ele>73.7</ele>
        <time>2016-05-16T06:41:48Z</time>
      </trkpt>
      <trkpt lat="43.14487" lon="6.22956">
        <ele>71.7</ele>
        <time>2016-05-16T06:41:53Z</time>
      </trkpt>
      <trkpt lat="43.14523" lon="6.22935">
        <ele>72.5</ele>
        <time>2016-05-16T06:42:02Z</time>
      </trkpt>
      <trkpt lat="43.14551" lon="6.22925">
        <ele>74.6</ele>
        <time>2016-05-16T06:42:09Z</time>
      </trkpt>
      <trkpt lat="43.14571" lon="6.22918">
        <ele>75.9</ele>
        <time>2016-05-16T06:42:14Z</time>
      </trkpt>
      <trkpt lat="43.14595" lon="6.22907">
        <ele>77</ele>
        <time>2016-05-16T06:42:20Z</time>
      </trkpt>
      <trkpt lat="43.14624" lon="6.22894">
        <ele>78.2</ele>
        <time>2016-05-16T06:42:27Z</time>
      </trkpt>
      <trkpt lat="43.14646" lon="6.22885">
        <ele>78</ele>
        <time>2016-05-16T06:42:32Z</time>
      </trkpt>
      <trkpt lat="43.14675" lon="6.22875">
        <ele>78.8</ele>
        <time>2016-05-16T06:42:39Z</time>
      </trkpt>
      <trkpt lat="43.14701" lon="6.22869">
        <ele>78.8</ele>
        <time>2016-05-16T06:42:45Z</time>
      </trkpt>
      <trkpt lat="43.1473" lon="6.22861">
        <ele>79.2</ele>
        <time>2016-05-16T06:42:52Z</time>
      </trkpt>
      <trkpt lat="43.14753" lon="6.22856">
        <ele>79.1</ele>
        <time>2016-05-16T06:42:57Z</time>
      </trkpt>
      <trkpt lat="43.14783" lon="6.2285">
        <ele>80.5</ele>
        <time>2016-05-16T06:43:04Z</time>
      </trkpt>
      <trkpt lat="43.14813" lon="6.22844">
        <ele>81.1</ele>
        <time>2016-05-16T06:43:11Z</time>
      </trkpt>
      <trkpt lat="43.14838" lon="6.22838">
        <ele>80.7</ele>
        <time>2016-05-16T06:43:17Z</time>
      </trkpt>
      <trkpt lat="43.14858" lon="6.22832">
        <ele>81.1</ele>
        <time>2016-05-16T06:43:22Z</time>
      </trkpt>
      <trkpt lat="43.14882" lon="6.22825">
        <ele>83.1</ele>
        <time>2016-05-16T06:43:28Z</time>
      </trkpt>
      <trkpt lat="43.14903" lon="6.22818">
        <ele>83.7</ele>
        <time>2016-05-16T06:43:33Z</time>
      </trkpt>
      <trkpt lat="43.14929" lon="6.22804">
        <ele>82.5</ele>
        <time>2016-05-16T06:43:40Z</time>
      </trkpt>
      <trkpt lat="43.14949" lon="6.22796">
        <ele>80.4</ele>
        <time>2016-05-16T06:43:45Z</time>
      </trkpt>
      <trkpt lat="43.14983" lon="6.22784">
        <ele>82.3</ele>
        <time>2016-05-16T06:43:52Z</time>
      </trkpt>
      <trkpt lat="43.15012" lon="6.22775">
        <ele>83</ele>
        <time>2016-05-16T06:43:59Z</time>
      </trkpt>
      <trkpt lat="43.15033" lon="6.22768">
        <ele>83.5</ele>
        <time>2016-05-16T06:44:04Z</time>
      </trkpt>
      <trkpt lat="43.15069" lon="6.22758">
        <ele>83</ele>
        <time>2016-05-16T06:44:12Z</time>
      </trkpt>
      <trkpt lat="43.15092" lon="6.22753">
        <ele>83.4</ele>
        <time>2016-05-16T06:44:17Z</time>
      </trkpt>
      <trkpt lat="43.15119" lon="6.22748">
        <ele>84</ele>
        <time>2016-05-16T06:44:23Z</time>
      </trkpt>
      <trkpt lat="43.15147" lon="6.22743">
        <ele>84.3</ele>
        <time>2016-05-16T06:44:29Z</time>
      </trkpt>
      <trkpt lat="43.15175" lon="6.22739">
        <ele>84.1</ele>
        <time>2016-05-16T06:44:35Z</time>
      </trkpt>
      <trkpt lat="43.15197" lon="6.22734">
        <ele>86.3</ele>
        <time>2016-05-16T06:44:40Z</time>
      </trkpt>
      <trkpt lat="43.15227" lon="6.22727">
        <ele>84</ele>
        <time>2016-05-16T06:44:47Z</time>
      </trkpt>
      <trkpt lat="43.15253" lon="6.22716">
        <ele>83.3</ele>
        <time>2016-05-16T06:44:53Z</time>
      </trkpt>
      <trkpt lat="43.15282" lon="6.227">
        <ele>81.7</ele>
        <time>2016-05-16T06:45:00Z</time>
      </trkpt>
      <trkpt lat="43.15303" lon="6.22685">
        <ele>82.8</ele>
        <time>2016-05-16T06:45:05Z</time>
      </trkpt>
      <trkpt lat="43.15322" lon="6.22671">
        <ele>82.7</ele>
        <time>2016-05-16T06:45:10Z</time>
      </trkpt>
      <trkpt lat="43.15348" lon="6.22658">
        <ele>82.2</ele>
        <time>2016-05-16T06:45:16Z</time>
      </trkpt>
      <trkpt lat="43.15369" lon="6.22646">
        <ele>82.1</ele>
        <time>2016-05-16T06:45:21Z</time>
      </trkpt>
      <trkpt lat="43.15397" lon="6.22628">
        <ele>82.8</ele>
        <time>2016-05-16T06:45:28Z</time>
      </trkpt>
      <trkpt lat="43.15423" lon="6.22611">
        <ele>80.5</ele>
        <time>2016-05-16T06:45:34Z</time>
      </trkpt>
      <trkpt lat="43.15448" lon="6.22595">
        <ele>79.8</ele>
        <time>2016-05-16T06:45:40Z</time>
      </trkpt>
      <trkpt lat="43.15481" lon="6.22568">
        <ele>80.4</ele>
        <time>2016-05-16T06:45:48Z</time>
      </trkpt>
      <trkpt lat="43.15503" lon="6.22551">
        <ele>80.7</ele>
        <time>2016-05-16T06:45:53Z</time>
      </trkpt>
      <trkpt lat="43.15532" lon="6.22527">
        <ele>80.3</ele>
        <time>2016-05-16T06:46:00Z</time>
      </trkpt>
      <trkpt lat="43.1555" lon="6.22504">
        <ele>80.9</ele>
        <time>2016-05-16T06:46:05Z</time>
      </trkpt>
      <trkpt lat="43.15575" lon="6.22482">
        <ele>81.9</ele>
        <time>2016-05-16T06:46:11Z</time>
      </trkpt>
      <trkpt lat="43.15609" lon="6.22458">
        <ele>84</ele>
        <time>2016-05-16T06:46:19Z</time>
      </trkpt>
      <trkpt lat="43.15632" lon="6.22435">
        <ele>85.6</ele>
        <time>2016-05-16T06:46:25Z</time>
      </trkpt>
      <trkpt lat="43.15661" lon="6.22417">
        <ele>88.4</ele>
        <time>2016-05-16T06:46:33Z</time>
      </trkpt>
      <trkpt lat="43.15692" lon="6.22399">
        <ele>87.7</ele>
        <time>2016-05-16T06:46:41Z</time>
      </trkpt>
      <trkpt lat="43.15722" lon="6.22374">
        <ele>90.4</ele>
        <time>2016-05-16T06:46:48Z</time>
      </trkpt>
      <trkpt lat="43.1574" lon="6.2235">
        <ele>90.4</ele>
        <time>2016-05-16T06:46:53Z</time>
      </trkpt>
      <trkpt lat="43.15757" lon="6.22316">
        <ele>90.5</ele>
        <time>2016-05-16T06:46:59Z</time>
      </trkpt>
      <trkpt lat="43.15777" lon="6.22279">
        <ele>89.4</ele>
        <time>2016-05-16T06:47:06Z</time>
      </trkpt>
      <trkpt lat="43.15794" lon="6.22244">
        <ele>89.1</ele>
        <time>2016-05-16T06:47:13Z</time>
      </trkpt>
      <trkpt lat="43.15809" lon="6.22207">
        <ele>88.5</ele>
        <time>2016-05-16T06:47:20Z</time>
      </trkpt>
      <trkpt lat="43.15822" lon="6.22182">
        <ele>93.7</ele>
        <time>2016-05-16T06:47:26Z</time>
      </trkpt>
      <trkpt lat="43.15839" lon="6.22151">
        <ele>94.7</ele>
        <time>2016-05-16T06:47:33Z</time>
      </trkpt>
      <trkpt lat="43.15854" lon="6.22122">
        <ele>93.5</ele>
        <time>2016-05-16T06:47:38Z</time>
      </trkpt>
      <trkpt lat="43.15868" lon="6.22093">
        <ele>93.1</ele>
        <time>2016-05-16T06:47:43Z</time>
      </trkpt>
      <trkpt lat="43.15888" lon="6.22063">
        <ele>92.1</ele>
        <time>2016-05-16T06:47:49Z</time>
      </trkpt>
      <trkpt lat="43.15911" lon="6.22037">
        <ele>93.4</ele>
        <time>2016-05-16T06:47:56Z</time>
      </trkpt>
      <trkpt lat="43.15933" lon="6.22015">
        <ele>96.6</ele>
        <time>2016-05-16T06:48:02Z</time>
      </trkpt>
      <trkpt lat="43.15948" lon="6.21992">
        <ele>93</ele>
        <time>2016-05-16T06:48:07Z</time>
      </trkpt>
      <trkpt lat="43.15973" lon="6.21966">
        <ele>94.4</ele>
        <time>2016-05-16T06:48:13Z</time>
      </trkpt>
      <trkpt lat="43.15996" lon="6.2194">
        <ele>93.4</ele>
        <time>2016-05-16T06:48:19Z</time>
      </trkpt>
      <trkpt lat="43.1602" lon="6.2192">
        <ele>92.9</ele>
        <time>2016-05-16T06:48:25Z</time>
      </trkpt>
      <trkpt lat="43.16041" lon="6.21908">
        <ele>92.8</ele>
        <time>2016-05-16T06:48:30Z</time>
      </trkpt>
      <trkpt lat="43.16074" lon="6.219">
        <ele>93.3</ele>
        <time>2016-05-16T06:48:38Z</time>
      </trkpt>
      <trkpt lat="43.16098" lon="6.21898">
        <ele>90.2</ele>
        <time>2016-05-16T06:48:44Z</time>
      </trkpt>
      <trkpt lat="43.16125" lon="6.21884">
        <ele>93.8</ele>
        <time>2016-05-16T06:48:51Z</time>
      </trkpt>
      <trkpt lat="43.1615" lon="6.2187">
        <ele>94.4</ele>
        <time>2016-05-16T06:48:56Z</time>
      </trkpt>
      <trkpt lat="43.16172" lon="6.21857">
        <ele>97.1</ele>
        <time>2016-05-16T06:49:01Z</time>
      </trkpt>
      <trkpt lat="43.16201" lon="6.21843">
        <ele>94.9</ele>
        <time>2016-05-16T06:49:08Z</time>
      </trkpt>
      <trkpt lat="43.16224" lon="6.21834">
        <ele>92.4</ele>
        <time>2016-05-16T06:49:14Z</time>
      </trkpt>
      <trkpt lat="43.16245" lon="6.21827">
        <ele>91.2</ele>
        <time>2016-05-16T06:49:19Z</time>
      </trkpt>
      <trkpt lat="43.16267" lon="6.21818">
        <ele>92.8</ele>
        <time>2016-05-16T06:49:25Z</time>
      </trkpt>
      <trkpt lat="43.16289" lon="6.2181">
        <ele>92.6</ele>
        <time>2016-05-16T06:49:31Z</time>
      </trkpt>
      <trkpt lat="43.16314" lon="6.21796">
        <ele>95.7</ele>
        <time>2016-05-16T06:49:38Z</time>
      </trkpt>
      <trkpt lat="43.16336" lon="6.21785">
        <ele>96.1</ele>
        <time>2016-05-16T06:49:43Z</time>
      </trkpt>
      <trkpt lat="43.16362" lon="6.21773">
        <ele>96.6</ele>
        <time>2016-05-16T06:49:49Z</time>
      </trkpt>
      <trkpt lat="43.16384" lon="6.21764">
        <ele>96.3</ele>
        <time>2016-05-16T06:49:54Z</time>
      </trkpt>
      <trkpt lat="43.16405" lon="6.21754">
        <ele>99.3</ele>
        <time>2016-05-16T06:49:59Z</time>
      </trkpt>
      <trkpt lat="43.16436" lon="6.21743">
        <ele>99.7</ele>
        <time>2016-05-16T06:50:06Z</time>
      </trkpt>
      <trkpt lat="43.16458" lon="6.21736">
        <ele>100.6</ele>
        <time>2016-05-16T06:50:11Z</time>
      </trkpt>
      <trkpt lat="43.1648" lon="6.21729">
        <ele>99.2</ele>
        <time>2016-05-16T06:50:16Z</time>
      </trkpt>
      <trkpt lat="43.16504" lon="6.21717">
        <ele>101.1</ele>
        <time>2016-05-16T06:50:22Z</time>
      </trkpt>
      <trkpt lat="43.16525" lon="6.21704">
        <ele>101.2</ele>
        <time>2016-05-16T06:50:27Z</time>
      </trkpt>
      <trkpt lat="43.16552" lon="6.2169">
        <ele>101</ele>
        <time>2016-05-16T06:50:33Z</time>
      </trkpt>
      <trkpt lat="43.16578" lon="6.21676">
        <ele>100.6</ele>
        <time>2016-05-16T06:50:39Z</time>
      </trkpt>
      <trkpt lat="43.16599" lon="6.21668">
        <ele>102.4</ele>
        <time>2016-05-16T06:50:44Z</time>
      </trkpt>
      <trkpt lat="43.16624" lon="6.21657">
        <ele>103.4</ele>
        <time>2016-05-16T06:50:49Z</time>
      </trkpt>
      <trkpt lat="43.1666" lon="6.2164">
        <ele>100.6</ele>
        <time>2016-05-16T06:50:58Z</time>
      </trkpt>
      <trkpt lat="43.1668" lon="6.21629">
        <ele>103.7</ele>
        <time>2016-05-16T06:51:03Z</time>
      </trkpt>
      <trkpt lat="43.16709" lon="6.21614">
        <ele>101.8</ele>
        <time>2016-05-16T06:51:11Z</time>
      </trkpt>
      <trkpt lat="43.16731" lon="6.21606">
        <ele>104.5</ele>
        <time>2016-05-16T06:51:16Z</time>
      </trkpt>
      <trkpt lat="43.16751" lon="6.21599">
        <ele>106.8</ele>
        <time>2016-05-16T06:51:21Z</time>
      </trkpt>
      <trkpt lat="43.16788" lon="6.21594">
        <ele>106.7</ele>
        <time>2016-05-16T06:51:28Z</time>
      </trkpt>
      <trkpt lat="43.16813" lon="6.21591">
        <ele>106.1</ele>
        <time>2016-05-16T06:51:34Z</time>
      </trkpt>
      <trkpt lat="43.16837" lon="6.21592">
        <ele>106</ele>
        <time>2016-05-16T06:51:40Z</time>
      </trkpt>
      <trkpt lat="43.16858" lon="6.21594">
        <ele>108.5</ele>
        <time>2016-05-16T06:51:46Z</time>
      </trkpt>
      <trkpt lat="43.16891" lon="6.21595">
        <ele>109.1</ele>
        <time>2016-05-16T06:51:54Z</time>
      </trkpt>
      <trkpt lat="43.16922" lon="6.21596">
        <ele>108.2</ele>
        <time>2016-05-16T06:52:01Z</time>
      </trkpt>
      <trkpt lat="43.16944" lon="6.21595">
        <ele>109.1</ele>
        <time>2016-05-16T06:52:06Z</time>
      </trkpt>
      <trkpt lat="43.1697" lon="6.21593">
        <ele>108.3</ele>
        <time>2016-05-16T06:52:12Z</time>
      </trkpt>
      <trkpt lat="43.16989" lon="6.21589">
        <ele>104.5</ele>
        <time>2016-05-16T06:52:17Z</time>
      </trkpt>
      <trkpt lat="43.17016" lon="6.21587">
        <ele>103.5</ele>
        <time>2016-05-16T06:52:24Z</time>
      </trkpt>
      <trkpt lat="43.17042" lon="6.21582">
        <ele>103.8</ele>
        <time>2016-05-16T06:52:31Z</time>
      </trkpt>
      <trkpt lat="43.17067" lon="6.21574">
        <ele>105.7</ele>
        <time>2016-05-16T06:52:38Z</time>
      </trkpt>
      <trkpt lat="43.17094" lon="6.21568">
        <ele>106.5</ele>
        <time>2016-05-16T06:52:45Z</time>
      </trkpt>
      <trkpt lat="43.17117" lon="6.21558">
        <ele>108.1</ele>
        <time>2016-05-16T06:52:51Z</time>
      </trkpt>
      <trkpt lat="43.17135" lon="6.21551">
        <ele>107.6</ele>
        <time>2016-05-16T06:52:56Z</time>
      </trkpt>
      <trkpt lat="43.17172" lon="6.21535">
        <ele>112.6</ele>
        <time>2016-05-16T06:53:05Z</time>
      </trkpt>
      <trkpt lat="43.17193" lon="6.21528">
        <ele>117.4</ele>
        <time>2016-05-16T06:53:10Z</time>
      </trkpt>
      <trkpt lat="43.17226" lon="6.21533">
        <ele>116.7</ele>
        <time>2016-05-16T06:53:17Z</time>
      </trkpt>
      <trkpt lat="43.17262" lon="6.21552">
        <ele>116.4</ele>
        <time>2016-05-16T06:53:24Z</time>
      </trkpt>
      <trkpt lat="43.17276" lon="6.2154">
        <ele>111.8</ele>
        <time>2016-05-16T06:53:30Z</time>
      </trkpt>
      <trkpt lat="43.17282" lon="6.21517">
        <ele>112.2</ele>
        <time>2016-05-16T06:53:35Z</time>
      </trkpt>
      <trkpt lat="43.1729" lon="6.21487">
        <ele>110.9</ele>
        <time>2016-05-16T06:53:42Z</time>
      </trkpt>
      <trkpt lat="43.17295" lon="6.21464">
        <ele>110.2</ele>
        <time>2016-05-16T06:53:48Z</time>
      </trkpt>
      <trkpt lat="43.17297" lon="6.21444">
        <ele>117.5</ele>
        <time>2016-05-16T06:53:54Z</time>
      </trkpt>
      <trkpt lat="43.17299" lon="6.21418">
        <ele>122.9</ele>
        <time>2016-05-16T06:54:02Z</time>
      </trkpt>
      <trkpt lat="43.17305" lon="6.21391">
        <ele>126</ele>
        <time>2016-05-16T06:54:09Z</time>
      </trkpt>
      <trkpt lat="43.17312" lon="6.21375">
        <ele>127.9</ele>
        <time>2016-05-16T06:54:16Z</time>
      </trkpt>
      <trkpt lat="43.17312" lon="6.21375">
        <ele>61.2</ele>
        <time>2016-05-16T06:54:23Z</time>
      </trkpt>
      <trkpt lat="43.17312" lon="6.21375">
        <ele>61.2</ele>
        <time>2016-05-16T06:54:39Z</time>
      </trkpt>
      <trkpt lat="43.17307" lon="6.21415">
        <ele>117.5</ele>
        <time>2016-05-16T06:54:39Z</time>
      </trkpt>
      <trkpt lat="43.17307" lon="6.21415">
        <ele>117.5</ele>
        <time>2016-05-16T06:54:44Z</time>
      </trkpt>
      <trkpt lat="43.17307" lon="6.21415">
        <ele>62</ele>
        <time>2016-05-16T06:54:44Z</time>
      </trkpt>
      <trkpt lat="43.17307" lon="6.21415">
        <ele>62</ele>
        <time>2016-05-16T06:55:04Z</time>
      </trkpt>
      <trkpt lat="43.1731" lon="6.21378">
        <ele>118.7</ele>
        <time>2016-05-16T06:55:04Z</time>
      </trkpt>
      <trkpt lat="43.17317" lon="6.21341">
        <ele>118.5</ele>
        <time>2016-05-16T06:55:14Z</time>
      </trkpt>
      <trkpt lat="43.17316" lon="6.21334">
        <ele>119.5</ele>
        <time>2016-05-16T06:55:16Z</time>
      </trkpt>
      <trkpt lat="43.17316" lon="6.21334">
        <ele>61.1</ele>
        <time>2016-05-16T06:55:22Z</time>
      </trkpt>
      <trkpt lat="43.17316" lon="6.21334">
        <ele>61.1</ele>
        <time>2016-05-16T06:55:35Z</time>
      </trkpt>
      <trkpt lat="43.17322" lon="6.2132">
        <ele>117.3</ele>
        <time>2016-05-16T06:55:35Z</time>
      </trkpt>
      <trkpt lat="43.17327" lon="6.21293">
        <ele>118.8</ele>
        <time>2016-05-16T06:55:41Z</time>
      </trkpt>
      <trkpt lat="43.17327" lon="6.21293">
        <ele>62.3</ele>
        <time>2016-05-16T06:55:47Z</time>
      </trkpt>
      <trkpt lat="43.17327" lon="6.21293">
        <ele>62.3</ele>
        <time>2016-05-16T06:56:31Z</time>
      </trkpt>
      <trkpt lat="43.17333" lon="6.21261">
        <ele>123.8</ele>
        <time>2016-05-16T06:56:31Z</time>
      </trkpt>
      <trkpt lat="43.17335" lon="6.21213">
        <ele>124.3</ele>
        <time>2016-05-16T06:56:38Z</time>
      </trkpt>
      <trkpt lat="43.17334" lon="6.21174">
        <ele>126.5</ele>
        <time>2016-05-16T06:56:44Z</time>
      </trkpt>
      <trkpt lat="43.17334" lon="6.21141">
        <ele>126.8</ele>
        <time>2016-05-16T06:56:50Z</time>
      </trkpt>
      <trkpt lat="43.17329" lon="6.21112">
        <ele>126.4</ele>
        <time>2016-05-16T06:56:56Z</time>
      </trkpt>
      <trkpt lat="43.17322" lon="6.21086">
        <ele>122.3</ele>
        <time>2016-05-16T06:57:01Z</time>
      </trkpt>
      <trkpt lat="43.17315" lon="6.21047">
        <ele>124.6</ele>
        <time>2016-05-16T06:57:07Z</time>
      </trkpt>
      <trkpt lat="43.17312" lon="6.21014">
        <ele>126.8</ele>
        <time>2016-05-16T06:57:13Z</time>
      </trkpt>
      <trkpt lat="43.17313" lon="6.21007">
        <ele>124.9</ele>
        <time>2016-05-16T06:57:16Z</time>
      </trkpt>
      <trkpt lat="43.17313" lon="6.21007">
        <ele>66.7</ele>
        <time>2016-05-16T06:57:21Z</time>
      </trkpt>
      <trkpt lat="43.17313" lon="6.21007">
        <ele>66.7</ele>
        <time>2016-05-16T06:58:02Z</time>
      </trkpt>
      <trkpt lat="43.17298" lon="6.20967">
        <ele>125.1</ele>
        <time>2016-05-16T06:58:02Z</time>
      </trkpt>
      <trkpt lat="43.17289" lon="6.20917">
        <ele>127.2</ele>
        <time>2016-05-16T06:58:09Z</time>
      </trkpt>
      <trkpt lat="43.17282" lon="6.20872">
        <ele>130.4</ele>
        <time>2016-05-16T06:58:17Z</time>
      </trkpt>
      <trkpt lat="43.1728" lon="6.20849">
        <ele>134.6</ele>
        <time>2016-05-16T06:58:22Z</time>
      </trkpt>
      <trkpt lat="43.17275" lon="6.20818">
        <ele>135.1</ele>
        <time>2016-05-16T06:58:29Z</time>
      </trkpt>
      <trkpt lat="43.17271" lon="6.20794">
        <ele>133.5</ele>
        <time>2016-05-16T06:58:34Z</time>
      </trkpt>
      <trkpt lat="43.17257" lon="6.20762">
        <ele>134</ele>
        <time>2016-05-16T06:58:41Z</time>
      </trkpt>
      <trkpt lat="43.17246" lon="6.20738">
        <ele>134.1</ele>
        <time>2016-05-16T06:58:46Z</time>
      </trkpt>
      <trkpt lat="43.17232" lon="6.20716">
        <ele>132</ele>
        <time>2016-05-16T06:58:51Z</time>
      </trkpt>
      <trkpt lat="43.17221" lon="6.20697">
        <ele>131.3</ele>
        <time>2016-05-16T06:58:56Z</time>
      </trkpt>
      <trkpt lat="43.17208" lon="6.20669">
        <ele>133</ele>
        <time>2016-05-16T06:59:03Z</time>
      </trkpt>
      <trkpt lat="43.17195" lon="6.20638">
        <ele>134.3</ele>
        <time>2016-05-16T06:59:10Z</time>
      </trkpt>
      <trkpt lat="43.17182" lon="6.20606">
        <ele>134.9</ele>
        <time>2016-05-16T06:59:17Z</time>
      </trkpt>
      <trkpt lat="43.1717" lon="6.20574">
        <ele>134.4</ele>
        <time>2016-05-16T06:59:22Z</time>
      </trkpt>
      <trkpt lat="43.1716" lon="6.20531">
        <ele>135.8</ele>
        <time>2016-05-16T06:59:29Z</time>
      </trkpt>
      <trkpt lat="43.1715" lon="6.20493">
        <ele>136.4</ele>
        <time>2016-05-16T06:59:36Z</time>
      </trkpt>
      <trkpt lat="43.17145" lon="6.20462">
        <ele>137</ele>
        <time>2016-05-16T06:59:42Z</time>
      </trkpt>
      <trkpt lat="43.1715" lon="6.20429">
        <ele>135.3</ele>
        <time>2016-05-16T06:59:48Z</time>
      </trkpt>
      <trkpt lat="43.17161" lon="6.20403">
        <ele>137.4</ele>
        <time>2016-05-16T06:59:54Z</time>
      </trkpt>
      <trkpt lat="43.17156" lon="6.20363">
        <ele>138.6</ele>
        <time>2016-05-16T07:00:02Z</time>
      </trkpt>
      <trkpt lat="43.17146" lon="6.20326">
        <ele>139.5</ele>
        <time>2016-05-16T07:00:09Z</time>
      </trkpt>
      <trkpt lat="43.17136" lon="6.20293">
        <ele>139.9</ele>
        <time>2016-05-16T07:00:16Z</time>
      </trkpt>
      <trkpt lat="43.17128" lon="6.20266">
        <ele>140.1</ele>
        <time>2016-05-16T07:00:21Z</time>
      </trkpt>
      <trkpt lat="43.1712" lon="6.2022">
        <ele>141.8</ele>
        <time>2016-05-16T07:00:29Z</time>
      </trkpt>
      <trkpt lat="43.17122" lon="6.20191">
        <ele>144.3</ele>
        <time>2016-05-16T07:00:34Z</time>
      </trkpt>
      <trkpt lat="43.17125" lon="6.20158">
        <ele>145</ele>
        <time>2016-05-16T07:00:39Z</time>
      </trkpt>
      <trkpt lat="43.17134" lon="6.20122">
        <ele>142.2</ele>
        <time>2016-05-16T07:00:45Z</time>
      </trkpt>
      <trkpt lat="43.17134" lon="6.20096">
        <ele>146.1</ele>
        <time>2016-05-16T07:00:51Z</time>
      </trkpt>
      <trkpt lat="43.17131" lon="6.20062">
        <ele>148.6</ele>
        <time>2016-05-16T07:00:59Z</time>
      </trkpt>
      <trkpt lat="43.17128" lon="6.20045">
        <ele>148.9</ele>
        <time>2016-05-16T07:01:04Z</time>
      </trkpt>
      <trkpt lat="43.17127" lon="6.2001">
        <ele>150.2</ele>
        <time>2016-05-16T07:01:12Z</time>
      </trkpt>
      <trkpt lat="43.1713" lon="6.19988">
        <ele>148.2</ele>
        <time>2016-05-16T07:01:17Z</time>
      </trkpt>
      <trkpt lat="43.1713" lon="6.19947">
        <ele>149.8</ele>
        <time>2016-05-16T07:01:24Z</time>
      </trkpt>
      <trkpt lat="43.17129" lon="6.19914">
        <ele>148.7</ele>
        <time>2016-05-16T07:01:29Z</time>
      </trkpt>
      <trkpt lat="43.17127" lon="6.19877">
        <ele>150.3</ele>
        <time>2016-05-16T07:01:35Z</time>
      </trkpt>
      <trkpt lat="43.17127" lon="6.19848">
        <ele>151.4</ele>
        <time>2016-05-16T07:01:40Z</time>
      </trkpt>
      <trkpt lat="43.17123" lon="6.19807">
        <ele>150.3</ele>
        <time>2016-05-16T07:01:46Z</time>
      </trkpt>
      <trkpt lat="43.171" lon="6.19745">
        <ele>150.8</ele>
        <time>2016-05-16T07:01:53Z</time>
      </trkpt>
      <trkpt lat="43.17089" lon="6.19683">
        <ele>150.4</ele>
        <time>2016-05-16T07:01:59Z</time>
      </trkpt>
      <trkpt lat="43.17095" lon="6.19627">
        <ele>152</ele>
        <time>2016-05-16T07:02:05Z</time>
      </trkpt>
      <trkpt lat="43.17084" lon="6.19572">
        <ele>151.1</ele>
        <time>2016-05-16T07:02:11Z</time>
      </trkpt>
      <trkpt lat="43.1707" lon="6.19521">
        <ele>150</ele>
        <time>2016-05-16T07:02:16Z</time>
      </trkpt>
      <trkpt lat="43.17046" lon="6.19459">
        <ele>147.8</ele>
        <time>2016-05-16T07:02:22Z</time>
      </trkpt>
      <trkpt lat="43.17025" lon="6.19402">
        <ele>147.8</ele>
        <time>2016-05-16T07:02:28Z</time>
      </trkpt>
      <trkpt lat="43.16983" lon="6.19339">
        <ele>146.7</ele>
        <time>2016-05-16T07:02:35Z</time>
      </trkpt>
      <trkpt lat="43.16938" lon="6.193">
        <ele>146.5</ele>
        <time>2016-05-16T07:02:41Z</time>
      </trkpt>
      <trkpt lat="43.16907" lon="6.1924">
        <ele>142.7</ele>
        <time>2016-05-16T07:02:47Z</time>
      </trkpt>
      <trkpt lat="43.16879" lon="6.1919">
        <ele>140.6</ele>
        <time>2016-05-16T07:02:52Z</time>
      </trkpt>
      <trkpt lat="43.16847" lon="6.19144">
        <ele>138.9</ele>
        <time>2016-05-16T07:02:57Z</time>
      </trkpt>
      <trkpt lat="43.16802" lon="6.19066">
        <ele>137.6</ele>
        <time>2016-05-16T07:03:04Z</time>
      </trkpt>
      <trkpt lat="43.16775" lon="6.18994">
        <ele>135</ele>
        <time>2016-05-16T07:03:10Z</time>
      </trkpt>
      <trkpt lat="43.16737" lon="6.18911">
        <ele>134.9</ele>
        <time>2016-05-16T07:03:17Z</time>
      </trkpt>
      <trkpt lat="43.16698" lon="6.18844">
        <ele>133.6</ele>
        <time>2016-05-16T07:03:23Z</time>
      </trkpt>
      <trkpt lat="43.16652" lon="6.18766">
        <ele>131</ele>
        <time>2016-05-16T07:03:30Z</time>
      </trkpt>
      <trkpt lat="43.16633" lon="6.18689">
        <ele>126.1</ele>
        <time>2016-05-16T07:03:35Z</time>
      </trkpt>
      <trkpt lat="43.16602" lon="6.18596">
        <ele>121.7</ele>
        <time>2016-05-16T07:03:42Z</time>
      </trkpt>
      <trkpt lat="43.16581" lon="6.18543">
        <ele>118.8</ele>
        <time>2016-05-16T07:03:47Z</time>
      </trkpt>
      <trkpt lat="43.16546" lon="6.18477">
        <ele>119.3</ele>
        <time>2016-05-16T07:03:54Z</time>
      </trkpt>
      <trkpt lat="43.16533" lon="6.18425">
        <ele>118.1</ele>
        <time>2016-05-16T07:03:59Z</time>
      </trkpt>
      <trkpt lat="43.16535" lon="6.18346">
        <ele>116.7</ele>
        <time>2016-05-16T07:04:06Z</time>
      </trkpt>
      <trkpt lat="43.1652" lon="6.18283">
        <ele>116.3</ele>
        <time>2016-05-16T07:04:13Z</time>
      </trkpt>
      <trkpt lat="43.16495" lon="6.18235">
        <ele>116.3</ele>
        <time>2016-05-16T07:04:19Z</time>
      </trkpt>
      <trkpt lat="43.16468" lon="6.18183">
        <ele>115.7</ele>
        <time>2016-05-16T07:04:25Z</time>
      </trkpt>
      <trkpt lat="43.16448" lon="6.18113">
        <ele>114.4</ele>
        <time>2016-05-16T07:04:31Z</time>
      </trkpt>
      <trkpt lat="43.16443" lon="6.18008">
        <ele>108.2</ele>
        <time>2016-05-16T07:04:39Z</time>
      </trkpt>
      <trkpt lat="43.16437" lon="6.17943">
        <ele>108.8</ele>
        <time>2016-05-16T07:04:44Z</time>
      </trkpt>
      <trkpt lat="43.16448" lon="6.17849">
        <ele>107.2</ele>
        <time>2016-05-16T07:04:51Z</time>
      </trkpt>
      <trkpt lat="43.16431" lon="6.17778">
        <ele>106.8</ele>
        <time>2016-05-16T07:04:57Z</time>
      </trkpt>
      <trkpt lat="43.16385" lon="6.17733">
        <ele>107</ele>
        <time>2016-05-16T07:05:03Z</time>
      </trkpt>
      <trkpt lat="43.16371" lon="6.17701">
        <ele>106.2</ele>
        <time>2016-05-16T07:05:06Z</time>
      </trkpt>
      <trkpt lat="43.16354" lon="6.17624">
        <ele>103.5</ele>
        <time>2016-05-16T07:05:13Z</time>
      </trkpt>
      <trkpt lat="43.16336" lon="6.17564">
        <ele>104.3</ele>
        <time>2016-05-16T07:05:19Z</time>
      </trkpt>
      <trkpt lat="43.16303" lon="6.17515">
        <ele>103</ele>
        <time>2016-05-16T07:05:25Z</time>
      </trkpt>
      <trkpt lat="43.16276" lon="6.17476">
        <ele>103.1</ele>
        <time>2016-05-16T07:05:30Z</time>
      </trkpt>
      <trkpt lat="43.16281" lon="6.17412">
        <ele>103.6</ele>
        <time>2016-05-16T07:05:36Z</time>
      </trkpt>
      <trkpt lat="43.16288" lon="6.17361">
        <ele>103.3</ele>
        <time>2016-05-16T07:05:41Z</time>
      </trkpt>
      <trkpt lat="43.16279" lon="6.17301">
        <ele>102.4</ele>
        <time>2016-05-16T07:05:48Z</time>
      </trkpt>
      <trkpt lat="43.16264" lon="6.17225">
        <ele>103.1</ele>
        <time>2016-05-16T07:05:55Z</time>
      </trkpt>
      <trkpt lat="43.16252" lon="6.17174">
        <ele>103.6</ele>
        <time>2016-05-16T07:06:00Z</time>
      </trkpt>
      <trkpt lat="43.16237" lon="6.17113">
        <ele>103.6</ele>
        <time>2016-05-16T07:06:06Z</time>
      </trkpt>
      <trkpt lat="43.16226" lon="6.17052">
        <ele>102.1</ele>
        <time>2016-05-16T07:06:12Z</time>
      </trkpt>
      <trkpt lat="43.16215" lon="6.17">
        <ele>102</ele>
        <time>2016-05-16T07:06:17Z</time>
      </trkpt>
      <trkpt lat="43.16199" lon="6.16933">
        <ele>101.4</ele>
        <time>2016-05-16T07:06:24Z</time>
      </trkpt>
      <trkpt lat="43.16178" lon="6.16887">
        <ele>106.2</ele>
        <time>2016-05-16T07:06:29Z</time>
      </trkpt>
      <trkpt lat="43.16151" lon="6.16842">
        <ele>101.3</ele>
        <time>2016-05-16T07:06:35Z</time>
      </trkpt>
      <trkpt lat="43.1612" lon="6.168">
        <ele>99</ele>
        <time>2016-05-16T07:06:41Z</time>
      </trkpt>
      <trkpt lat="43.16071" lon="6.1678">
        <ele>99.5</ele>
        <time>2016-05-16T07:06:47Z</time>
      </trkpt>
      <trkpt lat="43.16011" lon="6.16755">
        <ele>97.3</ele>
        <time>2016-05-16T07:06:54Z</time>
      </trkpt>
      <trkpt lat="43.15957" lon="6.16733">
        <ele>96.8</ele>
        <time>2016-05-16T07:07:00Z</time>
      </trkpt>
      <trkpt lat="43.15914" lon="6.16711">
        <ele>95.9</ele>
        <time>2016-05-16T07:07:05Z</time>
      </trkpt>
      <trkpt lat="43.15867" lon="6.1669">
        <ele>95</ele>
        <time>2016-05-16T07:07:10Z</time>
      </trkpt>
      <trkpt lat="43.15826" lon="6.16664">
        <ele>93.8</ele>
        <time>2016-05-16T07:07:15Z</time>
      </trkpt>
      <trkpt lat="43.15783" lon="6.16583">
        <ele>94.1</ele>
        <time>2016-05-16T07:07:23Z</time>
      </trkpt>
      <trkpt lat="43.15749" lon="6.16524">
        <ele>94.4</ele>
        <time>2016-05-16T07:07:29Z</time>
      </trkpt>
      <trkpt lat="43.15718" lon="6.16468">
        <ele>95.3</ele>
        <time>2016-05-16T07:07:35Z</time>
      </trkpt>
      <trkpt lat="43.15681" lon="6.16425">
        <ele>96.9</ele>
        <time>2016-05-16T07:07:40Z</time>
      </trkpt>
      <trkpt lat="43.15631" lon="6.16363">
        <ele>88.9</ele>
        <time>2016-05-16T07:07:46Z</time>
      </trkpt>
      <trkpt lat="43.15619" lon="6.16304">
        <ele>88.5</ele>
        <time>2016-05-16T07:07:51Z</time>
      </trkpt>
      <trkpt lat="43.15596" lon="6.16251">
        <ele>90.6</ele>
        <time>2016-05-16T07:07:56Z</time>
      </trkpt>
      <trkpt lat="43.15553" lon="6.16182">
        <ele>84.6</ele>
        <time>2016-05-16T07:08:03Z</time>
      </trkpt>
      <trkpt lat="43.15506" lon="6.1612">
        <ele>83.7</ele>
        <time>2016-05-16T07:08:10Z</time>
      </trkpt>
      <trkpt lat="43.15453" lon="6.16099">
        <ele>82.5</ele>
        <time>2016-05-16T07:08:16Z</time>
      </trkpt>
      <trkpt lat="43.1541" lon="6.1603">
        <ele>83.2</ele>
        <time>2016-05-16T07:08:23Z</time>
      </trkpt>
      <trkpt lat="43.15383" lon="6.15973">
        <ele>84.7</ele>
        <time>2016-05-16T07:08:29Z</time>
      </trkpt>
      <trkpt lat="43.15355" lon="6.1591">
        <ele>84.8</ele>
        <time>2016-05-16T07:08:35Z</time>
      </trkpt>
      <trkpt lat="43.15317" lon="6.15877">
        <ele>85.2</ele>
        <time>2016-05-16T07:08:40Z</time>
      </trkpt>
      <trkpt lat="43.15276" lon="6.15869">
        <ele>90</ele>
        <time>2016-05-16T07:08:45Z</time>
      </trkpt>
      <trkpt lat="43.15228" lon="6.15862">
        <ele>83.3</ele>
        <time>2016-05-16T07:08:51Z</time>
      </trkpt>
      <trkpt lat="43.15179" lon="6.15859">
        <ele>81.4</ele>
        <time>2016-05-16T07:08:57Z</time>
      </trkpt>
      <trkpt lat="43.15116" lon="6.15855">
        <ele>81.8</ele>
        <time>2016-05-16T07:09:05Z</time>
      </trkpt>
      <trkpt lat="43.15069" lon="6.15843">
        <ele>79.6</ele>
        <time>2016-05-16T07:09:11Z</time>
      </trkpt>
      <trkpt lat="43.14988" lon="6.15766">
        <ele>79.5</ele>
        <time>2016-05-16T07:09:23Z</time>
      </trkpt>
      <trkpt lat="43.14946" lon="6.15756">
        <ele>79.1</ele>
        <time>2016-05-16T07:09:28Z</time>
      </trkpt>
      <trkpt lat="43.14896" lon="6.15731">
        <ele>79.3</ele>
        <time>2016-05-16T07:09:34Z</time>
      </trkpt>
      <trkpt lat="43.14858" lon="6.15701">
        <ele>78.3</ele>
        <time>2016-05-16T07:09:39Z</time>
      </trkpt>
      <trkpt lat="43.14814" lon="6.15662">
        <ele>78</ele>
        <time>2016-05-16T07:09:45Z</time>
      </trkpt>
      <trkpt lat="43.14761" lon="6.15621">
        <ele>76.9</ele>
        <time>2016-05-16T07:09:52Z</time>
      </trkpt>
      <trkpt lat="43.14721" lon="6.15593">
        <ele>74.9</ele>
        <time>2016-05-16T07:09:57Z</time>
      </trkpt>
      <trkpt lat="43.14674" lon="6.15563">
        <ele>74.9</ele>
        <time>2016-05-16T07:10:03Z</time>
      </trkpt>
      <trkpt lat="43.14622" lon="6.15523">
        <ele>73.1</ele>
        <time>2016-05-16T07:10:10Z</time>
      </trkpt>
      <trkpt lat="43.14565" lon="6.15489">
        <ele>72.4</ele>
        <time>2016-05-16T07:10:18Z</time>
      </trkpt>
      <trkpt lat="43.14525" lon="6.15467">
        <ele>72.1</ele>
        <time>2016-05-16T07:10:24Z</time>
      </trkpt>
      <trkpt lat="43.14497" lon="6.15439">
        <ele>71.7</ele>
        <time>2016-05-16T07:10:30Z</time>
      </trkpt>
      <trkpt lat="43.14466" lon="6.15396">
        <ele>69.7</ele>
        <time>2016-05-16T07:10:36Z</time>
      </trkpt>
      <trkpt lat="43.14452" lon="6.15364">
        <ele>67.5</ele>
        <time>2016-05-16T07:10:41Z</time>
      </trkpt>
      <trkpt lat="43.14454" lon="6.15349">
        <ele>67</ele>
        <time>2016-05-16T07:10:45Z</time>
      </trkpt>
      <trkpt lat="43.14454" lon="6.15349">
        <ele>12.2</ele>
        <time>2016-05-16T07:10:51Z</time>
      </trkpt>
      <trkpt lat="43.14454" lon="6.15349">
        <ele>12.2</ele>
        <time>2016-05-16T07:12:16Z</time>
      </trkpt>
      <trkpt lat="43.14408" lon="6.1536">
        <ele>60.8</ele>
        <time>2016-05-16T07:12:16Z</time>
      </trkpt>
      <trkpt lat="43.1437" lon="6.15374">
        <ele>61.4</ele>
        <time>2016-05-16T07:12:23Z</time>
      </trkpt>
      <trkpt lat="43.14331" lon="6.15372">
        <ele>60.5</ele>
        <time>2016-05-16T07:12:29Z</time>
      </trkpt>
      <trkpt lat="43.14298" lon="6.15374">
        <ele>60.2</ele>
        <time>2016-05-16T07:12:34Z</time>
      </trkpt>
      <trkpt lat="43.14264" lon="6.15374">
        <ele>59.4</ele>
        <time>2016-05-16T07:12:39Z</time>
      </trkpt>
      <trkpt lat="43.1423" lon="6.15376">
        <ele>59.1</ele>
        <time>2016-05-16T07:12:44Z</time>
      </trkpt>
      <trkpt lat="43.14192" lon="6.15383">
        <ele>58.7</ele>
        <time>2016-05-16T07:12:50Z</time>
      </trkpt>
      <trkpt lat="43.14151" lon="6.15401">
        <ele>58.3</ele>
        <time>2016-05-16T07:12:57Z</time>
      </trkpt>
      <trkpt lat="43.14124" lon="6.15419">
        <ele>58.4</ele>
        <time>2016-05-16T07:13:02Z</time>
      </trkpt>
      <trkpt lat="43.14087" lon="6.1545">
        <ele>58.5</ele>
        <time>2016-05-16T07:13:09Z</time>
      </trkpt>
      <trkpt lat="43.14052" lon="6.15489">
        <ele>59</ele>
        <time>2016-05-16T07:13:16Z</time>
      </trkpt>
      <trkpt lat="43.1402" lon="6.15518">
        <ele>58.3</ele>
        <time>2016-05-16T07:13:22Z</time>
      </trkpt>
      <trkpt lat="43.13988" lon="6.15547">
        <ele>57</ele>
        <time>2016-05-16T07:13:28Z</time>
      </trkpt>
      <trkpt lat="43.13958" lon="6.15577">
        <ele>55.2</ele>
        <time>2016-05-16T07:13:34Z</time>
      </trkpt>
      <trkpt lat="43.13927" lon="6.15608">
        <ele>55.2</ele>
        <time>2016-05-16T07:13:40Z</time>
      </trkpt>
      <trkpt lat="43.13896" lon="6.15638">
        <ele>55.7</ele>
        <time>2016-05-16T07:13:46Z</time>
      </trkpt>
      <trkpt lat="43.13863" lon="6.15659">
        <ele>57.1</ele>
        <time>2016-05-16T07:13:52Z</time>
      </trkpt>
      <trkpt lat="43.13816" lon="6.15675">
        <ele>56.2</ele>
        <time>2016-05-16T07:13:59Z</time>
      </trkpt>
      <trkpt lat="43.1376" lon="6.15691">
        <ele>57.4</ele>
        <time>2016-05-16T07:14:08Z</time>
      </trkpt>
      <trkpt lat="43.13717" lon="6.15705">
        <ele>57.7</ele>
        <time>2016-05-16T07:14:15Z</time>
      </trkpt>
      <trkpt lat="43.13682" lon="6.15716">
        <ele>57.7</ele>
        <time>2016-05-16T07:14:21Z</time>
      </trkpt>
      <trkpt lat="43.13646" lon="6.1573">
        <ele>56.6</ele>
        <time>2016-05-16T07:14:27Z</time>
      </trkpt>
      <trkpt lat="43.13611" lon="6.15743">
        <ele>57.9</ele>
        <time>2016-05-16T07:14:33Z</time>
      </trkpt>
      <trkpt lat="43.1358" lon="6.15753">
        <ele>59</ele>
        <time>2016-05-16T07:14:38Z</time>
      </trkpt>
      <trkpt lat="43.13542" lon="6.15772">
        <ele>59.2</ele>
        <time>2016-05-16T07:14:45Z</time>
      </trkpt>
      <trkpt lat="43.13514" lon="6.1579">
        <ele>58.5</ele>
        <time>2016-05-16T07:14:50Z</time>
      </trkpt>
      <trkpt lat="43.13485" lon="6.15821">
        <ele>57.3</ele>
        <time>2016-05-16T07:14:56Z</time>
      </trkpt>
      <trkpt lat="43.13437" lon="6.15897">
        <ele>59.7</ele>
        <time>2016-05-16T07:15:07Z</time>
      </trkpt>
      <trkpt lat="43.1342" lon="6.15933">
        <ele>59.1</ele>
        <time>2016-05-16T07:15:12Z</time>
      </trkpt>
      <trkpt lat="43.13398" lon="6.15989">
        <ele>56.6</ele>
        <time>2016-05-16T07:15:19Z</time>
      </trkpt>
      <trkpt lat="43.134" lon="6.1604">
        <ele>55.7</ele>
        <time>2016-05-16T07:15:25Z</time>
      </trkpt>
      <trkpt lat="43.1339" lon="6.1609">
        <ele>54.5</ele>
        <time>2016-05-16T07:15:31Z</time>
      </trkpt>
      <trkpt lat="43.13375" lon="6.16138">
        <ele>55.3</ele>
        <time>2016-05-16T07:15:37Z</time>
      </trkpt>
      <trkpt lat="43.13359" lon="6.16172">
        <ele>54.7</ele>
        <time>2016-05-16T07:15:42Z</time>
      </trkpt>
      <trkpt lat="43.13338" lon="6.16205">
        <ele>56.4</ele>
        <time>2016-05-16T07:15:48Z</time>
      </trkpt>
      <trkpt lat="43.13338" lon="6.16212">
        <ele>57.5</ele>
        <time>2016-05-16T07:15:51Z</time>
      </trkpt>
      <trkpt lat="43.13338" lon="6.16212">
        <ele>7.2</ele>
        <time>2016-05-16T07:15:56Z</time>
      </trkpt>
      <trkpt lat="43.13338" lon="6.16212">
        <ele>7.2</ele>
        <time>2016-05-16T07:16:16Z</time>
      </trkpt>
      <trkpt lat="43.1333" lon="6.16229">
        <ele>56.6</ele>
        <time>2016-05-16T07:16:16Z</time>
      </trkpt>
      <trkpt lat="43.13311" lon="6.16258">
        <ele>56.2</ele>
        <time>2016-05-16T07:16:23Z</time>
      </trkpt>
      <trkpt lat="43.13286" lon="6.16289">
        <ele>55.4</ele>
        <time>2016-05-16T07:16:29Z</time>
      </trkpt>
      <trkpt lat="43.13256" lon="6.1633">
        <ele>56.6</ele>
        <time>2016-05-16T07:16:36Z</time>
      </trkpt>
      <trkpt lat="43.13234" lon="6.16357">
        <ele>55.7</ele>
        <time>2016-05-16T07:16:41Z</time>
      </trkpt>
      <trkpt lat="43.13199" lon="6.16391">
        <ele>54.7</ele>
        <time>2016-05-16T07:16:48Z</time>
      </trkpt>
      <trkpt lat="43.13172" lon="6.16437">
        <ele>57</ele>
        <time>2016-05-16T07:16:55Z</time>
      </trkpt>
      <trkpt lat="43.13153" lon="6.1647">
        <ele>56.4</ele>
        <time>2016-05-16T07:17:00Z</time>
      </trkpt>
      <trkpt lat="43.13134" lon="6.16511">
        <ele>58.8</ele>
        <time>2016-05-16T07:17:06Z</time>
      </trkpt>
      <trkpt lat="43.13121" lon="6.16549">
        <ele>59.5</ele>
        <time>2016-05-16T07:17:11Z</time>
      </trkpt>
      <trkpt lat="43.13111" lon="6.166">
        <ele>60.1</ele>
        <time>2016-05-16T07:17:18Z</time>
      </trkpt>
      <trkpt lat="43.13077" lon="6.16605">
        <ele>56.8</ele>
        <time>2016-05-16T07:17:24Z</time>
      </trkpt>
      <trkpt lat="43.13059" lon="6.16556">
        <ele>57.1</ele>
        <time>2016-05-16T07:17:32Z</time>
      </trkpt>
      <trkpt lat="43.13046" lon="6.1651">
        <ele>56.9</ele>
        <time>2016-05-16T07:17:38Z</time>
      </trkpt>
      <trkpt lat="43.13036" lon="6.16463">
        <ele>54.9</ele>
        <time>2016-05-16T07:17:43Z</time>
      </trkpt>
      <trkpt lat="43.1302" lon="6.16405">
        <ele>53.6</ele>
        <time>2016-05-16T07:17:50Z</time>
      </trkpt>
      <trkpt lat="43.13007" lon="6.1636">
        <ele>53.8</ele>
        <time>2016-05-16T07:17:56Z</time>
      </trkpt>
      <trkpt lat="43.12996" lon="6.16324">
        <ele>53.2</ele>
        <time>2016-05-16T07:18:01Z</time>
      </trkpt>
      <trkpt lat="43.12985" lon="6.16277">
        <ele>54.8</ele>
        <time>2016-05-16T07:18:08Z</time>
      </trkpt>
      <trkpt lat="43.12976" lon="6.16242">
        <ele>55.3</ele>
        <time>2016-05-16T07:18:13Z</time>
      </trkpt>
      <trkpt lat="43.12966" lon="6.162">
        <ele>55</ele>
        <time>2016-05-16T07:18:19Z</time>
      </trkpt>
      <trkpt lat="43.12951" lon="6.16153">
        <ele>55.9</ele>
        <time>2016-05-16T07:18:25Z</time>
      </trkpt>
      <trkpt lat="43.12942" lon="6.16109">
        <ele>55</ele>
        <time>2016-05-16T07:18:31Z</time>
      </trkpt>
      <trkpt lat="43.12931" lon="6.16062">
        <ele>55.1</ele>
        <time>2016-05-16T07:18:38Z</time>
      </trkpt>
      <trkpt lat="43.12917" lon="6.16008">
        <ele>57.9</ele>
        <time>2016-05-16T07:18:45Z</time>
      </trkpt>
      <trkpt lat="43.12904" lon="6.15947">
        <ele>60</ele>
        <time>2016-05-16T07:18:53Z</time>
      </trkpt>
      <trkpt lat="43.12898" lon="6.15897">
        <ele>60.6</ele>
        <time>2016-05-16T07:18:59Z</time>
      </trkpt>
      <trkpt lat="43.12897" lon="6.15846">
        <ele>61.9</ele>
        <time>2016-05-16T07:19:05Z</time>
      </trkpt>
      <trkpt lat="43.12902" lon="6.15804">
        <ele>61.5</ele>
        <time>2016-05-16T07:19:10Z</time>
      </trkpt>
      <trkpt lat="43.12907" lon="6.15749">
        <ele>62</ele>
        <time>2016-05-16T07:19:17Z</time>
      </trkpt>
      <trkpt lat="43.12911" lon="6.15713">
        <ele>62</ele>
        <time>2016-05-16T07:19:22Z</time>
      </trkpt>
      <trkpt lat="43.12911" lon="6.15669">
        <ele>62.5</ele>
        <time>2016-05-16T07:19:28Z</time>
      </trkpt>
      <trkpt lat="43.12908" lon="6.15631">
        <ele>64.2</ele>
        <time>2016-05-16T07:19:33Z</time>
      </trkpt>
      <trkpt lat="43.12892" lon="6.15585">
        <ele>65</ele>
        <time>2016-05-16T07:19:41Z</time>
      </trkpt>
      <trkpt lat="43.12896" lon="6.15536">
        <ele>64.6</ele>
        <time>2016-05-16T07:19:49Z</time>
      </trkpt>
      <trkpt lat="43.12886" lon="6.15508">
        <ele>63.5</ele>
        <time>2016-05-16T07:19:55Z</time>
      </trkpt>
      <trkpt lat="43.12876" lon="6.15474">
        <ele>63.7</ele>
        <time>2016-05-16T07:20:01Z</time>
      </trkpt>
      <trkpt lat="43.12861" lon="6.15442">
        <ele>62.6</ele>
        <time>2016-05-16T07:20:07Z</time>
      </trkpt>
      <trkpt lat="43.12841" lon="6.15411">
        <ele>61.3</ele>
        <time>2016-05-16T07:20:14Z</time>
      </trkpt>
      <trkpt lat="43.12822" lon="6.15381">
        <ele>61.6</ele>
        <time>2016-05-16T07:20:21Z</time>
      </trkpt>
      <trkpt lat="43.12812" lon="6.15359">
        <ele>62.7</ele>
        <time>2016-05-16T07:20:26Z</time>
      </trkpt>
      <trkpt lat="43.12794" lon="6.15338">
        <ele>62.6</ele>
        <time>2016-05-16T07:20:32Z</time>
      </trkpt>
      <trkpt lat="43.12774" lon="6.15321">
        <ele>62.1</ele>
        <time>2016-05-16T07:20:37Z</time>
      </trkpt>
      <trkpt lat="43.12742" lon="6.15309">
        <ele>63</ele>
        <time>2016-05-16T07:20:44Z</time>
      </trkpt>
      <trkpt lat="43.1271" lon="6.15295">
        <ele>63.7</ele>
        <time>2016-05-16T07:20:51Z</time>
      </trkpt>
      <trkpt lat="43.12687" lon="6.15272">
        <ele>65.3</ele>
        <time>2016-05-16T07:20:57Z</time>
      </trkpt>
      <trkpt lat="43.1267" lon="6.15242">
        <ele>66.4</ele>
        <time>2016-05-16T07:21:03Z</time>
      </trkpt>
      <trkpt lat="43.12659" lon="6.15223">
        <ele>69.3</ele>
        <time>2016-05-16T07:21:07Z</time>
      </trkpt>
      <trkpt lat="43.12642" lon="6.15196">
        <ele>70</ele>
        <time>2016-05-16T07:21:13Z</time>
      </trkpt>
      <trkpt lat="43.12628" lon="6.15173">
        <ele>71.7</ele>
        <time>2016-05-16T07:21:18Z</time>
      </trkpt>
      <trkpt lat="43.12612" lon="6.15151">
        <ele>71.4</ele>
        <time>2016-05-16T07:21:23Z</time>
      </trkpt>
      <trkpt lat="43.12578" lon="6.15121">
        <ele>70.9</ele>
        <time>2016-05-16T07:21:32Z</time>
      </trkpt>
      <trkpt lat="43.12557" lon="6.15108">
        <ele>71</ele>
        <time>2016-05-16T07:21:37Z</time>
      </trkpt>
      <trkpt lat="43.12532" lon="6.151">
        <ele>74.6</ele>
        <time>2016-05-16T07:21:43Z</time>
      </trkpt>
      <trkpt lat="43.12517" lon="6.15072">
        <ele>74.6</ele>
        <time>2016-05-16T07:21:48Z</time>
      </trkpt>
      <trkpt lat="43.12495" lon="6.15042">
        <ele>73.4</ele>
        <time>2016-05-16T07:21:54Z</time>
      </trkpt>
      <trkpt lat="43.12475" lon="6.15007">
        <ele>72.5</ele>
        <time>2016-05-16T07:22:01Z</time>
      </trkpt>
      <trkpt lat="43.1246" lon="6.14963">
        <ele>74.7</ele>
        <time>2016-05-16T07:22:08Z</time>
      </trkpt>
      <trkpt lat="43.12452" lon="6.14934">
        <ele>75.2</ele>
        <time>2016-05-16T07:22:13Z</time>
      </trkpt>
      <trkpt lat="43.12438" lon="6.14896">
        <ele>75.8</ele>
        <time>2016-05-16T07:22:20Z</time>
      </trkpt>
      <trkpt lat="43.12426" lon="6.14857">
        <ele>75</ele>
        <time>2016-05-16T07:22:27Z</time>
      </trkpt>
      <trkpt lat="43.12415" lon="6.1482">
        <ele>77.4</ele>
        <time>2016-05-16T07:22:33Z</time>
      </trkpt>
      <trkpt lat="43.12409" lon="6.14796">
        <ele>80.8</ele>
        <time>2016-05-16T07:22:38Z</time>
      </trkpt>
      <trkpt lat="43.124" lon="6.14766">
        <ele>79.9</ele>
        <time>2016-05-16T07:22:44Z</time>
      </trkpt>
      <trkpt lat="43.1239" lon="6.14731">
        <ele>80.8</ele>
        <time>2016-05-16T07:22:50Z</time>
      </trkpt>
      <trkpt lat="43.12383" lon="6.14699">
        <ele>79.4</ele>
        <time>2016-05-16T07:22:56Z</time>
      </trkpt>
      <trkpt lat="43.12367" lon="6.14675">
        <ele>77.9</ele>
        <time>2016-05-16T07:23:03Z</time>
      </trkpt>
      <trkpt lat="43.12358" lon="6.14663">
        <ele>77</ele>
        <time>2016-05-16T07:23:08Z</time>
      </trkpt>
      <trkpt lat="43.12347" lon="6.14619">
        <ele>79.1</ele>
        <time>2016-05-16T07:23:17Z</time>
      </trkpt>
      <trkpt lat="43.12336" lon="6.14588">
        <ele>74</ele>
        <time>2016-05-16T07:23:22Z</time>
      </trkpt>
      <trkpt lat="43.12326" lon="6.14554">
        <ele>72.9</ele>
        <time>2016-05-16T07:23:28Z</time>
      </trkpt>
      <trkpt lat="43.12315" lon="6.14514">
        <ele>75.1</ele>
        <time>2016-05-16T07:23:35Z</time>
      </trkpt>
      <trkpt lat="43.12309" lon="6.14486">
        <ele>77.1</ele>
        <time>2016-05-16T07:23:40Z</time>
      </trkpt>
      <trkpt lat="43.12298" lon="6.14453">
        <ele>74.6</ele>
        <time>2016-05-16T07:23:46Z</time>
      </trkpt>
      <trkpt lat="43.12289" lon="6.14427">
        <ele>73.4</ele>
        <time>2016-05-16T07:23:51Z</time>
      </trkpt>
      <trkpt lat="43.12281" lon="6.14393">
        <ele>74.4</ele>
        <time>2016-05-16T07:23:57Z</time>
      </trkpt>
      <trkpt lat="43.12272" lon="6.14358">
        <ele>76.4</ele>
        <time>2016-05-16T07:24:03Z</time>
      </trkpt>
      <trkpt lat="43.12262" lon="6.14323">
        <ele>78.2</ele>
        <time>2016-05-16T07:24:09Z</time>
      </trkpt>
      <trkpt lat="43.12251" lon="6.14285">
        <ele>78.9</ele>
        <time>2016-05-16T07:24:16Z</time>
      </trkpt>
      <trkpt lat="43.1224" lon="6.14259">
        <ele>78.1</ele>
        <time>2016-05-16T07:24:21Z</time>
      </trkpt>
      <trkpt lat="43.1223" lon="6.14223">
        <ele>77.1</ele>
        <time>2016-05-16T07:24:27Z</time>
      </trkpt>
      <trkpt lat="43.12221" lon="6.14194">
        <ele>77.9</ele>
        <time>2016-05-16T07:24:32Z</time>
      </trkpt>
      <trkpt lat="43.12207" lon="6.14154">
        <ele>76</ele>
        <time>2016-05-16T07:24:40Z</time>
      </trkpt>
      <trkpt lat="43.12199" lon="6.14128">
        <ele>75.1</ele>
        <time>2016-05-16T07:24:47Z</time>
      </trkpt>
      <trkpt lat="43.12195" lon="6.14103">
        <ele>80</ele>
        <time>2016-05-16T07:24:57Z</time>
      </trkpt>
      <trkpt lat="43.1218" lon="6.14041">
        <ele>82.5</ele>
        <time>2016-05-16T07:25:08Z</time>
      </trkpt>
      <trkpt lat="43.12167" lon="6.13999">
        <ele>84.7</ele>
        <time>2016-05-16T07:25:15Z</time>
      </trkpt>
      <trkpt lat="43.12156" lon="6.13964">
        <ele>83.4</ele>
        <time>2016-05-16T07:25:21Z</time>
      </trkpt>
      <trkpt lat="43.1215" lon="6.13925">
        <ele>85.2</ele>
        <time>2016-05-16T07:25:27Z</time>
      </trkpt>
      <trkpt lat="43.12147" lon="6.13892">
        <ele>85.6</ele>
        <time>2016-05-16T07:25:32Z</time>
      </trkpt>
      <trkpt lat="43.12142" lon="6.13862">
        <ele>86</ele>
        <time>2016-05-16T07:25:38Z</time>
      </trkpt>
      <trkpt lat="43.12139" lon="6.13843">
        <ele>87.1</ele>
        <time>2016-05-16T07:25:43Z</time>
      </trkpt>
      <trkpt lat="43.12128" lon="6.13798">
        <ele>88.2</ele>
        <time>2016-05-16T07:25:52Z</time>
      </trkpt>
      <trkpt lat="43.12126" lon="6.13752">
        <ele>90.1</ele>
        <time>2016-05-16T07:25:59Z</time>
      </trkpt>
      <trkpt lat="43.12123" lon="6.13716">
        <ele>90.4</ele>
        <time>2016-05-16T07:26:04Z</time>
      </trkpt>
      <trkpt lat="43.12121" lon="6.13671">
        <ele>90.7</ele>
        <time>2016-05-16T07:26:10Z</time>
      </trkpt>
      <trkpt lat="43.12115" lon="6.13617">
        <ele>93.1</ele>
        <time>2016-05-16T07:26:17Z</time>
      </trkpt>
      <trkpt lat="43.12113" lon="6.13581">
        <ele>94.1</ele>
        <time>2016-05-16T07:26:22Z</time>
      </trkpt>
      <trkpt lat="43.12108" lon="6.13541">
        <ele>92.8</ele>
        <time>2016-05-16T07:26:28Z</time>
      </trkpt>
      <trkpt lat="43.12101" lon="6.13494">
        <ele>89.5</ele>
        <time>2016-05-16T07:26:35Z</time>
      </trkpt>
      <trkpt lat="43.12099" lon="6.13461">
        <ele>89</ele>
        <time>2016-05-16T07:26:40Z</time>
      </trkpt>
      <trkpt lat="43.12093" lon="6.13422">
        <ele>89.7</ele>
        <time>2016-05-16T07:26:47Z</time>
      </trkpt>
      <trkpt lat="43.12094" lon="6.1339">
        <ele>88.9</ele>
        <time>2016-05-16T07:26:53Z</time>
      </trkpt>
      <trkpt lat="43.12085" lon="6.13348">
        <ele>90.5</ele>
        <time>2016-05-16T07:27:00Z</time>
      </trkpt>
      <trkpt lat="43.12083" lon="6.13319">
        <ele>91.5</ele>
        <time>2016-05-16T07:27:05Z</time>
      </trkpt>
      <trkpt lat="43.12079" lon="6.13287">
        <ele>93</ele>
        <time>2016-05-16T07:27:11Z</time>
      </trkpt>
      <trkpt lat="43.12075" lon="6.13258">
        <ele>92.6</ele>
        <time>2016-05-16T07:27:16Z</time>
      </trkpt>
      <trkpt lat="43.12072" lon="6.13228">
        <ele>92.1</ele>
        <time>2016-05-16T07:27:22Z</time>
      </trkpt>
      <trkpt lat="43.12073" lon="6.13185">
        <ele>92.4</ele>
        <time>2016-05-16T07:27:30Z</time>
      </trkpt>
      <trkpt lat="43.1207" lon="6.13148">
        <ele>94.5</ele>
        <time>2016-05-16T07:27:37Z</time>
      </trkpt>
      <trkpt lat="43.12076" lon="6.13119">
        <ele>93.8</ele>
        <time>2016-05-16T07:27:43Z</time>
      </trkpt>
      <trkpt lat="43.12094" lon="6.1311">
        <ele>95.7</ele>
        <time>2016-05-16T07:27:48Z</time>
      </trkpt>
      <trkpt lat="43.12112" lon="6.13111">
        <ele>97.1</ele>
        <time>2016-05-16T07:27:53Z</time>
      </trkpt>
      <trkpt lat="43.12136" lon="6.13132">
        <ele>95.6</ele>
        <time>2016-05-16T07:28:02Z</time>
      </trkpt>
      <trkpt lat="43.12152" lon="6.13116">
        <ele>97</ele>
        <time>2016-05-16T07:28:07Z</time>
      </trkpt>
      <trkpt lat="43.12171" lon="6.13099">
        <ele>96.7</ele>
        <time>2016-05-16T07:28:13Z</time>
      </trkpt>
      <trkpt lat="43.12187" lon="6.13088">
        <ele>98.1</ele>
        <time>2016-05-16T07:28:18Z</time>
      </trkpt>
      <trkpt lat="43.12204" lon="6.13076">
        <ele>100.5</ele>
        <time>2016-05-16T07:28:24Z</time>
      </trkpt>
      <trkpt lat="43.12224" lon="6.13067">
        <ele>102.6</ele>
        <time>2016-05-16T07:28:33Z</time>
      </trkpt>
      <trkpt lat="43.12228" lon="6.13069">
        <ele>104.8</ele>
        <time>2016-05-16T07:28:36Z</time>
      </trkpt>
      <trkpt lat="43.12228" lon="6.13069">
        <ele>42.8</ele>
        <time>2016-05-16T07:28:41Z</time>
      </trkpt>
      <trkpt lat="43.12228" lon="6.13069">
        <ele>42.8</ele>
        <time>2016-05-16T07:31:23Z</time>
      </trkpt>
      <trkpt lat="43.12225" lon="6.13108">
        <ele>109.1</ele>
        <time>2016-05-16T07:31:23Z</time>
      </trkpt>
      <trkpt lat="43.12232" lon="6.13127">
        <ele>110.8</ele>
        <time>2016-05-16T07:31:35Z</time>
      </trkpt>
      <trkpt lat="43.12251" lon="6.13135">
        <ele>115.1</ele>
        <time>2016-05-16T07:31:49Z</time>
      </trkpt>
      <trkpt lat="43.12262" lon="6.13139">
        <ele>100.3</ele>
        <time>2016-05-16T07:31:58Z</time>
      </trkpt>
      <trkpt lat="43.12263" lon="6.13107">
        <ele>95.9</ele>
        <time>2016-05-16T07:32:14Z</time>
      </trkpt>
      <trkpt lat="43.12263" lon="6.13107">
        <ele>95.9</ele>
        <time>2016-05-16T07:32:22Z</time>
      </trkpt>
      <trkpt lat="43.12263" lon="6.13107">
        <ele>41.6</ele>
        <time>2016-05-16T07:32:22Z</time>
      </trkpt>
      <trkpt lat="43.12263" lon="6.13107">
        <ele>41.6</ele>
        <time>2016-05-16T07:34:00Z</time>
      </trkpt>
      <trkpt lat="43.12263" lon="6.13107">
        <ele>41.6</ele>
        <time>2016-05-16T07:34:01Z</time>
      </trkpt>
      <trkpt lat="43.12263" lon="6.13107">
        <ele>41.6</ele>
        <time>2016-05-16T07:34:16Z</time>
      </trkpt>
    </trkseg>
  </trk>
</gpx>